Time,TemperatureF,DewpointF,PressureIn,WindDirection,WindDirectionDegrees,WindSpeedMPH,WindSpeedGustMPH,Humidity,HourlyPrecipIn,Conditions,Clouds,dailyrainin,SolarRadiationWatts/m^2,SoftwareType,DateUTC
2013-02-28 00:00:00,38.9,38.4,30.66,SW,225,1.0,2.0,98,0.00,,,0.00,0,MyOwnSoftware,2013-02-28 00:00:00,
2013-02-28 00:01:00,38.9,38.4,30.66,SW,225,1.0,2.0,98,0.00,,,0.00,0,MyOwnSoftware,2013-02-28 00:01:00,
2013-02-28 00:02:00,38.9,38.4,30.66,SW,225,1.0,3.0,98,0.00,,,0.00,0,MyOwnSoftware,2013-02-28 00:02:00,
2013-02-28 00:03:00,38.9,38.4,30.66,SW,225,1.0,2.0,98,0.00,,,0.00,0,MyOwnSoftware,2013-02-28 00:03:00,
2013-02-28 00:04:00,38.9,38.4,30.66,SW,225,1.0,2.0,98,0.00,,,0.00,0,MyOwnSoftware,2013-02-28 00:04:00,
2013-02-28 00:05:00,38.9,38.4,30.66,SW,225,0.0,1.0,98,0.00,,,0.00,0,MyOwnSoftware,2013-02-28 00:05:00,
2013-02-28 00:09:00,38.9,38.4,30.66,North,0,0.0,0.0,98,0.00,,,0.00,0,MyOwnSoftware,2013-02-28 00:09:00,
2013-02-28 00:10:00,38.9,38.4,30.66,SW,225,0.0,1.0,98,0.00,,,0.00,0,MyOwnSoftware,2013-02-28 00:10:00,
2013-02-28 00:11:00,38.9,38.4,30.66,SW,225,1.0,2.0,98,0.00,,,0.00,0,MyOwnSoftware,2013-02-28 00:11:00,
2013-02-28 00:12:00,38.9,38.4,30.66,North,0,0.0,0.0,98,0.00,,,0.00,0,MyOwnSoftware,2013-02-28 00:12:00,
2013-02-28 00:13:00,38.8,38.0,30.66,SW,230,0.0,-999.0,98,-99.99,,,0.00,0,weatherlink.com 1.10,2013-02-28 00:13:00,
2013-02-28 00:14:00,38.8,38.3,30.66,SW,225,0.0,1.0,98,0.00,,,0.00,0,MyOwnSoftware,2013-02-28 00:14:00,
2013-02-28 00:15:00,38.8,38.3,30.66,SW,225,1.0,2.0,98,0.00,,,0.00,0,MyOwnSoftware,2013-02-28 00:15:00,
2013-02-28 00:16:00,38.8,38.3,30.66,North,0,0.0,0.0,98,0.00,,,0.00,0,MyOwnSoftware,2013-02-28 00:16:00,
2013-02-28 00:17:00,38.8,38.3,30.66,North,0,0.0,0.0,98,0.00,,,0.00,0,MyOwnSoftware,2013-02-28 00:17:00,
2013-02-28 00:18:00,38.8,38.3,30.66,North,0,0.0,0.0,98,0.00,,,0.00,0,MyOwnSoftware,2013-02-28 00:18:00,
2013-02-28 00:19:00,38.8,38.3,30.66,North,0,0.0,0.0,98,0.00,,,0.00,0,MyOwnSoftware,2013-02-28 00:19:00,
2013-02-28 00:20:00,38.8,38.3,30.66,North,0,0.0,0.0,98,0.00,,,0.00,0,MyOwnSoftware,2013-02-28 00:20:00,
2013-02-28 00:21:00,38.8,38.3,30.66,North,0,0.0,0.0,98,0.00,,,0.00,0,MyOwnSoftware,2013-02-28 00:21:00,
2013-02-28 00:22:00,38.6,38.1,30.66,North,0,0.0,0.0,98,0.00,,,0.00,0,MyOwnSoftware,2013-02-28 00:22:00,
2013-02-28 00:23:00,38.6,38.1,30.66,North,0,0.0,0.0,98,0.00,,,0.00,0,MyOwnSoftware,2013-02-28 00:23:00,
2013-02-28 00:24:00,38.6,38.1,30.66,North,0,0.0,0.0,98,0.00,,,0.00,0,MyOwnSoftware,2013-02-28 00:24:00,
2013-02-28 00:25:00,38.6,38.1,30.66,North,0,0.0,0.0,98,0.00,,,0.00,0,MyOwnSoftware,2013-02-28 00:25:00,
2013-02-28 00:27:00,38.6,38.0,30.66,SW,230,0.0,-999.0,98,-99.99,,,0.00,0,weatherlink.com 1.10,2013-02-28 00:27:00,
2013-02-28 00:29:00,38.6,38.1,30.66,SW,225,0.0,1.0,98,0.00,,,0.00,0,MyOwnSoftware,2013-02-28 00:29:00,
2013-02-28 00:30:00,38.5,38.0,30.65,North,0,0.0,0.0,98,0.00,,,0.00,0,MyOwnSoftware,2013-02-28 00:30:00,
2013-02-28 00:31:00,38.5,38.0,30.65,North,0,0.0,0.0,98,0.00,,,0.00,0,MyOwnSoftware,2013-02-28 00:31:00,
2013-02-28 00:32:00,38.5,38.0,30.65,North,0,0.0,0.0,98,0.00,,,0.00,0,MyOwnSoftware,2013-02-28 00:32:00,
2013-02-28 00:33:00,38.5,38.0,30.65,North,0,0.0,0.0,98,0.00,,,0.00,0,MyOwnSoftware,2013-02-28 00:33:00,
2013-02-28 00:34:00,38.3,37.8,30.65,SW,225,0.0,1.0,98,0.00,,,0.00,0,MyOwnSoftware,2013-02-28 00:34:00,
2013-02-28 00:35:00,38.6,38.1,30.66,North,0,0.0,0.0,98,0.00,,,0.00,0,MyOwnSoftware,2013-02-28 00:35:00,
2013-02-28 00:39:00,38.3,37.8,30.65,North,0,0.0,0.0,98,0.00,,,0.00,0,MyOwnSoftware,2013-02-28 00:39:00,
2013-02-28 00:40:00,38.2,37.7,30.65,North,0,0.0,0.0,98,0.00,,,0.00,0,MyOwnSoftware,2013-02-28 00:40:00,
2013-02-28 00:41:00,38.2,37.7,30.65,North,0,0.0,0.0,98,0.00,,,0.00,0,MyOwnSoftware,2013-02-28 00:41:00,
2013-02-28 00:42:00,38.2,38.0,30.65,SW,230,0.0,-999.0,98,-99.99,,,0.00,0,weatherlink.com 1.10,2013-02-28 00:42:00,
2013-02-28 00:43:00,38.0,37.5,30.65,North,0,0.0,0.0,98,0.00,,,0.00,0,MyOwnSoftware,2013-02-28 00:43:00,
2013-02-28 00:44:00,38.0,37.5,30.65,North,0,0.0,0.0,98,0.00,,,0.00,0,MyOwnSoftware,2013-02-28 00:44:00,
2013-02-28 00:45:00,38.0,37.5,30.65,North,0,0.0,0.0,98,0.00,,,0.00,0,MyOwnSoftware,2013-02-28 00:45:00,
2013-02-28 00:49:00,37.9,37.4,30.65,North,0,0.0,0.0,98,0.00,,,0.00,0,MyOwnSoftware,2013-02-28 00:49:00,
2013-02-28 00:50:00,37.9,37.4,30.65,North,0,0.0,0.0,98,0.00,,,0.00,0,MyOwnSoftware,2013-02-28 00:50:00,
2013-02-28 00:51:00,37.8,37.3,30.65,North,0,0.0,0.0,98,0.00,,,0.00,0,MyOwnSoftware,2013-02-28 00:51:00,
2013-02-28 00:52:00,37.8,37.3,30.65,North,0,0.0,0.0,98,0.00,,,0.00,0,MyOwnSoftware,2013-02-28 00:52:00,
2013-02-28 00:53:00,37.8,37.3,30.65,North,0,0.0,0.0,98,0.00,,,0.00,0,MyOwnSoftware,2013-02-28 00:53:00,
2013-02-28 00:54:00,37.8,37.3,30.65,North,0,0.0,0.0,98,0.00,,,0.00,0,MyOwnSoftware,2013-02-28 00:54:00,
2013-02-28 00:55:00,38.0,37.5,30.65,North,0,0.0,0.0,98,0.00,,,0.00,0,MyOwnSoftware,2013-02-28 00:55:00,
2013-02-28 00:56:00,37.8,37.3,30.65,North,0,0.0,0.0,98,0.00,,,0.00,0,MyOwnSoftware,2013-02-28 00:56:00,
2013-02-28 00:57:00,37.8,37.3,30.65,North,0,0.0,0.0,98,0.00,,,0.00,0,MyOwnSoftware,2013-02-28 00:57:00,
2013-02-28 00:58:00,37.6,37.1,30.65,North,0,0.0,0.0,98,0.00,,,0.00,0,MyOwnSoftware,2013-02-28 00:58:00,
2013-02-28 00:59:00,37.6,37.1,30.65,North,0,0.0,0.0,98,0.00,,,0.00,0,MyOwnSoftware,2013-02-28 00:59:00,
2013-02-28 01:00:00,37.6,37.1,30.65,North,0,0.0,0.0,98,0.00,,,0.00,0,MyOwnSoftware,2013-02-28 01:00:00,
2013-02-28 01:01:00,37.6,37.1,30.65,North,0,0.0,0.0,98,0.00,,,0.00,0,MyOwnSoftware,2013-02-28 01:01:00,
2013-02-28 01:02:00,37.6,37.1,30.65,North,0,0.0,0.0,98,0.00,,,0.00,0,MyOwnSoftware,2013-02-28 01:02:00,
2013-02-28 01:03:00,37.5,37.0,30.65,North,0,0.0,0.0,98,0.00,,,0.00,0,MyOwnSoftware,2013-02-28 01:03:00,
2013-02-28 01:04:00,37.5,37.2,30.65,North,0,0.0,0.0,99,0.00,,,0.00,0,MyOwnSoftware,2013-02-28 01:04:00,
2013-02-28 01:05:00,37.5,37.2,30.65,North,0,0.0,0.0,99,0.00,,,0.00,0,MyOwnSoftware,2013-02-28 01:05:00,
2013-02-28 01:09:00,37.3,37.0,30.65,North,0,0.0,0.0,99,0.00,,,0.00,0,MyOwnSoftware,2013-02-28 01:09:00,
2013-02-28 01:10:00,37.3,37.0,30.65,North,0,0.0,0.0,99,0.00,,,0.00,0,MyOwnSoftware,2013-02-28 01:10:00,
2013-02-28 01:11:00,37.3,37.0,30.65,North,0,0.0,0.0,99,0.00,,,0.00,0,MyOwnSoftware,2013-02-28 01:11:00,
2013-02-28 01:12:00,37.3,37.0,30.65,SW,230,0.0,-999.0,99,-99.99,,,0.00,0,weatherlink.com 1.10,2013-02-28 01:12:00,
2013-02-28 01:13:00,37.3,37.0,30.65,North,0,0.0,0.0,99,0.00,,,0.00,0,MyOwnSoftware,2013-02-28 01:13:00,
2013-02-28 01:14:00,37.2,37.2,30.65,North,0,0.0,0.0,100,0.00,,,0.00,0,MyOwnSoftware,2013-02-28 01:14:00,
2013-02-28 01:15:00,37.2,36.9,30.65,North,0,0.0,0.0,99,0.00,,,0.00,0,MyOwnSoftware,2013-02-28 01:15:00,
2013-02-28 01:16:00,37.2,36.9,30.65,North,0,0.0,0.0,99,0.00,,,0.00,0,MyOwnSoftware,2013-02-28 01:16:00,
2013-02-28 01:17:00,37.2,37.2,30.65,North,0,0.0,0.0,100,0.00,,,0.00,0,MyOwnSoftware,2013-02-28 01:17:00,
2013-02-28 01:18:00,37.2,37.2,30.65,North,0,0.0,0.0,100,0.00,,,0.00,0,MyOwnSoftware,2013-02-28 01:18:00,
2013-02-28 01:19:00,37.2,37.2,30.65,North,0,0.0,0.0,100,0.00,,,0.00,0,MyOwnSoftware,2013-02-28 01:19:00,
2013-02-28 01:20:00,37.2,37.2,30.65,North,0,0.0,0.0,100,0.00,,,0.00,0,MyOwnSoftware,2013-02-28 01:20:00,
2013-02-28 01:21:00,37.2,37.2,30.65,North,0,0.0,0.0,100,0.00,,,0.00,0,MyOwnSoftware,2013-02-28 01:21:00,
2013-02-28 01:22:00,37.0,37.0,30.65,North,0,0.0,0.0,100,0.00,,,0.00,0,MyOwnSoftware,2013-02-28 01:22:00,
2013-02-28 01:23:00,37.0,37.0,30.65,North,0,0.0,0.0,100,0.00,,,0.00,0,MyOwnSoftware,2013-02-28 01:23:00,
2013-02-28 01:24:00,37.0,37.0,30.65,SW,225,0.0,1.0,100,0.00,,,0.00,0,MyOwnSoftware,2013-02-28 01:24:00,
2013-02-28 01:25:00,37.0,37.0,30.65,North,0,0.0,0.0,100,0.00,,,0.00,0,MyOwnSoftware,2013-02-28 01:25:00,
2013-02-28 01:26:00,37.0,37.0,30.65,North,0,0.0,0.0,100,0.00,,,0.00,0,MyOwnSoftware,2013-02-28 01:26:00,
2013-02-28 01:27:00,37.0,37.0,30.65,SW,230,0.0,-999.0,100,-99.99,,,0.00,0,weatherlink.com 1.10,2013-02-28 01:27:00,
2013-02-28 01:28:00,37.0,37.0,30.65,North,0,0.0,0.0,100,0.00,,,0.00,0,MyOwnSoftware,2013-02-28 01:28:00,
2013-02-28 01:29:00,36.9,36.9,30.65,North,0,0.0,0.0,100,0.00,,,0.00,0,MyOwnSoftware,2013-02-28 01:29:00,
2013-02-28 01:30:00,36.9,36.9,30.65,North,0,0.0,0.0,100,0.00,,,0.00,0,MyOwnSoftware,2013-02-28 01:30:00,
2013-02-28 01:31:00,36.9,36.9,30.65,North,0,0.0,0.0,100,0.00,,,0.00,0,MyOwnSoftware,2013-02-28 01:31:00,
2013-02-28 01:32:00,36.9,36.9,30.65,North,0,0.0,0.0,100,0.00,,,0.00,0,MyOwnSoftware,2013-02-28 01:32:00,
2013-02-28 01:33:00,36.9,36.9,30.65,North,0,0.0,0.0,100,0.00,,,0.00,0,MyOwnSoftware,2013-02-28 01:33:00,
2013-02-28 01:34:00,36.9,36.9,30.65,North,0,0.0,0.0,100,0.00,,,0.00,0,MyOwnSoftware,2013-02-28 01:34:00,
2013-02-28 01:35:00,36.9,36.9,30.65,North,0,0.0,0.0,100,0.00,,,0.00,0,MyOwnSoftware,2013-02-28 01:35:00,
2013-02-28 01:36:00,36.8,36.8,30.65,North,0,0.0,0.0,100,0.00,,,0.00,0,MyOwnSoftware,2013-02-28 01:36:00,
2013-02-28 01:37:00,36.8,36.8,30.65,North,0,0.0,0.0,100,0.00,,,0.00,0,MyOwnSoftware,2013-02-28 01:37:00,
2013-02-28 01:38:00,36.8,36.8,30.65,North,0,0.0,0.0,100,0.00,,,0.00,0,MyOwnSoftware,2013-02-28 01:38:00,
2013-02-28 01:39:00,36.8,36.8,30.65,North,0,0.0,0.0,100,0.00,,,0.00,0,MyOwnSoftware,2013-02-28 01:39:00,
2013-02-28 01:40:00,36.8,36.8,30.65,North,0,0.0,0.0,100,0.00,,,0.00,0,MyOwnSoftware,2013-02-28 01:40:00,
2013-02-28 01:41:00,36.6,36.6,30.65,North,0,0.0,0.0,100,0.00,,,0.00,0,MyOwnSoftware,2013-02-28 01:41:00,
2013-02-28 01:42:00,36.6,37.0,30.65,SW,230,0.0,-999.0,100,-99.99,,,0.00,0,weatherlink.com 1.10,2013-02-28 01:42:00,
2013-02-28 01:43:00,36.6,36.6,30.65,North,0,0.0,0.0,100,0.00,,,0.00,0,MyOwnSoftware,2013-02-28 01:43:00,
2013-02-28 01:44:00,36.6,36.6,30.65,North,0,0.0,0.0,100,0.00,,,0.00,0,MyOwnSoftware,2013-02-28 01:44:00,
2013-02-28 01:45:00,36.6,36.6,30.65,North,0,0.0,0.0,100,0.00,,,0.00,0,MyOwnSoftware,2013-02-28 01:45:00,
2013-02-28 01:46:00,36.6,36.6,30.65,North,0,0.0,0.0,100,0.00,,,0.00,0,MyOwnSoftware,2013-02-28 01:46:00,
2013-02-28 01:47:00,36.6,36.6,30.65,North,0,0.0,0.0,100,0.00,,,0.00,0,MyOwnSoftware,2013-02-28 01:47:00,
2013-02-28 01:48:00,36.5,36.5,30.65,North,0,0.0,0.0,100,0.00,,,0.00,0,MyOwnSoftware,2013-02-28 01:48:00,
2013-02-28 01:49:00,36.5,36.5,30.65,North,0,0.0,0.0,100,0.00,,,0.00,0,MyOwnSoftware,2013-02-28 01:49:00,
2013-02-28 01:50:00,36.5,36.5,30.65,North,0,0.0,0.0,100,0.00,,,0.00,0,MyOwnSoftware,2013-02-28 01:50:00,
2013-02-28 01:51:00,36.5,36.5,30.65,North,0,0.0,0.0,100,0.00,,,0.00,0,MyOwnSoftware,2013-02-28 01:51:00,
2013-02-28 01:52:00,36.5,36.5,30.65,North,0,0.0,0.0,100,0.00,,,0.00,0,MyOwnSoftware,2013-02-28 01:52:00,
2013-02-28 01:53:00,36.5,36.5,30.65,North,0,0.0,0.0,100,0.00,,,0.00,0,MyOwnSoftware,2013-02-28 01:53:00,
2013-02-28 01:54:00,36.5,36.5,30.65,North,0,0.0,0.0,100,0.00,,,0.00,0,MyOwnSoftware,2013-02-28 01:54:00,
2013-02-28 01:55:00,36.5,36.5,30.65,North,0,0.0,0.0,100,0.00,,,0.00,0,MyOwnSoftware,2013-02-28 01:55:00,
2013-02-28 01:56:00,36.5,36.5,30.65,North,0,0.0,0.0,100,0.00,,,0.00,0,MyOwnSoftware,2013-02-28 01:56:00,
2013-02-28 01:57:00,36.5,37.0,30.65,SW,230,0.0,-999.0,100,-99.99,,,0.00,0,weatherlink.com 1.10,2013-02-28 01:57:00,
2013-02-28 01:58:00,36.5,36.5,30.65,North,0,0.0,0.0,100,0.00,,,0.00,0,MyOwnSoftware,2013-02-28 01:58:00,
2013-02-28 01:59:00,36.5,36.5,30.65,North,0,0.0,0.0,100,0.00,,,0.00,0,MyOwnSoftware,2013-02-28 01:59:00,
2013-02-28 02:00:00,36.5,36.5,30.65,North,0,0.0,0.0,100,0.00,,,0.00,0,MyOwnSoftware,2013-02-28 02:00:00,
2013-02-28 02:01:00,36.3,36.3,30.65,North,0,0.0,0.0,100,0.00,,,0.00,0,MyOwnSoftware,2013-02-28 02:01:00,
2013-02-28 02:02:00,36.3,36.3,30.65,North,0,0.0,0.0,100,0.00,,,0.00,0,MyOwnSoftware,2013-02-28 02:02:00,
2013-02-28 02:03:00,36.3,36.3,30.65,North,0,0.0,0.0,100,0.00,,,0.00,0,MyOwnSoftware,2013-02-28 02:03:00,
2013-02-28 02:04:00,36.3,36.3,30.65,North,0,0.0,0.0,100,0.00,,,0.00,0,MyOwnSoftware,2013-02-28 02:04:00,
2013-02-28 02:05:00,36.3,36.3,30.65,North,0,0.0,0.0,100,0.00,,,0.00,0,MyOwnSoftware,2013-02-28 02:05:00,
2013-02-28 02:06:00,36.2,36.2,30.65,North,0,0.0,0.0,100,0.00,,,0.00,0,MyOwnSoftware,2013-02-28 02:06:00,
2013-02-28 02:07:00,36.2,36.2,30.65,North,0,0.0,0.0,100,0.00,,,0.00,0,MyOwnSoftware,2013-02-28 02:07:00,
2013-02-28 02:08:00,36.2,36.2,30.65,North,0,0.0,0.0,100,0.00,,,0.00,0,MyOwnSoftware,2013-02-28 02:08:00,
2013-02-28 02:09:00,36.2,36.2,30.65,North,0,0.0,0.0,100,0.00,,,0.00,0,MyOwnSoftware,2013-02-28 02:09:00,
2013-02-28 02:10:00,36.2,36.2,30.65,North,0,0.0,0.0,100,0.00,,,0.00,0,MyOwnSoftware,2013-02-28 02:10:00,
2013-02-28 02:11:00,36.2,36.2,30.65,North,0,0.0,0.0,100,0.00,,,0.00,0,MyOwnSoftware,2013-02-28 02:11:00,
2013-02-28 02:12:00,36.2,36.0,30.65,SW,230,0.0,-999.0,100,-99.99,,,0.00,0,weatherlink.com 1.10,2013-02-28 02:12:00,
2013-02-28 02:13:00,36.2,36.2,30.65,North,0,0.0,0.0,100,0.00,,,0.00,0,MyOwnSoftware,2013-02-28 02:13:00,
2013-02-28 02:14:00,36.2,36.2,30.65,North,0,0.0,0.0,100,0.00,,,0.00,0,MyOwnSoftware,2013-02-28 02:14:00,
2013-02-28 02:15:00,36.2,36.2,30.64,North,0,0.0,0.0,100,0.00,,,0.00,0,MyOwnSoftware,2013-02-28 02:15:00,
2013-02-28 02:16:00,36.2,36.2,30.64,North,0,0.0,0.0,100,0.00,,,0.00,0,MyOwnSoftware,2013-02-28 02:16:00,
2013-02-28 02:17:00,36.2,36.2,30.64,North,0,0.0,0.0,100,0.00,,,0.00,0,MyOwnSoftware,2013-02-28 02:17:00,
2013-02-28 02:18:00,36.0,36.0,30.64,North,0,0.0,0.0,100,0.00,,,0.00,0,MyOwnSoftware,2013-02-28 02:18:00,
2013-02-28 02:19:00,36.0,36.0,30.64,North,0,0.0,0.0,100,0.00,,,0.00,0,MyOwnSoftware,2013-02-28 02:19:00,
2013-02-28 02:20:00,36.0,36.0,30.64,North,0,0.0,0.0,100,0.00,,,0.00,0,MyOwnSoftware,2013-02-28 02:20:00,
2013-02-28 02:21:00,36.0,36.0,30.64,North,0,0.0,0.0,100,0.00,,,0.00,0,MyOwnSoftware,2013-02-28 02:21:00,
2013-02-28 02:22:00,36.0,36.0,30.64,North,0,0.0,0.0,100,0.00,,,0.00,0,MyOwnSoftware,2013-02-28 02:22:00,
2013-02-28 02:23:00,36.0,36.0,30.64,North,0,0.0,0.0,100,0.00,,,0.00,0,MyOwnSoftware,2013-02-28 02:23:00,
2013-02-28 02:24:00,35.9,35.9,30.64,North,0,0.0,0.0,100,0.00,,,0.00,0,MyOwnSoftware,2013-02-28 02:24:00,
2013-02-28 02:25:00,35.9,35.9,30.64,North,0,0.0,0.0,100,0.00,,,0.00,0,MyOwnSoftware,2013-02-28 02:25:00,
2013-02-28 02:26:00,35.9,35.9,30.64,SW,225,0.0,1.0,100,0.00,,,0.00,0,MyOwnSoftware,2013-02-28 02:26:00,
2013-02-28 02:27:00,35.9,36.0,30.64,SW,230,0.0,-999.0,100,-99.99,,,0.00,0,weatherlink.com 1.10,2013-02-28 02:27:00,
2013-02-28 02:28:00,35.9,35.9,30.64,North,0,0.0,0.0,100,0.00,,,0.00,0,MyOwnSoftware,2013-02-28 02:28:00,
2013-02-28 02:29:00,35.9,35.9,30.64,North,0,0.0,0.0,100,0.00,,,0.00,0,MyOwnSoftware,2013-02-28 02:29:00,
2013-02-28 02:30:00,35.9,35.9,30.64,North,0,0.0,0.0,100,0.00,,,0.00,0,MyOwnSoftware,2013-02-28 02:30:00,
2013-02-28 02:31:00,35.9,35.9,30.64,North,0,0.0,0.0,100,0.00,,,0.00,0,MyOwnSoftware,2013-02-28 02:31:00,
2013-02-28 02:32:00,35.9,35.9,30.64,North,0,0.0,0.0,100,0.00,,,0.00,0,MyOwnSoftware,2013-02-28 02:32:00,
2013-02-28 02:33:00,35.9,35.9,30.64,North,0,0.0,0.0,100,0.00,,,0.00,0,MyOwnSoftware,2013-02-28 02:33:00,
2013-02-28 02:34:00,35.8,35.8,30.64,North,0,0.0,0.0,100,0.00,,,0.00,0,MyOwnSoftware,2013-02-28 02:34:00,
2013-02-28 02:35:00,35.8,35.8,30.64,North,0,0.0,0.0,100,0.00,,,0.00,0,MyOwnSoftware,2013-02-28 02:35:00,
2013-02-28 02:36:00,35.8,35.8,30.64,North,0,0.0,0.0,100,0.00,,,0.00,0,MyOwnSoftware,2013-02-28 02:36:00,
2013-02-28 02:37:00,35.8,35.8,30.64,North,0,0.0,0.0,100,0.00,,,0.00,0,MyOwnSoftware,2013-02-28 02:37:00,
2013-02-28 02:38:00,35.8,35.8,30.64,North,0,0.0,0.0,100,0.00,,,0.00,0,MyOwnSoftware,2013-02-28 02:38:00,
2013-02-28 02:39:00,35.8,35.8,30.64,North,0,0.0,0.0,100,0.00,,,0.00,0,MyOwnSoftware,2013-02-28 02:39:00,
2013-02-28 02:40:00,35.8,35.8,30.64,North,0,0.0,0.0,100,0.00,,,0.00,0,MyOwnSoftware,2013-02-28 02:40:00,
2013-02-28 02:41:00,35.8,35.8,30.64,SW,225,0.0,1.0,100,0.00,,,0.00,0,MyOwnSoftware,2013-02-28 02:41:00,
2013-02-28 02:42:00,35.6,36.0,30.64,SW,230,0.0,-999.0,100,-99.99,,,0.00,0,weatherlink.com 1.10,2013-02-28 02:42:00,
2013-02-28 02:43:00,35.6,35.6,30.64,North,0,0.0,0.0,100,0.00,,,0.00,0,MyOwnSoftware,2013-02-28 02:43:00,
2013-02-28 02:44:00,35.6,35.6,30.64,North,0,0.0,0.0,100,0.00,,,0.00,0,MyOwnSoftware,2013-02-28 02:44:00,
2013-02-28 02:45:00,35.6,35.6,30.64,North,0,0.0,0.0,100,0.00,,,0.00,0,MyOwnSoftware,2013-02-28 02:45:00,
2013-02-28 02:46:00,35.6,35.6,30.64,North,0,0.0,0.0,100,0.00,,,0.00,0,MyOwnSoftware,2013-02-28 02:46:00,
2013-02-28 02:47:00,35.6,35.6,30.64,North,0,0.0,0.0,100,0.00,,,0.00,0,MyOwnSoftware,2013-02-28 02:47:00,
2013-02-28 02:48:00,35.6,35.6,30.64,North,0,0.0,0.0,100,0.00,,,0.00,0,MyOwnSoftware,2013-02-28 02:48:00,
2013-02-28 02:49:00,35.6,35.6,30.64,SW,225,0.0,1.0,100,0.00,,,0.00,0,MyOwnSoftware,2013-02-28 02:49:00,
2013-02-28 02:50:00,35.6,35.6,30.64,North,0,0.0,0.0,100,0.00,,,0.00,0,MyOwnSoftware,2013-02-28 02:50:00,
2013-02-28 02:51:00,35.6,35.6,30.64,North,0,0.0,0.0,100,0.00,,,0.00,0,MyOwnSoftware,2013-02-28 02:51:00,
2013-02-28 02:52:00,35.5,35.5,30.64,North,0,0.0,0.0,100,0.00,,,0.00,0,MyOwnSoftware,2013-02-28 02:52:00,
2013-02-28 02:53:00,35.5,35.5,30.64,North,0,0.0,0.0,100,0.00,,,0.00,0,MyOwnSoftware,2013-02-28 02:53:00,
2013-02-28 02:54:00,35.5,35.5,30.64,North,0,0.0,0.0,100,0.00,,,0.00,0,MyOwnSoftware,2013-02-28 02:54:00,
2013-02-28 02:55:00,35.5,35.5,30.64,North,0,0.0,0.0,100,0.00,,,0.00,0,MyOwnSoftware,2013-02-28 02:55:00,
2013-02-28 02:56:00,35.5,35.5,30.64,North,0,0.0,0.0,100,0.00,,,0.00,0,MyOwnSoftware,2013-02-28 02:56:00,
2013-02-28 02:57:00,35.5,36.0,30.64,SW,230,0.0,-999.0,100,-99.99,,,0.00,0,weatherlink.com 1.10,2013-02-28 02:57:00,
2013-02-28 02:58:00,35.5,35.5,30.64,North,0,0.0,0.0,100,0.00,,,0.00,0,MyOwnSoftware,2013-02-28 02:58:00,
2013-02-28 02:59:00,35.5,35.5,30.64,North,0,0.0,0.0,100,0.00,,,0.00,0,MyOwnSoftware,2013-02-28 02:59:00,
2013-02-28 03:00:00,35.5,35.5,30.63,North,0,0.0,0.0,100,0.00,,,0.00,0,MyOwnSoftware,2013-02-28 03:00:00,
2013-02-28 03:01:00,35.3,35.3,30.63,North,0,0.0,0.0,100,0.00,,,0.00,0,MyOwnSoftware,2013-02-28 03:01:00,
2013-02-28 03:02:00,35.3,35.3,30.63,North,0,0.0,0.0,100,0.00,,,0.00,0,MyOwnSoftware,2013-02-28 03:02:00,
2013-02-28 03:03:00,35.3,35.3,30.63,North,0,0.0,0.0,100,0.00,,,0.00,0,MyOwnSoftware,2013-02-28 03:03:00,
2013-02-28 03:04:00,35.3,35.3,30.63,North,0,0.0,0.0,100,0.00,,,0.00,0,MyOwnSoftware,2013-02-28 03:04:00,
2013-02-28 03:05:00,35.3,35.3,30.63,North,0,0.0,0.0,100,0.00,,,0.00,0,MyOwnSoftware,2013-02-28 03:05:00,
2013-02-28 03:06:00,35.3,35.3,30.63,SW,225,0.0,1.0,100,0.00,,,0.00,0,MyOwnSoftware,2013-02-28 03:06:00,
2013-02-28 03:07:00,35.3,35.3,30.63,North,0,0.0,0.0,100,0.00,,,0.00,0,MyOwnSoftware,2013-02-28 03:07:00,
2013-02-28 03:08:00,35.3,35.3,30.63,North,0,0.0,0.0,100,0.00,,,0.00,0,MyOwnSoftware,2013-02-28 03:08:00,
2013-02-28 03:09:00,35.3,35.3,30.63,SW,225,0.0,1.0,100,0.00,,,0.00,0,MyOwnSoftware,2013-02-28 03:09:00,
2013-02-28 03:10:00,35.3,35.3,30.63,SW,225,0.0,1.0,100,0.00,,,0.00,0,MyOwnSoftware,2013-02-28 03:10:00,
2013-02-28 03:11:00,35.3,35.3,30.63,North,0,0.0,0.0,100,0.00,,,0.00,0,MyOwnSoftware,2013-02-28 03:11:00,
2013-02-28 03:12:00,35.3,35.0,30.63,SW,230,0.0,-999.0,100,-99.99,,,0.00,0,weatherlink.com 1.10,2013-02-28 03:12:00,
2013-02-28 03:13:00,35.3,35.3,30.63,North,0,0.0,0.0,100,0.00,,,0.00,0,MyOwnSoftware,2013-02-28 03:13:00,
2013-02-28 03:14:00,35.3,35.3,30.63,North,0,0.0,0.0,100,0.00,,,0.00,0,MyOwnSoftware,2013-02-28 03:14:00,
2013-02-28 03:15:00,35.3,35.3,30.63,North,0,0.0,0.0,100,0.00,,,0.00,0,MyOwnSoftware,2013-02-28 03:15:00,
2013-02-28 03:16:00,35.3,35.3,30.63,North,0,0.0,0.0,100,0.00,,,0.00,0,MyOwnSoftware,2013-02-28 03:16:00,
2013-02-28 03:17:00,35.3,35.3,30.63,North,0,0.0,0.0,100,0.00,,,0.00,0,MyOwnSoftware,2013-02-28 03:17:00,
2013-02-28 03:18:00,35.3,35.3,30.63,North,0,0.0,0.0,100,0.00,,,0.00,0,MyOwnSoftware,2013-02-28 03:18:00,
2013-02-28 03:19:00,35.3,35.3,30.63,SW,225,0.0,1.0,100,0.00,,,0.00,0,MyOwnSoftware,2013-02-28 03:19:00,
2013-02-28 03:20:00,35.3,35.3,30.63,SW,225,0.0,1.0,100,0.00,,,0.00,0,MyOwnSoftware,2013-02-28 03:20:00,
2013-02-28 03:21:00,35.3,35.3,30.63,SW,225,0.0,1.0,100,0.00,,,0.00,0,MyOwnSoftware,2013-02-28 03:21:00,
2013-02-28 03:22:00,35.3,35.3,30.63,SW,225,0.0,1.0,100,0.00,,,0.00,0,MyOwnSoftware,2013-02-28 03:22:00,
2013-02-28 03:23:00,35.3,35.3,30.63,SW,225,1.0,1.0,100,0.00,,,0.00,0,MyOwnSoftware,2013-02-28 03:23:00,
2013-02-28 03:24:00,35.3,35.3,30.63,SW,225,0.0,1.0,100,0.00,,,0.00,0,MyOwnSoftware,2013-02-28 03:24:00,
2013-02-28 03:25:00,35.3,35.3,30.63,SW,225,0.0,1.0,100,0.00,,,0.00,0,MyOwnSoftware,2013-02-28 03:25:00,
2013-02-28 03:26:00,35.3,35.3,30.63,North,0,0.0,0.0,100,0.00,,,0.00,0,MyOwnSoftware,2013-02-28 03:26:00,
2013-02-28 03:27:00,35.3,35.0,30.63,SW,230,0.0,-999.0,100,-99.99,,,0.00,0,weatherlink.com 1.10,2013-02-28 03:27:00,
2013-02-28 03:28:00,35.3,35.3,30.63,North,0,0.0,0.0,100,0.00,,,0.00,0,MyOwnSoftware,2013-02-28 03:28:00,
2013-02-28 03:29:00,35.3,35.3,30.63,SW,225,0.0,1.0,100,0.00,,,0.00,0,MyOwnSoftware,2013-02-28 03:29:00,
2013-02-28 03:30:00,35.3,35.3,30.62,North,0,0.0,0.0,100,0.00,,,0.00,0,MyOwnSoftware,2013-02-28 03:30:00,
2013-02-28 03:31:00,35.3,35.3,30.62,North,0,0.0,0.0,100,0.00,,,0.00,0,MyOwnSoftware,2013-02-28 03:31:00,
2013-02-28 03:32:00,35.2,35.2,30.62,North,0,0.0,0.0,100,0.00,,,0.00,0,MyOwnSoftware,2013-02-28 03:32:00,
2013-02-28 03:33:00,35.2,35.2,30.62,SW,225,0.0,1.0,100,0.00,,,0.00,0,MyOwnSoftware,2013-02-28 03:33:00,
2013-02-28 03:34:00,35.2,35.2,30.62,SW,225,0.0,1.0,100,0.00,,,0.00,0,MyOwnSoftware,2013-02-28 03:34:00,
2013-02-28 03:35:00,35.2,35.2,30.62,SW,225,0.0,1.0,100,0.00,,,0.00,0,MyOwnSoftware,2013-02-28 03:35:00,
2013-02-28 03:36:00,35.2,35.2,30.62,North,0,0.0,0.0,100,0.00,,,0.00,0,MyOwnSoftware,2013-02-28 03:36:00,
2013-02-28 03:37:00,35.2,35.2,30.62,North,0,0.0,0.0,100,0.00,,,0.00,0,MyOwnSoftware,2013-02-28 03:37:00,
2013-02-28 03:38:00,35.2,35.2,30.62,SW,225,0.0,1.0,100,0.00,,,0.00,0,MyOwnSoftware,2013-02-28 03:38:00,
2013-02-28 03:39:00,35.2,35.2,30.62,SW,225,0.0,1.0,100,0.00,,,0.00,0,MyOwnSoftware,2013-02-28 03:39:00,
2013-02-28 03:40:00,35.2,35.2,30.62,SW,225,0.0,1.0,100,0.00,,,0.00,0,MyOwnSoftware,2013-02-28 03:40:00,
2013-02-28 03:41:00,35.2,35.2,30.62,North,0,0.0,0.0,100,0.00,,,0.00,0,MyOwnSoftware,2013-02-28 03:41:00,
2013-02-28 03:42:00,35.0,35.0,30.62,SW,234,1.0,-999.0,100,-99.99,,,0.00,0,weatherlink.com 1.10,2013-02-28 03:42:00,
2013-02-28 03:43:00,35.0,35.0,30.62,SW,225,0.0,1.0,100,0.00,,,0.00,0,MyOwnSoftware,2013-02-28 03:43:00,
2013-02-28 03:44:00,35.0,35.0,30.62,SW,225,0.0,1.0,100,0.00,,,0.00,0,MyOwnSoftware,2013-02-28 03:44:00,
2013-02-28 03:45:00,35.0,35.0,30.62,North,0,0.0,0.0,100,0.00,,,0.00,0,MyOwnSoftware,2013-02-28 03:45:00,
2013-02-28 03:46:00,35.0,35.0,30.62,WSW,248,0.0,1.0,100,0.00,,,0.00,0,MyOwnSoftware,2013-02-28 03:46:00,
2013-02-28 03:47:00,35.0,35.0,30.62,WSW,248,0.0,1.0,100,0.00,,,0.00,0,MyOwnSoftware,2013-02-28 03:47:00,
2013-02-28 03:48:00,35.0,35.0,30.62,WSW,248,0.0,1.0,100,0.00,,,0.00,0,MyOwnSoftware,2013-02-28 03:48:00,
2013-02-28 03:49:00,35.0,35.0,30.62,North,0,0.0,0.0,100,0.00,,,0.00,0,MyOwnSoftware,2013-02-28 03:49:00,
2013-02-28 03:50:00,35.0,35.0,30.62,North,0,0.0,0.0,100,0.00,,,0.00,0,MyOwnSoftware,2013-02-28 03:50:00,
2013-02-28 03:51:00,35.0,35.0,30.62,WSW,248,0.0,1.0,100,0.00,,,0.00,0,MyOwnSoftware,2013-02-28 03:51:00,
2013-02-28 03:52:00,35.0,35.0,30.62,North,0,0.0,0.0,100,0.00,,,0.00,0,MyOwnSoftware,2013-02-28 03:52:00,
2013-02-28 03:53:00,35.0,35.0,30.62,WSW,248,0.0,1.0,100,0.00,,,0.00,0,MyOwnSoftware,2013-02-28 03:53:00,
2013-02-28 03:54:00,35.0,35.0,30.62,North,0,0.0,0.0,100,0.00,,,0.00,0,MyOwnSoftware,2013-02-28 03:54:00,
2013-02-28 03:55:00,35.0,35.0,30.62,WSW,248,0.0,2.0,100,0.00,,,0.00,0,MyOwnSoftware,2013-02-28 03:55:00,
2013-02-28 03:56:00,34.9,34.9,30.62,WSW,248,0.0,1.0,100,0.00,,,0.00,0,MyOwnSoftware,2013-02-28 03:56:00,
2013-02-28 03:57:00,34.9,35.0,30.62,WSW,239,0.0,-999.0,100,-99.99,,,0.00,0,weatherlink.com 1.10,2013-02-28 03:57:00,
2013-02-28 03:58:00,34.9,34.9,30.62,North,0,0.0,0.0,100,0.00,,,0.00,0,MyOwnSoftware,2013-02-28 03:58:00,
2013-02-28 03:59:00,34.9,34.9,30.62,North,0,0.0,0.0,100,0.00,,,0.00,0,MyOwnSoftware,2013-02-28 03:59:00,
2013-02-28 04:00:00,34.9,34.9,30.62,North,0,0.0,0.0,100,0.00,,,0.00,0,MyOwnSoftware,2013-02-28 04:00:00,
2013-02-28 04:01:00,34.9,34.9,30.62,North,0,0.0,0.0,100,0.00,,,0.00,0,MyOwnSoftware,2013-02-28 04:01:00,
2013-02-28 04:02:00,34.9,34.9,30.62,WSW,248,0.0,1.0,100,0.00,,,0.00,0,MyOwnSoftware,2013-02-28 04:02:00,
2013-02-28 04:03:00,34.9,34.9,30.62,North,0,0.0,0.0,100,0.00,,,0.00,0,MyOwnSoftware,2013-02-28 04:03:00,
2013-02-28 04:04:00,34.9,34.9,30.62,WSW,248,0.0,1.0,100,0.00,,,0.00,0,MyOwnSoftware,2013-02-28 04:04:00,
2013-02-28 04:05:00,34.9,34.9,30.62,WSW,248,0.0,1.0,100,0.00,,,0.00,0,MyOwnSoftware,2013-02-28 04:05:00,
2013-02-28 04:06:00,34.7,34.7,30.62,WSW,248,0.0,1.0,100,0.00,,,0.00,0,MyOwnSoftware,2013-02-28 04:06:00,
2013-02-28 04:07:00,34.7,34.7,30.62,WSW,248,0.0,1.0,100,0.00,,,0.00,0,MyOwnSoftware,2013-02-28 04:07:00,
2013-02-28 04:08:00,34.7,34.7,30.62,WSW,248,0.0,1.0,100,0.00,,,0.00,0,MyOwnSoftware,2013-02-28 04:08:00,
2013-02-28 04:09:00,34.7,34.7,30.62,North,0,0.0,0.0,100,0.00,,,0.00,0,MyOwnSoftware,2013-02-28 04:09:00,
2013-02-28 04:10:00,34.7,34.7,30.62,North,0,0.0,0.0,100,0.00,,,0.00,0,MyOwnSoftware,2013-02-28 04:10:00,
2013-02-28 04:11:00,34.7,34.7,30.62,North,0,0.0,0.0,100,0.00,,,0.00,0,MyOwnSoftware,2013-02-28 04:11:00,
2013-02-28 04:12:00,34.7,34.7,30.62,North,0,0.0,0.0,100,0.00,,,0.00,0,MyOwnSoftware,2013-02-28 04:12:00,
2013-02-28 04:13:00,34.7,34.7,30.62,WSW,248,1.0,2.0,100,0.00,,,0.00,0,MyOwnSoftware,2013-02-28 04:13:00,
2013-02-28 04:14:00,34.7,34.7,30.62,WSW,248,1.0,2.0,100,0.00,,,0.00,0,MyOwnSoftware,2013-02-28 04:14:00,
2013-02-28 04:15:00,34.7,34.7,30.62,WSW,248,1.0,2.0,100,0.00,,,0.00,0,MyOwnSoftware,2013-02-28 04:15:00,
2013-02-28 04:16:00,34.7,34.7,30.62,WSW,248,0.0,2.0,100,0.00,,,0.00,0,MyOwnSoftware,2013-02-28 04:16:00,
2013-02-28 04:17:00,34.7,34.7,30.62,WSW,248,0.0,1.0,100,0.00,,,0.00,0,MyOwnSoftware,2013-02-28 04:17:00,
2013-02-28 04:18:00,34.7,34.7,30.62,WSW,248,0.0,1.0,100,0.00,,,0.00,0,MyOwnSoftware,2013-02-28 04:18:00,
2013-02-28 04:19:00,34.7,34.7,30.62,WSW,248,1.0,2.0,100,0.00,,,0.00,0,MyOwnSoftware,2013-02-28 04:19:00,
2013-02-28 04:20:00,34.7,34.7,30.62,WSW,248,1.0,2.0,100,0.00,,,0.00,0,MyOwnSoftware,2013-02-28 04:20:00,
2013-02-28 04:21:00,34.7,34.7,30.62,WSW,248,0.0,1.0,100,0.00,,,0.00,0,MyOwnSoftware,2013-02-28 04:21:00,
2013-02-28 04:22:00,34.7,34.7,30.62,WSW,248,1.0,2.0,100,0.00,,,0.00,0,MyOwnSoftware,2013-02-28 04:22:00,
2013-02-28 04:23:00,34.7,34.7,30.62,WSW,248,0.0,2.0,100,0.00,,,0.00,0,MyOwnSoftware,2013-02-28 04:23:00,
2013-02-28 04:24:00,34.7,34.7,30.62,WSW,248,0.0,1.0,100,0.00,,,0.00,0,MyOwnSoftware,2013-02-28 04:24:00,
2013-02-28 04:25:00,34.7,34.7,30.62,North,0,0.0,0.0,100,0.00,,,0.00,0,MyOwnSoftware,2013-02-28 04:25:00,
2013-02-28 04:26:00,34.7,34.7,30.62,North,0,0.0,0.0,100,0.00,,,0.00,0,MyOwnSoftware,2013-02-28 04:26:00,
2013-02-28 04:27:00,34.7,35.0,30.62,WSW,237,0.0,-999.0,100,-99.99,,,0.00,0,weatherlink.com 1.10,2013-02-28 04:27:00,
2013-02-28 04:28:00,34.7,34.7,30.62,North,0,0.0,0.0,100,0.00,,,0.00,0,MyOwnSoftware,2013-02-28 04:28:00,
2013-02-28 04:29:00,34.7,34.7,30.62,North,0,0.0,0.0,100,0.00,,,0.00,0,MyOwnSoftware,2013-02-28 04:29:00,
2013-02-28 04:30:00,34.7,34.7,30.62,North,0,0.0,0.0,100,0.00,,,0.00,0,MyOwnSoftware,2013-02-28 04:30:00,
2013-02-28 04:31:00,34.7,34.7,30.62,North,0,0.0,0.0,100,0.00,,,0.00,0,MyOwnSoftware,2013-02-28 04:31:00,
2013-02-28 04:32:00,34.7,34.7,30.62,North,0,0.0,0.0,100,0.00,,,0.00,0,MyOwnSoftware,2013-02-28 04:32:00,
2013-02-28 04:33:00,34.6,34.6,30.62,North,0,0.0,0.0,100,0.00,,,0.00,0,MyOwnSoftware,2013-02-28 04:33:00,
2013-02-28 04:34:00,34.6,34.6,30.62,WSW,248,0.0,1.0,100,0.00,,,0.00,0,MyOwnSoftware,2013-02-28 04:34:00,
2013-02-28 04:35:00,34.6,34.6,30.62,North,0,0.0,0.0,100,0.00,,,0.00,0,MyOwnSoftware,2013-02-28 04:35:00,
2013-02-28 04:36:00,34.6,34.6,30.62,North,0,0.0,0.0,100,0.00,,,0.00,0,MyOwnSoftware,2013-02-28 04:36:00,
2013-02-28 04:37:00,34.6,34.6,30.62,North,0,0.0,0.0,100,0.00,,,0.00,0,MyOwnSoftware,2013-02-28 04:37:00,
2013-02-28 04:38:00,34.6,34.6,30.62,WSW,248,0.0,1.0,100,0.00,,,0.00,0,MyOwnSoftware,2013-02-28 04:38:00,
2013-02-28 04:39:00,34.6,34.6,30.62,North,0,0.0,0.0,100,0.00,,,0.00,0,MyOwnSoftware,2013-02-28 04:39:00,
2013-02-28 04:40:00,34.6,34.6,30.62,North,0,0.0,0.0,100,0.00,,,0.00,0,MyOwnSoftware,2013-02-28 04:40:00,
2013-02-28 04:41:00,34.6,34.6,30.62,WSW,248,0.0,1.0,100,0.00,,,0.00,0,MyOwnSoftware,2013-02-28 04:41:00,
2013-02-28 04:42:00,34.6,35.0,30.62,WSW,237,1.0,-999.0,100,-99.99,,,0.00,0,weatherlink.com 1.10,2013-02-28 04:42:00,
2013-02-28 04:43:00,34.6,34.6,30.62,WSW,248,1.0,2.0,100,0.00,,,0.00,0,MyOwnSoftware,2013-02-28 04:43:00,
2013-02-28 04:44:00,34.6,34.6,30.62,WSW,248,1.0,1.0,100,0.00,,,0.00,0,MyOwnSoftware,2013-02-28 04:44:00,
2013-02-28 04:45:00,34.6,34.6,30.61,WSW,248,0.0,1.0,100,0.00,,,0.00,0,MyOwnSoftware,2013-02-28 04:45:00,
2013-02-28 04:46:00,34.6,34.6,30.61,WSW,248,1.0,2.0,100,0.00,,,0.00,0,MyOwnSoftware,2013-02-28 04:46:00,
2013-02-28 04:47:00,34.6,34.6,30.61,WSW,248,1.0,3.0,100,0.00,,,0.00,0,MyOwnSoftware,2013-02-28 04:47:00,
2013-02-28 04:48:00,34.6,34.6,30.61,WSW,248,1.0,3.0,100,0.00,,,0.00,0,MyOwnSoftware,2013-02-28 04:48:00,
2013-02-28 04:49:00,34.6,34.6,30.61,WSW,248,1.0,2.0,100,0.00,,,0.00,0,MyOwnSoftware,2013-02-28 04:49:00,
2013-02-28 04:50:00,34.6,34.6,30.61,WSW,248,0.0,3.0,100,0.00,,,0.00,0,MyOwnSoftware,2013-02-28 04:50:00,
2013-02-28 04:51:00,34.6,34.6,30.61,WSW,248,1.0,2.0,100,0.00,,,0.00,0,MyOwnSoftware,2013-02-28 04:51:00,
2013-02-28 04:52:00,34.6,34.6,30.61,WSW,248,0.0,1.0,100,0.00,,,0.00,0,MyOwnSoftware,2013-02-28 04:52:00,
2013-02-28 04:53:00,34.6,34.6,30.61,North,0,0.0,0.0,100,0.00,,,0.00,0,MyOwnSoftware,2013-02-28 04:53:00,
2013-02-28 04:54:00,34.7,34.7,30.61,North,0,0.0,0.0,100,0.00,,,0.00,0,MyOwnSoftware,2013-02-28 04:54:00,
2013-02-28 04:55:00,34.6,34.6,30.61,North,0,0.0,0.0,100,0.00,,,0.00,0,MyOwnSoftware,2013-02-28 04:55:00,
2013-02-28 04:56:00,34.6,34.6,30.61,North,0,0.0,0.0,100,0.00,,,0.00,0,MyOwnSoftware,2013-02-28 04:56:00,
2013-02-28 04:57:00,34.6,34.6,30.61,WSW,248,0.0,1.0,100,0.00,,,0.00,0,MyOwnSoftware,2013-02-28 04:57:00,
2013-02-28 04:58:00,34.6,35.0,30.61,WSW,244,0.0,-999.0,100,-99.99,,,0.00,0,weatherlink.com 1.10,2013-02-28 04:58:00,
2013-02-28 04:59:00,34.6,34.6,30.61,North,0,0.0,0.0,100,0.00,,,0.00,0,MyOwnSoftware,2013-02-28 04:59:00,
2013-02-28 05:00:00,34.6,34.6,30.61,North,0,0.0,0.0,100,0.00,,,0.00,0,MyOwnSoftware,2013-02-28 05:00:00,
2013-02-28 05:01:00,34.6,34.6,30.61,WSW,248,0.0,1.0,100,0.00,,,0.00,0,MyOwnSoftware,2013-02-28 05:01:00,
2013-02-28 05:02:00,34.6,34.6,30.61,North,0,0.0,0.0,100,0.00,,,0.00,0,MyOwnSoftware,2013-02-28 05:02:00,
2013-02-28 05:03:00,34.6,34.6,30.61,West,270,0.0,1.0,100,0.00,,,0.00,0,MyOwnSoftware,2013-02-28 05:03:00,
2013-02-28 05:04:00,34.6,34.6,30.61,West,270,0.0,1.0,100,0.00,,,0.00,0,MyOwnSoftware,2013-02-28 05:04:00,
2013-02-28 05:05:00,34.6,34.6,30.61,West,270,0.0,1.0,100,0.00,,,0.00,0,MyOwnSoftware,2013-02-28 05:05:00,
2013-02-28 05:06:00,34.6,34.6,30.61,West,270,0.0,1.0,100,0.00,,,0.00,0,MyOwnSoftware,2013-02-28 05:06:00,
2013-02-28 05:07:00,34.6,34.6,30.61,West,270,0.0,1.0,100,0.00,,,0.00,0,MyOwnSoftware,2013-02-28 05:07:00,
2013-02-28 05:08:00,34.6,34.6,30.61,North,0,0.0,0.0,100,0.00,,,0.00,0,MyOwnSoftware,2013-02-28 05:08:00,
2013-02-28 05:09:00,34.6,34.6,30.61,North,0,0.0,0.0,100,0.00,,,0.00,0,MyOwnSoftware,2013-02-28 05:09:00,
2013-02-28 05:10:00,34.6,34.6,30.61,West,270,0.0,1.0,100,0.00,,,0.00,0,MyOwnSoftware,2013-02-28 05:10:00,
2013-02-28 05:11:00,34.6,34.6,30.61,West,270,0.0,1.0,100,0.00,,,0.00,0,MyOwnSoftware,2013-02-28 05:11:00,
2013-02-28 05:12:00,34.6,35.0,30.61,West,272,1.0,-999.0,100,-99.99,,,0.00,0,weatherlink.com 1.10,2013-02-28 05:12:00,
2013-02-28 05:13:00,34.6,34.6,30.61,West,270,0.0,1.0,100,0.00,,,0.00,0,MyOwnSoftware,2013-02-28 05:13:00,
2013-02-28 05:14:00,34.6,34.6,30.61,North,0,0.0,0.0,100,0.00,,,0.00,0,MyOwnSoftware,2013-02-28 05:14:00,
2013-02-28 05:15:00,34.6,34.6,30.62,North,0,0.0,0.0,100,0.00,,,0.00,0,MyOwnSoftware,2013-02-28 05:15:00,
2013-02-28 05:16:00,34.4,34.4,30.62,North,0,0.0,0.0,100,0.00,,,0.00,0,MyOwnSoftware,2013-02-28 05:16:00,
2013-02-28 05:17:00,34.4,34.4,30.62,North,0,0.0,0.0,100,0.00,,,0.00,0,MyOwnSoftware,2013-02-28 05:17:00,
2013-02-28 05:18:00,34.4,34.4,30.62,North,0,0.0,0.0,100,0.00,,,0.00,0,MyOwnSoftware,2013-02-28 05:18:00,
2013-02-28 05:19:00,34.4,34.4,30.62,North,0,0.0,0.0,100,0.00,,,0.00,0,MyOwnSoftware,2013-02-28 05:19:00,
2013-02-28 05:20:00,34.4,34.4,30.62,North,0,0.0,0.0,100,0.00,,,0.00,0,MyOwnSoftware,2013-02-28 05:20:00,
2013-02-28 05:21:00,34.4,34.4,30.62,West,270,0.0,1.0,100,0.00,,,0.00,0,MyOwnSoftware,2013-02-28 05:21:00,
2013-02-28 05:22:00,34.4,34.4,30.62,West,270,0.0,1.0,100,0.00,,,0.00,0,MyOwnSoftware,2013-02-28 05:22:00,
2013-02-28 05:23:00,34.4,34.4,30.62,North,0,0.0,0.0,100,0.00,,,0.00,0,MyOwnSoftware,2013-02-28 05:23:00,
2013-02-28 05:24:00,34.4,34.4,30.62,North,0,0.0,0.0,100,0.00,,,0.00,0,MyOwnSoftware,2013-02-28 05:24:00,
2013-02-28 05:25:00,34.4,34.4,30.62,North,0,0.0,0.0,100,0.00,,,0.00,0,MyOwnSoftware,2013-02-28 05:25:00,
2013-02-28 05:26:00,34.4,34.4,30.62,North,0,0.0,0.0,100,0.00,,,0.00,0,MyOwnSoftware,2013-02-28 05:26:00,
2013-02-28 05:27:00,34.4,34.0,30.62,West,272,0.0,-999.0,100,-99.99,,,0.00,0,weatherlink.com 1.10,2013-02-28 05:27:00,
2013-02-28 05:28:00,34.4,34.4,30.62,West,270,0.0,1.0,100,0.00,,,0.00,0,MyOwnSoftware,2013-02-28 05:28:00,
2013-02-28 05:29:00,34.4,34.4,30.62,West,270,0.0,1.0,100,0.00,,,0.00,0,MyOwnSoftware,2013-02-28 05:29:00,
2013-02-28 05:30:00,34.4,34.4,30.61,North,0,0.0,0.0,100,0.00,,,0.00,0,MyOwnSoftware,2013-02-28 05:30:00,
2013-02-28 05:31:00,34.3,34.3,30.61,North,0,0.0,0.0,100,0.00,,,0.00,0,MyOwnSoftware,2013-02-28 05:31:00,
2013-02-28 05:32:00,34.3,34.3,30.61,North,0,0.0,0.0,100,0.00,,,0.00,0,MyOwnSoftware,2013-02-28 05:32:00,
2013-02-28 05:33:00,34.3,34.3,30.61,West,270,0.0,1.0,100,0.00,,,0.00,0,MyOwnSoftware,2013-02-28 05:33:00,
2013-02-28 05:34:00,34.3,34.3,30.61,West,270,0.0,1.0,100,0.00,,,0.00,0,MyOwnSoftware,2013-02-28 05:34:00,
2013-02-28 05:35:00,34.3,34.3,30.61,West,270,1.0,2.0,100,0.00,,,0.00,0,MyOwnSoftware,2013-02-28 05:35:00,
2013-02-28 05:36:00,34.3,34.3,30.61,West,270,1.0,2.0,100,0.00,,,0.00,0,MyOwnSoftware,2013-02-28 05:36:00,
2013-02-28 05:37:00,34.3,34.3,30.61,West,270,1.0,2.0,100,0.00,,,0.00,0,MyOwnSoftware,2013-02-28 05:37:00,
2013-02-28 05:38:00,34.3,34.3,30.61,West,270,0.0,1.0,100,0.00,,,0.00,0,MyOwnSoftware,2013-02-28 05:38:00,
2013-02-28 05:39:00,34.3,34.3,30.61,West,270,0.0,1.0,100,0.00,,,0.00,0,MyOwnSoftware,2013-02-28 05:39:00,
2013-02-28 05:40:00,34.3,34.3,30.61,North,0,0.0,0.0,100,0.00,,,0.00,0,MyOwnSoftware,2013-02-28 05:40:00,
2013-02-28 05:41:00,34.3,34.3,30.61,West,270,0.0,1.0,100,0.00,,,0.00,0,MyOwnSoftware,2013-02-28 05:41:00,
2013-02-28 05:42:00,34.3,34.0,30.61,West,270,0.0,-999.0,100,-99.99,,,0.00,0,weatherlink.com 1.10,2013-02-28 05:42:00,
2013-02-28 05:43:00,34.3,34.3,30.61,West,270,0.0,1.0,100,0.00,,,0.00,0,MyOwnSoftware,2013-02-28 05:43:00,
2013-02-28 05:44:00,34.3,34.3,30.61,West,270,0.0,1.0,100,0.00,,,0.00,0,MyOwnSoftware,2013-02-28 05:44:00,
2013-02-28 05:45:00,34.1,34.1,30.61,West,270,0.0,1.0,100,0.00,,,0.00,0,MyOwnSoftware,2013-02-28 05:45:00,
2013-02-28 05:46:00,34.1,34.1,30.61,West,270,0.0,1.0,100,0.00,,,0.00,0,MyOwnSoftware,2013-02-28 05:46:00,
2013-02-28 05:47:00,34.1,34.1,30.61,West,270,1.0,2.0,100,0.00,,,0.00,0,MyOwnSoftware,2013-02-28 05:47:00,
2013-02-28 05:48:00,34.1,34.1,30.61,West,270,1.0,2.0,100,0.00,,,0.00,0,MyOwnSoftware,2013-02-28 05:48:00,
2013-02-28 05:49:00,34.1,34.1,30.61,West,270,0.0,1.0,100,0.00,,,0.00,0,MyOwnSoftware,2013-02-28 05:49:00,
2013-02-28 05:50:00,34.1,34.1,30.61,West,270,1.0,3.0,100,0.00,,,0.00,0,MyOwnSoftware,2013-02-28 05:50:00,
2013-02-28 05:51:00,34.1,34.1,30.61,West,270,1.0,1.0,100,0.00,,,0.00,0,MyOwnSoftware,2013-02-28 05:51:00,
2013-02-28 05:52:00,34.1,34.1,30.61,West,270,0.0,1.0,100,0.00,,,0.00,0,MyOwnSoftware,2013-02-28 05:52:00,
2013-02-28 05:53:00,34.1,34.1,30.61,West,270,0.0,1.0,100,0.00,,,0.00,0,MyOwnSoftware,2013-02-28 05:53:00,
2013-02-28 05:54:00,34.1,34.1,30.61,North,0,0.0,0.0,100,0.00,,,0.00,0,MyOwnSoftware,2013-02-28 05:54:00,
2013-02-28 05:55:00,34.1,34.1,30.61,West,270,0.0,1.0,100,0.00,,,0.00,0,MyOwnSoftware,2013-02-28 05:55:00,
2013-02-28 05:56:00,34.1,34.1,30.61,West,270,0.0,1.0,100,0.00,,,0.00,0,MyOwnSoftware,2013-02-28 05:56:00,
2013-02-28 05:57:00,34.1,34.0,30.61,SSW,202,2.0,-999.0,100,-99.99,,,0.00,0,weatherlink.com 1.10,2013-02-28 05:57:00,
2013-02-28 05:58:00,34.1,34.1,30.61,SSW,202,1.0,3.0,100,0.00,,,0.00,0,MyOwnSoftware,2013-02-28 05:58:00,
2013-02-28 05:59:00,34.1,34.1,30.61,SSW,202,1.0,2.0,100,0.00,,,0.00,0,MyOwnSoftware,2013-02-28 05:59:00,
2013-02-28 06:00:00,34.1,34.1,30.62,SSW,202,0.0,2.0,100,0.00,,,0.00,0,MyOwnSoftware,2013-02-28 06:00:00,
2013-02-28 06:01:00,34.1,34.1,30.62,SSW,202,1.0,3.0,100,0.00,,,0.00,0,MyOwnSoftware,2013-02-28 06:01:00,
2013-02-28 06:02:00,34.0,34.0,30.62,SSW,202,0.0,1.0,100,0.00,,,0.00,0,MyOwnSoftware,2013-02-28 06:02:00,
2013-02-28 06:03:00,34.0,34.0,30.62,SSW,202,0.0,1.0,100,0.00,,,0.00,0,MyOwnSoftware,2013-02-28 06:03:00,
2013-02-28 06:04:00,34.0,34.0,30.62,SSW,202,0.0,1.0,100,0.00,,,0.00,0,MyOwnSoftware,2013-02-28 06:04:00,
2013-02-28 06:05:00,34.0,34.0,30.62,SSW,202,0.0,1.0,100,0.00,,,0.00,0,MyOwnSoftware,2013-02-28 06:05:00,
2013-02-28 06:06:00,34.0,34.0,30.62,North,0,0.0,0.0,100,0.00,,,0.00,0,MyOwnSoftware,2013-02-28 06:06:00,
2013-02-28 06:07:00,34.0,34.0,30.62,North,0,0.0,0.0,100,0.00,,,0.00,0,MyOwnSoftware,2013-02-28 06:07:00,
2013-02-28 06:08:00,34.0,34.0,30.62,SSW,202,0.0,1.0,100,0.00,,,0.00,0,MyOwnSoftware,2013-02-28 06:08:00,
2013-02-28 06:09:00,34.0,34.0,30.62,North,0,0.0,0.0,100,0.00,,,0.00,0,MyOwnSoftware,2013-02-28 06:09:00,
2013-02-28 06:10:00,34.0,34.0,30.62,SSW,202,0.0,1.0,100,0.00,,,0.00,0,MyOwnSoftware,2013-02-28 06:10:00,
2013-02-28 06:11:00,34.0,34.0,30.62,SSW,202,0.0,2.0,100,0.00,,,0.00,0,MyOwnSoftware,2013-02-28 06:11:00,
2013-02-28 06:12:00,34.0,34.0,30.62,SW,224,0.0,-999.0,100,-99.99,,,0.00,0,weatherlink.com 1.10,2013-02-28 06:12:00,
2013-02-28 06:13:00,34.0,34.0,30.62,SW,225,0.0,1.0,100,0.00,,,0.00,0,MyOwnSoftware,2013-02-28 06:13:00,
2013-02-28 06:14:00,34.0,34.0,30.62,SW,225,0.0,1.0,100,0.00,,,0.00,0,MyOwnSoftware,2013-02-28 06:14:00,
2013-02-28 06:15:00,34.0,34.0,30.62,North,0,0.0,0.0,100,0.00,,,0.00,0,MyOwnSoftware,2013-02-28 06:15:00,
2013-02-28 06:16:00,34.0,34.0,30.62,North,0,0.0,0.0,100,0.00,,,0.00,0,MyOwnSoftware,2013-02-28 06:16:00,
2013-02-28 06:17:00,34.0,34.0,30.62,North,0,0.0,0.0,100,0.00,,,0.00,0,MyOwnSoftware,2013-02-28 06:17:00,
2013-02-28 06:18:00,34.0,34.0,30.62,SW,225,0.0,2.0,100,0.00,,,0.00,0,MyOwnSoftware,2013-02-28 06:18:00,
2013-02-28 06:19:00,34.0,34.0,30.62,SW,225,1.0,3.0,100,0.00,,,0.00,0,MyOwnSoftware,2013-02-28 06:19:00,
2013-02-28 06:20:00,34.0,34.0,30.62,SW,225,1.0,3.0,100,0.00,,,0.00,0,MyOwnSoftware,2013-02-28 06:20:00,
2013-02-28 06:21:00,34.0,34.0,30.62,SW,225,1.0,2.0,100,0.00,,,0.00,0,MyOwnSoftware,2013-02-28 06:21:00,
2013-02-28 06:22:00,34.0,34.0,30.62,SSW,202,1.0,3.0,100,0.00,,,0.00,0,MyOwnSoftware,2013-02-28 06:22:00,
2013-02-28 06:23:00,34.0,34.0,30.62,SSW,202,0.0,1.0,100,0.00,,,0.00,0,MyOwnSoftware,2013-02-28 06:23:00,
2013-02-28 06:24:00,34.0,34.0,30.62,SSW,202,0.0,2.0,100,0.00,,,0.00,0,MyOwnSoftware,2013-02-28 06:24:00,
2013-02-28 06:25:00,34.0,34.0,30.62,SSW,202,0.0,1.0,100,0.00,,,0.00,0,MyOwnSoftware,2013-02-28 06:25:00,
2013-02-28 06:26:00,34.0,34.0,30.62,SSW,202,1.0,2.0,100,0.00,,,0.00,0,MyOwnSoftware,2013-02-28 06:26:00,
2013-02-28 06:27:00,33.8,34.0,30.62,SSW,212,0.0,-999.0,100,-99.99,,,0.00,0,weatherlink.com 1.10,2013-02-28 06:27:00,
2013-02-28 06:28:00,33.8,33.8,30.62,SSW,202,0.0,1.0,100,0.00,,,0.00,0,MyOwnSoftware,2013-02-28 06:28:00,
2013-02-28 06:29:00,33.8,33.8,30.62,SSW,202,0.0,1.0,100,0.00,,,0.00,0,MyOwnSoftware,2013-02-28 06:29:00,
2013-02-28 06:30:00,33.8,33.8,30.62,SW,225,0.0,1.0,100,0.00,,,0.00,0,MyOwnSoftware,2013-02-28 06:30:00,
2013-02-28 06:31:00,33.8,33.8,30.62,SW,225,0.0,1.0,100,0.00,,,0.00,0,MyOwnSoftware,2013-02-28 06:31:00,
2013-02-28 06:32:00,33.8,33.8,30.62,SW,225,0.0,1.0,100,0.00,,,0.00,0,MyOwnSoftware,2013-02-28 06:32:00,
2013-02-28 06:33:00,33.8,33.8,30.62,SW,225,0.0,1.0,100,0.00,,,0.00,0,MyOwnSoftware,2013-02-28 06:33:00,
2013-02-28 06:34:00,33.8,33.8,30.62,SW,225,0.0,1.0,100,0.00,,,0.00,0,MyOwnSoftware,2013-02-28 06:34:00,
2013-02-28 06:35:00,33.8,33.8,30.62,North,0,0.0,0.0,100,0.00,,,0.00,0,MyOwnSoftware,2013-02-28 06:35:00,
2013-02-28 06:36:00,33.8,33.8,30.62,North,0,0.0,0.0,100,0.00,,,0.00,0,MyOwnSoftware,2013-02-28 06:36:00,
2013-02-28 06:37:00,33.8,33.8,30.62,SW,225,0.0,1.0,100,0.00,,,0.00,0,MyOwnSoftware,2013-02-28 06:37:00,
2013-02-28 06:38:00,33.8,33.8,30.62,SW,225,0.0,1.0,100,0.00,,,0.00,0,MyOwnSoftware,2013-02-28 06:38:00,
2013-02-28 06:39:00,33.8,33.8,30.62,North,0,0.0,0.0,100,0.00,,,0.00,0,MyOwnSoftware,2013-02-28 06:39:00,
2013-02-28 06:40:00,33.8,33.8,30.62,SW,225,0.0,1.0,100,0.00,,,0.00,0,MyOwnSoftware,2013-02-28 06:40:00,
2013-02-28 06:41:00,33.8,33.8,30.62,North,0,0.0,0.0,100,0.00,,,0.00,0,MyOwnSoftware,2013-02-28 06:41:00,
2013-02-28 06:42:00,33.8,34.0,30.62,SW,222,0.0,-999.0,100,-99.99,,,0.00,0,weatherlink.com 1.10,2013-02-28 06:42:00,
2013-02-28 06:43:00,33.8,33.8,30.62,SW,225,0.0,1.0,100,0.00,,,0.00,0,MyOwnSoftware,2013-02-28 06:43:00,
2013-02-28 06:44:00,33.8,33.8,30.62,SW,225,0.0,2.0,100,0.00,,,0.00,0,MyOwnSoftware,2013-02-28 06:44:00,
2013-02-28 06:45:00,33.8,33.8,30.62,SW,225,1.0,2.0,100,0.00,,,0.00,0,MyOwnSoftware,2013-02-28 06:45:00,
2013-02-28 06:49:00,33.8,33.8,30.62,SW,225,0.0,1.0,100,0.00,,,0.00,0,MyOwnSoftware,2013-02-28 06:49:00,
2013-02-28 06:50:00,33.7,33.7,30.62,SW,225,0.0,1.0,100,0.00,,,0.00,0,MyOwnSoftware,2013-02-28 06:50:00,
2013-02-28 06:51:00,33.7,33.7,30.62,North,0,0.0,0.0,100,0.00,,,0.00,0,MyOwnSoftware,2013-02-28 06:51:00,
2013-02-28 06:52:00,33.7,33.7,30.62,SW,225,0.0,1.0,100,0.00,,,0.00,0,MyOwnSoftware,2013-02-28 06:52:00,
2013-02-28 06:53:00,33.7,33.7,30.62,SW,225,0.0,1.0,100,0.00,,,0.00,0,MyOwnSoftware,2013-02-28 06:53:00,
2013-02-28 06:54:00,33.5,33.5,30.62,North,0,0.0,0.0,100,0.00,,,0.00,0,MyOwnSoftware,2013-02-28 06:54:00,
2013-02-28 06:55:00,33.8,33.8,30.62,SW,225,0.0,1.0,100,0.00,,,0.00,0,MyOwnSoftware,2013-02-28 06:55:00,
2013-02-28 06:56:00,33.5,33.5,30.62,SW,225,0.0,1.0,100,0.00,,,0.00,0,MyOwnSoftware,2013-02-28 06:56:00,
2013-02-28 06:57:00,33.5,33.5,30.62,SW,225,0.0,2.0,100,0.00,,,0.00,0,MyOwnSoftware,2013-02-28 06:57:00,
2013-02-28 06:58:00,33.5,33.5,30.62,SW,225,1.0,2.0,100,0.00,,,0.00,0,MyOwnSoftware,2013-02-28 06:58:00,
2013-02-28 06:59:00,33.5,33.5,30.62,North,0,0.0,0.0,100,0.00,,,0.00,0,MyOwnSoftware,2013-02-28 06:59:00,
2013-02-28 07:00:00,33.5,33.5,30.62,North,0,0.0,0.0,100,0.00,,,0.00,0,MyOwnSoftware,2013-02-28 07:00:00,
2013-02-28 07:01:00,33.5,33.5,30.62,North,0,0.0,0.0,100,0.00,,,0.00,0,MyOwnSoftware,2013-02-28 07:01:00,
2013-02-28 07:02:00,33.5,33.5,30.62,SW,225,1.0,2.0,100,0.00,,,0.00,0,MyOwnSoftware,2013-02-28 07:02:00,
2013-02-28 07:03:00,33.5,33.5,30.62,SW,225,0.0,1.0,100,0.00,,,0.00,0,MyOwnSoftware,2013-02-28 07:03:00,
2013-02-28 07:04:00,33.5,33.5,30.62,North,0,0.0,0.0,100,0.00,,,0.00,5,MyOwnSoftware,2013-02-28 07:04:00,
2013-02-28 07:05:00,33.5,33.5,30.62,North,0,0.0,0.0,100,0.00,,,0.00,5,MyOwnSoftware,2013-02-28 07:05:00,
2013-02-28 07:09:00,33.5,33.5,30.62,North,0,0.0,0.0,100,0.00,,,0.00,5,MyOwnSoftware,2013-02-28 07:09:00,
2013-02-28 07:10:00,33.4,33.4,30.62,North,0,0.0,0.0,100,0.00,,,0.00,5,MyOwnSoftware,2013-02-28 07:10:00,
2013-02-28 07:11:00,33.4,33.4,30.62,North,0,0.0,0.0,100,0.00,,,0.00,5,MyOwnSoftware,2013-02-28 07:11:00,
2013-02-28 07:12:00,33.4,33.0,30.62,SW,224,0.0,-999.0,100,-99.99,,,0.00,7,weatherlink.com 1.10,2013-02-28 07:12:00,
2013-02-28 07:13:00,33.4,33.4,30.62,North,0,0.0,0.0,100,0.00,,,0.00,7,MyOwnSoftware,2013-02-28 07:13:00,
2013-02-28 07:14:00,33.4,33.4,30.62,North,0,0.0,0.0,100,0.00,,,0.00,7,MyOwnSoftware,2013-02-28 07:14:00,
2013-02-28 07:15:00,33.4,33.4,30.63,North,0,0.0,0.0,100,0.00,,,0.00,7,MyOwnSoftware,2013-02-28 07:15:00,
2013-02-28 07:16:00,33.4,33.4,30.63,North,0,0.0,0.0,100,0.00,,,0.00,9,MyOwnSoftware,2013-02-28 07:16:00,
2013-02-28 07:17:00,33.4,33.4,30.63,SW,225,0.0,1.0,100,0.00,,,0.00,9,MyOwnSoftware,2013-02-28 07:17:00,
2013-02-28 07:18:00,33.4,33.4,30.63,SW,225,0.0,1.0,100,0.00,,,0.00,9,MyOwnSoftware,2013-02-28 07:18:00,
2013-02-28 07:19:00,33.4,33.4,30.63,WSW,248,1.0,3.0,100,0.00,,,0.00,9,MyOwnSoftware,2013-02-28 07:19:00,
2013-02-28 07:20:00,33.4,33.4,30.63,WSW,248,0.0,1.0,100,0.00,,,0.00,10,MyOwnSoftware,2013-02-28 07:20:00,
2013-02-28 07:21:00,33.4,33.4,30.63,WSW,248,0.0,1.0,100,0.00,,,0.00,11,MyOwnSoftware,2013-02-28 07:21:00,
2013-02-28 07:22:00,33.4,33.4,30.63,WSW,248,1.0,2.0,100,0.00,,,0.00,11,MyOwnSoftware,2013-02-28 07:22:00,
2013-02-28 07:23:00,33.4,33.4,30.63,WSW,248,1.0,2.0,100,0.00,,,0.00,11,MyOwnSoftware,2013-02-28 07:23:00,
2013-02-28 07:24:00,33.4,33.4,30.63,WNW,292,1.0,5.0,100,0.00,,,0.00,11,MyOwnSoftware,2013-02-28 07:24:00,
2013-02-28 07:25:00,33.4,33.4,30.63,WNW,292,1.0,2.0,100,0.00,,,0.00,12,MyOwnSoftware,2013-02-28 07:25:00,
2013-02-28 07:27:00,33.4,33.0,30.63,WNW,298,1.0,-999.0,100,-99.99,,,0.00,12,weatherlink.com 1.10,2013-02-28 07:27:00,
2013-02-28 07:29:00,33.5,33.5,30.63,WNW,292,1.0,2.0,100,0.00,,,0.00,14,MyOwnSoftware,2013-02-28 07:29:00,
2013-02-28 07:30:00,33.5,33.5,30.63,North,0,0.0,0.0,100,0.00,,,0.00,14,MyOwnSoftware,2013-02-28 07:30:00,
2013-02-28 07:31:00,33.5,33.5,30.63,WNW,292,0.0,1.0,100,0.00,,,0.00,14,MyOwnSoftware,2013-02-28 07:31:00,
2013-02-28 07:32:00,33.5,33.5,30.63,WNW,292,1.0,3.0,100,0.00,,,0.00,14,MyOwnSoftware,2013-02-28 07:32:00,
2013-02-28 07:33:00,33.5,33.5,30.63,WNW,292,0.0,1.0,100,0.00,,,0.00,12,MyOwnSoftware,2013-02-28 07:33:00,
2013-02-28 07:34:00,33.5,33.5,30.63,WNW,292,1.0,2.0,100,0.00,,,0.00,12,MyOwnSoftware,2013-02-28 07:34:00,
2013-02-28 07:35:00,33.4,33.4,30.63,WNW,292,1.0,2.0,100,0.00,,,0.00,12,MyOwnSoftware,2013-02-28 07:35:00,
2013-02-28 07:39:00,33.5,33.5,30.63,WSW,248,0.0,1.0,100,0.00,,,0.00,14,MyOwnSoftware,2013-02-28 07:39:00,
2013-02-28 07:40:00,33.5,33.5,30.63,SW,225,1.0,3.0,100,0.00,,,0.00,14,MyOwnSoftware,2013-02-28 07:40:00,
2013-02-28 07:41:00,33.5,33.5,30.63,SW,225,0.0,1.0,100,0.00,,,0.00,16,MyOwnSoftware,2013-02-28 07:41:00,
2013-02-28 07:42:00,33.7,34.0,30.63,SW,232,0.0,-999.0,100,-99.99,,,0.00,16,weatherlink.com 1.10,2013-02-28 07:42:00,
2013-02-28 07:43:00,33.7,33.7,30.63,SW,225,1.0,2.0,100,0.00,,,0.00,16,MyOwnSoftware,2013-02-28 07:43:00,
2013-02-28 07:44:00,33.7,33.7,30.63,SW,225,1.0,2.0,100,0.00,,,0.00,16,MyOwnSoftware,2013-02-28 07:44:00,
2013-02-28 07:45:00,33.7,33.7,30.64,SW,225,1.0,2.0,100,0.00,,,0.00,21,MyOwnSoftware,2013-02-28 07:45:00,
2013-02-28 07:49:00,33.7,33.7,30.64,SW,225,0.0,1.0,100,0.00,,,0.00,21,MyOwnSoftware,2013-02-28 07:49:00,
2013-02-28 07:50:00,33.7,33.7,30.64,WSW,248,0.0,1.0,100,0.00,,,0.00,25,MyOwnSoftware,2013-02-28 07:50:00,
2013-02-28 07:51:00,33.8,33.8,30.64,WSW,248,0.0,2.0,100,0.00,,,0.00,25,MyOwnSoftware,2013-02-28 07:51:00,
2013-02-28 07:52:00,33.8,33.8,30.64,North,0,0.0,0.0,100,0.00,,,0.00,25,MyOwnSoftware,2013-02-28 07:52:00,
2013-02-28 07:53:00,33.8,33.8,30.64,WSW,248,0.0,1.0,100,0.00,,,0.00,25,MyOwnSoftware,2013-02-28 07:53:00,
2013-02-28 07:54:00,33.8,33.8,30.64,North,0,0.0,0.0,100,0.00,,,0.00,37,MyOwnSoftware,2013-02-28 07:54:00,
2013-02-28 07:55:00,33.7,33.7,30.64,SW,225,0.0,1.0,100,0.00,,,0.00,21,MyOwnSoftware,2013-02-28 07:55:00,
2013-02-28 07:56:00,33.8,33.8,30.64,WSW,248,0.0,1.0,100,0.00,,,0.00,37,MyOwnSoftware,2013-02-28 07:56:00,
2013-02-28 07:57:00,34.0,34.0,30.64,WSW,248,0.0,1.0,100,0.00,,,0.00,37,MyOwnSoftware,2013-02-28 07:57:00,
2013-02-28 07:58:00,34.0,34.0,30.64,WSW,248,0.0,1.0,100,0.00,,,0.00,42,MyOwnSoftware,2013-02-28 07:58:00,
2013-02-28 07:59:00,34.0,34.0,30.64,WSW,248,0.0,1.0,100,0.00,,,0.00,42,MyOwnSoftware,2013-02-28 07:59:00,
2013-02-28 08:00:00,34.0,34.0,30.64,North,0,0.0,0.0,100,0.00,,,0.00,42,MyOwnSoftware,2013-02-28 08:00:00,
2013-02-28 08:01:00,34.0,34.0,30.64,WSW,248,1.0,2.0,100,0.00,,,0.00,42,MyOwnSoftware,2013-02-28 08:01:00,
2013-02-28 08:02:00,34.1,34.1,30.64,WSW,248,0.0,1.0,100,0.00,,,0.00,35,MyOwnSoftware,2013-02-28 08:02:00,
2013-02-28 08:03:00,34.1,34.1,30.64,WSW,248,1.0,2.0,100,0.00,,,0.00,35,MyOwnSoftware,2013-02-28 08:03:00,
2013-02-28 08:04:00,34.1,34.1,30.64,WNW,292,0.0,1.0,100,0.00,,,0.00,35,MyOwnSoftware,2013-02-28 08:04:00,
2013-02-28 08:05:00,34.1,34.1,30.64,WNW,292,0.0,1.0,100,0.00,,,0.00,35,MyOwnSoftware,2013-02-28 08:05:00,
2013-02-28 08:09:00,34.3,34.3,30.64,SW,225,1.0,2.0,100,0.00,,,0.00,40,MyOwnSoftware,2013-02-28 08:09:00,
2013-02-28 08:10:00,34.3,34.3,30.64,SW,225,1.0,2.0,100,0.00,,,0.00,42,MyOwnSoftware,2013-02-28 08:10:00,
2013-02-28 08:11:00,34.3,34.3,30.64,SW,225,0.0,1.0,100,0.00,,,0.00,44,MyOwnSoftware,2013-02-28 08:11:00,
2013-02-28 08:12:00,34.4,34.0,30.64,SW,227,0.0,-999.0,100,-99.99,,,0.00,44,weatherlink.com 1.10,2013-02-28 08:12:00,
2013-02-28 08:13:00,34.4,34.4,30.64,SW,225,0.0,1.0,100,0.00,,,0.00,44,MyOwnSoftware,2013-02-28 08:13:00,
2013-02-28 08:14:00,34.4,34.4,30.64,SW,225,0.0,1.0,100,0.00,,,0.00,44,MyOwnSoftware,2013-02-28 08:14:00,
2013-02-28 08:15:00,34.4,34.4,30.64,SW,225,0.0,2.0,100,0.00,,,0.00,42,MyOwnSoftware,2013-02-28 08:15:00,
2013-02-28 08:16:00,34.4,34.4,30.64,SW,225,0.0,1.0,100,0.00,,,0.00,42,MyOwnSoftware,2013-02-28 08:16:00,
2013-02-28 08:17:00,34.4,34.4,30.64,SW,225,0.0,1.0,100,0.00,,,0.00,42,MyOwnSoftware,2013-02-28 08:17:00,
2013-02-28 08:18:00,34.6,34.6,30.64,SSW,202,1.0,3.0,100,0.00,,,0.00,42,MyOwnSoftware,2013-02-28 08:18:00,
2013-02-28 08:19:00,34.6,34.6,30.64,SW,225,1.0,2.0,100,0.00,,,0.00,56,MyOwnSoftware,2013-02-28 08:19:00,
2013-02-28 08:20:00,34.6,34.6,30.64,SW,225,1.0,3.0,100,0.00,,,0.00,55,MyOwnSoftware,2013-02-28 08:20:00,
2013-02-28 08:21:00,34.6,34.6,30.64,SW,225,0.0,2.0,100,0.00,,,0.00,51,MyOwnSoftware,2013-02-28 08:21:00,
2013-02-28 08:22:00,34.6,34.6,30.64,SW,225,1.0,2.0,100,0.00,,,0.00,56,MyOwnSoftware,2013-02-28 08:22:00,
2013-02-28 08:23:00,34.7,34.7,30.64,SW,225,0.0,2.0,100,0.00,,,0.00,51,MyOwnSoftware,2013-02-28 08:23:00,
2013-02-28 08:24:00,34.7,34.7,30.64,WSW,248,1.0,2.0,100,0.00,,,0.00,53,MyOwnSoftware,2013-02-28 08:24:00,
2013-02-28 08:25:00,34.7,34.7,30.64,WSW,248,1.0,3.0,100,0.00,,,0.00,53,MyOwnSoftware,2013-02-28 08:25:00,
2013-02-28 08:28:00,34.9,35.0,30.64,South,189,0.0,-999.0,100,-99.99,,,0.00,53,weatherlink.com 1.10,2013-02-28 08:28:00,
2013-02-28 08:29:00,34.9,34.9,30.64,South,180,1.0,2.0,100,0.00,,,0.00,51,MyOwnSoftware,2013-02-28 08:29:00,
2013-02-28 08:30:00,34.9,34.9,30.64,South,180,0.0,1.0,100,0.00,,,0.00,58,MyOwnSoftware,2013-02-28 08:30:00,
2013-02-28 08:31:00,34.9,34.9,30.64,South,180,0.0,1.0,100,0.00,,,0.00,56,MyOwnSoftware,2013-02-28 08:31:00,
2013-02-28 08:32:00,35.0,35.0,30.64,South,180,0.0,1.0,100,0.00,,,0.00,55,MyOwnSoftware,2013-02-28 08:32:00,
2013-02-28 08:33:00,35.0,35.0,30.64,SW,225,1.0,3.0,100,0.00,,,0.00,60,MyOwnSoftware,2013-02-28 08:33:00,
2013-02-28 08:34:00,35.0,35.0,30.64,SW,225,0.0,1.0,100,0.00,,,0.00,62,MyOwnSoftware,2013-02-28 08:34:00,
2013-02-28 08:35:00,34.7,34.7,30.64,SSW,202,1.0,3.0,100,0.00,,,0.00,49,MyOwnSoftware,2013-02-28 08:35:00,
2013-02-28 08:39:00,35.2,35.2,30.64,SW,225,1.0,2.0,100,0.00,,,0.00,62,MyOwnSoftware,2013-02-28 08:39:00,
2013-02-28 08:40:00,35.2,35.2,30.64,SW,225,1.0,2.0,100,0.00,,,0.00,67,MyOwnSoftware,2013-02-28 08:40:00,
2013-02-28 08:41:00,35.3,35.3,30.64,SW,225,0.0,1.0,100,0.00,,,0.00,72,MyOwnSoftware,2013-02-28 08:41:00,
2013-02-28 08:42:00,35.3,35.3,30.64,SW,225,1.0,2.0,100,0.00,,,0.00,77,MyOwnSoftware,2013-02-28 08:42:00,
2013-02-28 08:43:00,35.3,35.0,30.64,SW,230,1.0,-999.0,100,-99.99,,,0.00,77,weatherlink.com 1.10,2013-02-28 08:43:00,
2013-02-28 08:44:00,35.3,35.3,30.64,SW,225,2.0,3.0,100,0.00,,,0.00,76,MyOwnSoftware,2013-02-28 08:44:00,
2013-02-28 08:45:00,35.3,35.3,30.64,SW,225,1.0,3.0,100,0.00,,,0.00,86,MyOwnSoftware,2013-02-28 08:45:00,
2013-02-28 08:46:00,35.5,35.5,30.64,WSW,248,1.0,3.0,100,0.00,,,0.00,79,MyOwnSoftware,2013-02-28 08:46:00,
2013-02-28 08:47:00,35.5,35.5,30.64,WSW,248,1.0,2.0,100,0.00,,,0.00,70,MyOwnSoftware,2013-02-28 08:47:00,
2013-02-28 08:48:00,35.5,35.5,30.64,WSW,248,1.0,2.0,100,0.00,,,0.00,65,MyOwnSoftware,2013-02-28 08:48:00,
2013-02-28 08:49:00,35.5,35.5,30.64,WSW,248,0.0,1.0,100,0.00,,,0.00,63,MyOwnSoftware,2013-02-28 08:49:00,
2013-02-28 08:50:00,35.5,35.5,30.64,West,270,1.0,2.0,100,0.00,,,0.00,58,MyOwnSoftware,2013-02-28 08:50:00,
2013-02-28 08:51:00,35.5,35.5,30.64,WSW,248,1.0,2.0,100,0.00,,,0.00,55,MyOwnSoftware,2013-02-28 08:51:00,
2013-02-28 08:52:00,35.5,35.5,30.64,West,270,0.0,2.0,100,0.00,,,0.00,60,MyOwnSoftware,2013-02-28 08:52:00,
2013-02-28 08:53:00,35.6,35.6,30.64,West,270,1.0,2.0,100,0.00,,,0.00,63,MyOwnSoftware,2013-02-28 08:53:00,
2013-02-28 08:54:00,35.6,35.6,30.64,WSW,248,2.0,3.0,100,0.00,,,0.00,60,MyOwnSoftware,2013-02-28 08:54:00,
2013-02-28 08:55:00,35.6,35.6,30.64,WSW,248,2.0,3.0,100,0.00,,,0.00,59,MyOwnSoftware,2013-02-28 08:55:00,
2013-02-28 08:56:00,35.6,35.6,30.64,SW,225,0.0,2.0,100,0.00,,,0.00,55,MyOwnSoftware,2013-02-28 08:56:00,
2013-02-28 08:57:00,35.6,35.6,30.64,SW,225,0.0,1.0,100,0.00,,,0.00,56,MyOwnSoftware,2013-02-28 08:57:00,
2013-02-28 08:58:00,35.6,36.0,30.64,WSW,239,1.0,-999.0,100,-99.99,,,0.00,53,weatherlink.com 1.10,2013-02-28 08:58:00,
2013-02-28 08:59:00,35.6,35.6,30.64,WSW,248,1.0,2.0,100,0.00,,,0.00,51,MyOwnSoftware,2013-02-28 08:59:00,
2013-02-28 09:00:00,35.6,35.6,30.64,WSW,248,1.0,2.0,100,0.00,,,0.00,52,MyOwnSoftware,2013-02-28 09:00:00,
2013-02-28 09:01:00,35.6,35.6,30.64,WSW,248,0.0,1.0,100,0.00,,,0.00,56,MyOwnSoftware,2013-02-28 09:01:00,
2013-02-28 09:02:00,35.6,35.6,30.64,WSW,248,1.0,3.0,100,0.00,,,0.00,56,MyOwnSoftware,2013-02-28 09:02:00,
2013-02-28 09:03:00,35.6,35.6,30.64,WSW,248,1.0,3.0,100,0.00,,,0.00,53,MyOwnSoftware,2013-02-28 09:03:00,
2013-02-28 09:04:00,35.6,35.6,30.64,SW,225,2.0,6.0,100,0.00,,,0.00,62,MyOwnSoftware,2013-02-28 09:04:00,
2013-02-28 09:05:00,35.6,35.6,30.64,SSW,202,2.0,3.0,100,0.00,,,0.00,63,MyOwnSoftware,2013-02-28 09:05:00,
2013-02-28 09:09:00,35.6,35.6,30.64,SW,225,3.0,6.0,100,0.00,,,0.00,76,MyOwnSoftware,2013-02-28 09:09:00,
2013-02-28 09:10:00,35.6,35.6,30.64,SSW,202,3.0,4.0,100,0.00,,,0.00,79,MyOwnSoftware,2013-02-28 09:10:00,
2013-02-28 09:11:00,35.6,35.6,30.64,SW,225,1.0,2.0,100,0.00,,,0.00,77,MyOwnSoftware,2013-02-28 09:11:00,
2013-02-28 09:12:00,35.6,35.6,30.64,WSW,248,0.0,1.0,100,0.00,,,0.00,83,MyOwnSoftware,2013-02-28 09:12:00,
2013-02-28 09:13:00,35.6,36.0,30.64,WSW,246,1.0,-999.0,100,-99.99,,,0.00,76,weatherlink.com 1.10,2013-02-28 09:13:00,
2013-02-28 09:14:00,35.6,35.6,30.64,SW,225,2.0,2.0,100,0.00,,,0.00,72,MyOwnSoftware,2013-02-28 09:14:00,
2013-02-28 09:15:00,35.6,35.6,30.64,WSW,248,0.0,2.0,100,0.00,,,0.00,80,MyOwnSoftware,2013-02-28 09:15:00,
2013-02-28 09:16:00,35.6,35.6,30.64,WSW,248,1.0,2.0,100,0.00,,,0.00,79,MyOwnSoftware,2013-02-28 09:16:00,
2013-02-28 09:17:00,35.6,35.6,30.64,SW,225,1.0,2.0,100,0.00,,,0.00,84,MyOwnSoftware,2013-02-28 09:17:00,
2013-02-28 09:18:00,35.6,35.6,30.64,SW,225,2.0,4.0,100,0.00,,,0.00,100,MyOwnSoftware,2013-02-28 09:18:00,
2013-02-28 09:19:00,35.6,35.6,30.64,SSW,202,2.0,3.0,100,0.00,,,0.00,109,MyOwnSoftware,2013-02-28 09:19:00,
2013-02-28 09:20:00,35.6,35.6,30.64,SW,225,2.0,3.0,100,0.00,,,0.00,95,MyOwnSoftware,2013-02-28 09:20:00,
2013-02-28 09:21:00,35.6,35.6,30.64,SW,225,1.0,2.0,100,0.00,,,0.00,97,MyOwnSoftware,2013-02-28 09:21:00,
2013-02-28 09:22:00,35.6,35.6,30.64,SW,225,1.0,3.0,100,0.00,,,0.00,93,MyOwnSoftware,2013-02-28 09:22:00,
2013-02-28 09:23:00,35.8,35.8,30.64,SW,225,1.0,3.0,100,0.00,,,0.00,91,MyOwnSoftware,2013-02-28 09:23:00,
2013-02-28 09:24:00,35.6,35.6,30.64,SW,225,0.0,1.0,100,0.00,,,0.00,91,MyOwnSoftware,2013-02-28 09:24:00,
2013-02-28 09:25:00,35.8,35.8,30.64,SW,225,1.0,1.0,100,0.00,,,0.00,89,MyOwnSoftware,2013-02-28 09:25:00,
2013-02-28 09:28:00,35.8,36.0,30.64,SW,233,1.0,-999.0,100,-99.99,,,0.00,99,weatherlink.com 1.10,2013-02-28 09:28:00,
2013-02-28 09:29:00,35.8,35.8,30.64,SW,225,0.0,1.0,100,0.00,,,0.00,113,MyOwnSoftware,2013-02-28 09:29:00,
2013-02-28 09:30:00,35.8,35.8,30.64,SW,225,1.0,2.0,100,0.00,,,0.00,105,MyOwnSoftware,2013-02-28 09:30:00,
2013-02-28 09:31:00,35.9,35.9,30.64,SW,225,0.0,1.0,100,0.00,,,0.00,99,MyOwnSoftware,2013-02-28 09:31:00,
2013-02-28 09:32:00,35.9,35.9,30.64,WNW,292,1.0,2.0,100,0.00,,,0.00,95,MyOwnSoftware,2013-02-28 09:32:00,
2013-02-28 09:33:00,35.9,35.9,30.64,WNW,292,0.0,1.0,100,0.00,,,0.00,95,MyOwnSoftware,2013-02-28 09:33:00,
2013-02-28 09:34:00,35.9,35.9,30.64,WNW,292,0.0,2.0,100,0.00,,,0.00,91,MyOwnSoftware,2013-02-28 09:34:00,
2013-02-28 09:35:00,35.8,35.8,30.64,WSW,248,1.0,2.0,100,0.00,,,0.00,95,MyOwnSoftware,2013-02-28 09:35:00,
2013-02-28 09:39:00,36.0,36.0,30.64,West,270,0.0,1.0,100,0.00,,,0.00,113,MyOwnSoftware,2013-02-28 09:39:00,
2013-02-28 09:40:00,36.0,36.0,30.64,West,270,0.0,1.0,100,0.00,,,0.00,129,MyOwnSoftware,2013-02-28 09:40:00,
2013-02-28 09:41:00,36.0,36.0,30.64,West,270,0.0,1.0,100,0.00,,,0.00,134,MyOwnSoftware,2013-02-28 09:41:00,
2013-02-28 09:42:00,36.2,36.2,30.64,WSW,248,1.0,2.0,100,0.00,,,0.00,134,MyOwnSoftware,2013-02-28 09:42:00,
2013-02-28 09:43:00,36.2,36.0,30.64,WSW,243,0.0,-999.0,100,-99.99,,,0.00,139,weatherlink.com 1.10,2013-02-28 09:43:00,
2013-02-28 09:44:00,36.3,36.3,30.64,WSW,248,1.0,3.0,100,0.00,,,0.00,144,MyOwnSoftware,2013-02-28 09:44:00,
2013-02-28 09:45:00,36.3,36.3,30.64,North,0,0.0,0.0,100,0.00,,,0.00,140,MyOwnSoftware,2013-02-28 09:45:00,
2013-02-28 09:49:00,36.5,36.5,30.64,WSW,248,0.0,1.0,100,0.00,,,0.00,109,MyOwnSoftware,2013-02-28 09:49:00,
2013-02-28 09:50:00,36.5,36.5,30.64,WSW,248,1.0,2.0,100,0.00,,,0.00,110,MyOwnSoftware,2013-02-28 09:50:00,
2013-02-28 09:51:00,36.5,36.5,30.64,West,270,1.0,2.0,100,0.00,,,0.00,106,MyOwnSoftware,2013-02-28 09:51:00,
2013-02-28 09:52:00,36.5,36.5,30.64,West,270,1.0,2.0,100,0.00,,,0.00,107,MyOwnSoftware,2013-02-28 09:52:00,
2013-02-28 09:53:00,36.6,36.6,30.64,West,270,0.0,1.0,100,0.00,,,0.00,104,MyOwnSoftware,2013-02-28 09:53:00,
2013-02-28 09:54:00,36.6,36.6,30.64,North,0,0.0,0.0,100,0.00,,,0.00,104,MyOwnSoftware,2013-02-28 09:54:00,
2013-02-28 09:55:00,36.3,36.3,30.64,WSW,248,0.0,1.0,100,0.00,,,0.00,127,MyOwnSoftware,2013-02-28 09:55:00,
2013-02-28 09:56:00,36.6,36.6,30.64,West,270,1.0,2.0,100,0.00,,,0.00,113,MyOwnSoftware,2013-02-28 09:56:00,
2013-02-28 09:57:00,36.6,36.6,30.64,South,180,2.0,3.0,100,0.00,,,0.00,116,MyOwnSoftware,2013-02-28 09:57:00,
2013-02-28 09:58:00,36.8,36.8,30.64,SSW,202,1.0,2.0,100,0.00,,,0.00,121,MyOwnSoftware,2013-02-28 09:58:00,
2013-02-28 09:59:00,36.8,36.8,30.64,SSW,202,1.0,3.0,100,0.00,,,0.00,121,MyOwnSoftware,2013-02-28 09:59:00,
2013-02-28 10:00:00,36.8,36.8,30.64,North,0,0.0,0.0,100,0.00,,,0.00,127,MyOwnSoftware,2013-02-28 10:00:00,
2013-02-28 10:01:00,36.8,36.8,30.64,North,0,0.0,0.0,100,0.00,,,0.00,130,MyOwnSoftware,2013-02-28 10:01:00,
2013-02-28 10:02:00,36.9,36.9,30.64,North,0,0.0,0.0,100,0.00,,,0.00,135,MyOwnSoftware,2013-02-28 10:02:00,
2013-02-28 10:03:00,36.9,36.9,30.64,North,0,0.0,0.0,100,0.00,,,0.00,146,MyOwnSoftware,2013-02-28 10:03:00,
2013-02-28 10:04:00,36.9,36.9,30.64,SSW,202,0.0,1.0,100,0.00,,,0.00,158,MyOwnSoftware,2013-02-28 10:04:00,
2013-02-28 10:05:00,37.0,37.0,30.64,SSW,202,1.0,2.0,100,0.00,,,0.00,162,MyOwnSoftware,2013-02-28 10:05:00,
2013-02-28 10:09:00,37.2,37.2,30.64,SW,225,1.0,2.0,100,0.00,,,0.00,155,MyOwnSoftware,2013-02-28 10:09:00,
2013-02-28 10:10:00,37.3,37.3,30.64,SW,225,0.0,1.0,100,0.00,,,0.00,161,MyOwnSoftware,2013-02-28 10:10:00,
2013-02-28 10:11:00,37.3,37.3,30.64,SW,225,1.0,3.0,100,0.00,,,0.00,169,MyOwnSoftware,2013-02-28 10:11:00,
2013-02-28 10:12:00,37.3,37.3,30.64,WSW,248,0.0,2.0,100,0.00,,,0.00,160,MyOwnSoftware,2013-02-28 10:12:00,
2013-02-28 10:13:00,37.5,38.0,30.64,WSW,248,0.0,-999.0,100,-99.99,,,0.00,151,weatherlink.com 1.10,2013-02-28 10:13:00,
2013-02-28 10:14:00,37.5,37.5,30.64,North,0,0.0,0.0,100,0.00,,,0.00,151,MyOwnSoftware,2013-02-28 10:14:00,
2013-02-28 10:15:00,37.5,37.5,30.64,WSW,248,1.0,2.0,100,0.00,,,0.00,144,MyOwnSoftware,2013-02-28 10:15:00,
2013-02-28 10:16:00,37.6,37.6,30.64,WSW,248,1.0,2.0,100,0.00,,,0.00,146,MyOwnSoftware,2013-02-28 10:16:00,
2013-02-28 10:17:00,37.6,37.6,30.64,SW,225,2.0,3.0,100,0.00,,,0.00,158,MyOwnSoftware,2013-02-28 10:17:00,
2013-02-28 10:18:00,37.6,37.6,30.64,WSW,248,2.0,3.0,100,0.00,,,0.00,165,MyOwnSoftware,2013-02-28 10:18:00,
2013-02-28 10:19:00,37.6,37.6,30.64,WSW,248,0.0,2.0,100,0.00,,,0.00,176,MyOwnSoftware,2013-02-28 10:19:00,
2013-02-28 10:20:00,37.8,37.8,30.64,WSW,248,1.0,3.0,100,0.00,,,0.00,187,MyOwnSoftware,2013-02-28 10:20:00,
2013-02-28 10:21:00,37.8,37.8,30.64,WSW,248,1.0,2.0,100,0.00,,,0.00,187,MyOwnSoftware,2013-02-28 10:21:00,
2013-02-28 10:22:00,37.8,37.8,30.64,WSW,248,1.0,2.0,100,0.00,,,0.00,172,MyOwnSoftware,2013-02-28 10:22:00,
2013-02-28 10:23:00,37.9,37.9,30.64,WSW,248,1.0,2.0,100,0.00,,,0.00,160,MyOwnSoftware,2013-02-28 10:23:00,
2013-02-28 10:24:00,37.9,37.9,30.64,WSW,248,0.0,2.0,100,0.00,,,0.00,162,MyOwnSoftware,2013-02-28 10:24:00,
2013-02-28 10:25:00,37.9,37.9,30.64,West,270,0.0,1.0,100,0.00,,,0.00,146,MyOwnSoftware,2013-02-28 10:25:00,
2013-02-28 10:28:00,37.9,38.0,30.64,West,265,0.0,-999.0,100,-99.99,,,0.00,143,weatherlink.com 1.10,2013-02-28 10:28:00,
2013-02-28 10:29:00,37.9,37.9,30.64,WNW,292,1.0,1.0,100,0.00,,,0.00,164,MyOwnSoftware,2013-02-28 10:29:00,
2013-02-28 10:30:00,37.9,37.9,30.64,WNW,292,1.0,2.0,100,0.00,,,0.00,165,MyOwnSoftware,2013-02-28 10:30:00,
2013-02-28 10:31:00,37.9,37.9,30.64,WNW,292,1.0,2.0,100,0.00,,,0.00,164,MyOwnSoftware,2013-02-28 10:31:00,
2013-02-28 10:32:00,37.9,37.9,30.64,WNW,292,1.0,1.0,100,0.00,,,0.00,171,MyOwnSoftware,2013-02-28 10:32:00,
2013-02-28 10:33:00,37.9,37.9,30.64,WNW,292,0.0,2.0,100,0.00,,,0.00,190,MyOwnSoftware,2013-02-28 10:33:00,
2013-02-28 10:34:00,37.9,37.9,30.64,WNW,292,0.0,1.0,100,0.00,,,0.00,213,MyOwnSoftware,2013-02-28 10:34:00,
2013-02-28 10:35:00,37.9,37.9,30.64,West,270,1.0,2.0,100,0.00,,,0.00,155,MyOwnSoftware,2013-02-28 10:35:00,
2013-02-28 10:39:00,38.0,38.0,30.64,WSW,248,0.0,1.0,100,0.00,,,0.00,165,MyOwnSoftware,2013-02-28 10:39:00,
2013-02-28 10:40:00,38.0,38.0,30.64,WSW,248,1.0,2.0,100,0.00,,,0.00,173,MyOwnSoftware,2013-02-28 10:40:00,
2013-02-28 10:41:00,38.0,38.0,30.64,WSW,248,1.0,2.0,100,0.00,,,0.00,179,MyOwnSoftware,2013-02-28 10:41:00,
2013-02-28 10:42:00,38.2,38.2,30.64,WSW,248,1.0,2.0,100,0.00,,,0.00,179,MyOwnSoftware,2013-02-28 10:42:00,
2013-02-28 10:43:00,38.2,38.0,30.64,WSW,244,0.0,-999.0,100,-99.99,,,0.00,188,weatherlink.com 1.10,2013-02-28 10:43:00,
2013-02-28 10:44:00,38.2,38.2,30.64,WSW,248,1.0,4.0,100,0.00,,,0.00,190,MyOwnSoftware,2013-02-28 10:44:00,
2013-02-28 10:45:00,38.2,38.2,30.64,SSW,202,2.0,3.0,100,0.00,,,0.00,193,MyOwnSoftware,2013-02-28 10:45:00,
2013-02-28 10:49:00,38.5,38.5,30.64,SSW,202,1.0,3.0,100,0.00,,,0.00,285,MyOwnSoftware,2013-02-28 10:49:00,
2013-02-28 10:50:00,38.5,38.5,30.64,SSW,202,0.0,1.0,100,0.00,,,0.00,260,MyOwnSoftware,2013-02-28 10:50:00,
2013-02-28 10:51:00,38.6,38.6,30.64,SSW,202,0.0,1.0,100,0.00,,,0.00,248,MyOwnSoftware,2013-02-28 10:51:00,
2013-02-28 10:52:00,38.6,38.6,30.64,SSW,202,0.0,1.0,100,0.00,,,0.00,246,MyOwnSoftware,2013-02-28 10:52:00,
2013-02-28 10:53:00,38.8,38.8,30.64,WSW,248,1.0,2.0,100,0.00,,,0.00,252,MyOwnSoftware,2013-02-28 10:53:00,
2013-02-28 10:54:00,38.9,38.9,30.64,WSW,248,0.0,1.0,100,0.00,,,0.00,227,MyOwnSoftware,2013-02-28 10:54:00,
2013-02-28 10:55:00,38.2,38.2,30.64,SSW,202,2.0,2.0,100,0.00,,,0.00,211,MyOwnSoftware,2013-02-28 10:55:00,
2013-02-28 10:56:00,39.2,39.2,30.64,WSW,248,0.0,1.0,100,0.00,,,0.00,243,MyOwnSoftware,2013-02-28 10:56:00,
2013-02-28 10:57:00,39.2,39.2,30.64,WSW,248,0.0,1.0,100,0.00,,,0.00,248,MyOwnSoftware,2013-02-28 10:57:00,
2013-02-28 10:58:00,39.3,39.3,30.64,WSW,248,2.0,3.0,100,0.00,,,0.00,248,MyOwnSoftware,2013-02-28 10:58:00,
2013-02-28 10:59:00,39.5,39.5,30.64,WSW,248,1.0,2.0,100,0.00,,,0.00,338,MyOwnSoftware,2013-02-28 10:59:00,
2013-02-28 11:00:00,39.6,39.6,30.63,North,0,0.0,0.0,100,0.00,,,0.00,334,MyOwnSoftware,2013-02-28 11:00:00,
2013-02-28 11:01:00,39.6,39.6,30.63,West,270,1.0,2.0,100,0.00,,,0.00,336,MyOwnSoftware,2013-02-28 11:01:00,
2013-02-28 11:02:00,39.8,39.8,30.63,West,270,0.0,1.0,100,0.00,,,0.00,336,MyOwnSoftware,2013-02-28 11:02:00,
2013-02-28 11:03:00,39.9,39.9,30.63,West,270,1.0,2.0,100,0.00,,,0.00,341,MyOwnSoftware,2013-02-28 11:03:00,
2013-02-28 11:04:00,39.9,39.9,30.63,North,0,0.0,0.0,100,0.00,,,0.00,347,MyOwnSoftware,2013-02-28 11:04:00,
2013-02-28 11:05:00,40.1,40.1,30.63,West,270,1.0,2.0,100,0.00,,,0.00,353,MyOwnSoftware,2013-02-28 11:05:00,
2013-02-28 11:09:00,40.3,40.3,30.63,North,0,0.0,0.0,100,0.00,,,0.00,348,MyOwnSoftware,2013-02-28 11:09:00,
2013-02-28 11:10:00,40.3,40.3,30.63,WNW,292,0.0,1.0,100,0.00,,,0.00,351,MyOwnSoftware,2013-02-28 11:10:00,
2013-02-28 11:11:00,40.3,40.3,30.63,WNW,292,0.0,2.0,100,0.00,,,0.00,354,MyOwnSoftware,2013-02-28 11:11:00,
2013-02-28 11:12:00,40.3,40.3,30.63,WNW,292,0.0,1.0,100,0.00,,,0.00,352,MyOwnSoftware,2013-02-28 11:12:00,
2013-02-28 11:13:00,40.5,41.0,30.63,WNW,294,0.0,-999.0,100,-99.99,,,0.00,350,weatherlink.com 1.10,2013-02-28 11:13:00,
2013-02-28 11:14:00,40.5,40.5,30.63,WNW,292,0.0,1.0,100,0.00,,,0.00,350,MyOwnSoftware,2013-02-28 11:14:00,
2013-02-28 11:15:00,40.5,40.5,30.63,WNW,292,0.0,1.0,100,0.00,,,0.00,355,MyOwnSoftware,2013-02-28 11:15:00,
2013-02-28 11:16:00,40.6,40.6,30.63,WNW,292,1.0,2.0,100,0.00,,,0.00,355,MyOwnSoftware,2013-02-28 11:16:00,
2013-02-28 11:17:00,40.6,40.6,30.63,North,0,0.0,0.0,100,0.00,,,0.00,359,MyOwnSoftware,2013-02-28 11:17:00,
2013-02-28 11:18:00,40.8,40.8,30.63,WNW,292,0.0,1.0,100,0.00,,,0.00,359,MyOwnSoftware,2013-02-28 11:18:00,
2013-02-28 11:19:00,40.9,40.6,30.63,WNW,292,0.0,2.0,99,0.00,,,0.00,359,MyOwnSoftware,2013-02-28 11:19:00,
2013-02-28 11:20:00,40.9,40.6,30.63,West,270,1.0,2.0,99,0.00,,,0.00,362,MyOwnSoftware,2013-02-28 11:20:00,
2013-02-28 11:21:00,40.9,40.6,30.63,West,270,0.0,2.0,99,0.00,,,0.00,361,MyOwnSoftware,2013-02-28 11:21:00,
2013-02-28 11:22:00,41.1,40.8,30.63,West,270,0.0,1.0,99,0.00,,,0.00,362,MyOwnSoftware,2013-02-28 11:22:00,
2013-02-28 11:23:00,41.1,40.8,30.63,West,270,1.0,3.0,99,0.00,,,0.00,362,MyOwnSoftware,2013-02-28 11:23:00,
2013-02-28 11:24:00,41.1,40.6,30.63,West,270,0.0,1.0,98,0.00,,,0.00,364,MyOwnSoftware,2013-02-28 11:24:00,
2013-02-28 11:25:00,41.2,40.7,30.63,North,0,0.0,0.0,98,0.00,,,0.00,364,MyOwnSoftware,2013-02-28 11:25:00,
2013-02-28 11:28:00,41.2,40.0,30.63,West,274,0.0,-999.0,97,-99.99,,,0.00,368,weatherlink.com 1.10,2013-02-28 11:28:00,
2013-02-28 11:29:00,41.2,40.4,30.63,West,270,0.0,2.0,97,0.00,,,0.00,368,MyOwnSoftware,2013-02-28 11:29:00,
2013-02-28 11:30:00,41.2,40.4,30.63,West,270,1.0,2.0,97,0.00,,,0.00,364,MyOwnSoftware,2013-02-28 11:30:00,
2013-02-28 11:31:00,41.2,40.4,30.63,West,270,1.0,2.0,97,0.00,,,0.00,366,MyOwnSoftware,2013-02-28 11:31:00,
2013-02-28 11:32:00,41.2,40.4,30.63,West,270,0.0,1.0,97,0.00,,,0.00,371,MyOwnSoftware,2013-02-28 11:32:00,
2013-02-28 11:33:00,41.3,40.5,30.63,North,0,0.0,0.0,97,0.00,,,0.00,368,MyOwnSoftware,2013-02-28 11:33:00,
2013-02-28 11:34:00,41.3,40.5,30.63,West,270,0.0,1.0,97,0.00,,,0.00,366,MyOwnSoftware,2013-02-28 11:34:00,
2013-02-28 11:35:00,41.2,40.7,30.63,North,0,0.0,0.0,98,0.00,,,0.00,362,MyOwnSoftware,2013-02-28 11:35:00,
2013-02-28 11:39:00,41.3,40.5,30.63,West,270,1.0,3.0,97,0.00,,,0.00,375,MyOwnSoftware,2013-02-28 11:39:00,
2013-02-28 11:40:00,41.3,40.2,30.63,WSW,248,1.0,2.0,96,0.00,,,0.00,377,MyOwnSoftware,2013-02-28 11:40:00,
2013-02-28 11:41:00,41.2,40.1,30.63,WNW,292,1.0,4.0,96,0.00,,,0.00,377,MyOwnSoftware,2013-02-28 11:41:00,
2013-02-28 11:42:00,41.1,40.0,30.63,WNW,292,1.0,2.0,96,0.00,,,0.00,377,MyOwnSoftware,2013-02-28 11:42:00,
2013-02-28 11:43:00,41.1,40.0,30.63,WNW,289,2.0,-999.0,97,-99.99,,,0.00,377,weatherlink.com 1.10,2013-02-28 11:43:00,
2013-02-28 11:44:00,41.1,40.3,30.63,WNW,292,1.0,2.0,97,0.00,,,0.00,377,MyOwnSoftware,2013-02-28 11:44:00,
2013-02-28 11:45:00,40.9,40.1,30.63,WNW,292,0.0,1.0,97,0.00,,,0.00,378,MyOwnSoftware,2013-02-28 11:45:00,
2013-02-28 11:49:00,40.9,40.1,30.63,West,270,0.0,2.0,97,0.00,,,0.00,380,MyOwnSoftware,2013-02-28 11:49:00,
2013-02-28 11:50:00,40.9,40.4,30.63,West,270,2.0,5.0,98,0.00,,,0.00,379,MyOwnSoftware,2013-02-28 11:50:00,
2013-02-28 11:51:00,40.9,40.4,30.63,WNW,292,3.0,6.0,98,0.00,,,0.00,373,MyOwnSoftware,2013-02-28 11:51:00,
2013-02-28 11:52:00,40.8,40.3,30.63,WNW,292,1.0,3.0,98,0.00,,,0.00,378,MyOwnSoftware,2013-02-28 11:52:00,
2013-02-28 11:53:00,40.8,40.0,30.63,WNW,292,1.0,2.0,97,0.00,,,0.00,384,MyOwnSoftware,2013-02-28 11:53:00,
2013-02-28 11:54:00,40.6,39.8,30.63,WNW,292,1.0,3.0,97,0.00,,,0.00,380,MyOwnSoftware,2013-02-28 11:54:00,
2013-02-28 11:55:00,40.9,40.1,30.63,WNW,292,1.0,2.0,97,0.00,,,0.00,380,MyOwnSoftware,2013-02-28 11:55:00,
2013-02-28 11:56:00,40.6,40.1,30.63,SW,225,0.0,2.0,98,0.00,,,0.00,382,MyOwnSoftware,2013-02-28 11:56:00,
2013-02-28 11:57:00,40.5,40.0,30.63,WNW,292,2.0,3.0,98,0.00,,,0.00,380,MyOwnSoftware,2013-02-28 11:57:00,
2013-02-28 11:58:00,40.5,40.0,30.63,WNW,292,1.0,2.0,98,0.00,,,0.00,382,MyOwnSoftware,2013-02-28 11:58:00,
2013-02-28 11:59:00,40.5,40.2,30.63,WNW,292,1.0,2.0,99,0.00,,,0.00,382,MyOwnSoftware,2013-02-28 11:59:00,
2013-02-28 12:00:00,40.5,40.2,30.62,WNW,292,0.0,1.0,99,0.00,,,0.00,382,MyOwnSoftware,2013-02-28 12:00:00,
2013-02-28 12:01:00,40.5,40.2,30.62,WNW,292,0.0,1.0,99,0.00,,,0.00,382,MyOwnSoftware,2013-02-28 12:01:00,
2013-02-28 12:02:00,40.5,40.2,30.62,WNW,292,0.0,2.0,99,0.00,,,0.00,384,MyOwnSoftware,2013-02-28 12:02:00,
2013-02-28 12:03:00,40.5,40.2,30.62,WNW,292,1.0,2.0,99,0.00,,,0.00,385,MyOwnSoftware,2013-02-28 12:03:00,
2013-02-28 12:04:00,40.5,40.2,30.62,WNW,292,1.0,2.0,99,0.00,,,0.00,384,MyOwnSoftware,2013-02-28 12:04:00,
2013-02-28 12:05:00,40.5,40.2,30.62,West,270,2.0,5.0,99,0.00,,,0.00,385,MyOwnSoftware,2013-02-28 12:05:00,
2013-02-28 12:09:00,40.5,40.5,30.62,WNW,292,1.0,5.0,100,0.00,,,0.00,387,MyOwnSoftware,2013-02-28 12:09:00,
2013-02-28 12:10:00,40.5,40.5,30.62,West,270,1.0,2.0,100,0.00,,,0.00,386,MyOwnSoftware,2013-02-28 12:10:00,
2013-02-28 12:11:00,40.5,40.2,30.62,West,270,1.0,2.0,99,0.00,,,0.00,387,MyOwnSoftware,2013-02-28 12:11:00,
2013-02-28 12:12:00,40.5,40.2,30.62,West,270,1.0,3.0,99,0.00,,,0.00,387,MyOwnSoftware,2013-02-28 12:12:00,
2013-02-28 12:13:00,40.5,40.0,30.62,WNW,288,0.0,-999.0,99,-99.99,,,0.00,385,weatherlink.com 1.10,2013-02-28 12:13:00,
2013-02-28 12:14:00,40.5,40.5,30.62,WNW,292,1.0,5.0,100,0.00,,,0.00,385,MyOwnSoftware,2013-02-28 12:14:00,
2013-02-28 12:15:00,40.5,40.2,30.62,WNW,292,2.0,3.0,99,0.00,,,0.00,386,MyOwnSoftware,2013-02-28 12:15:00,
2013-02-28 12:16:00,40.5,40.2,30.62,WNW,292,1.0,3.0,99,0.00,,,0.00,387,MyOwnSoftware,2013-02-28 12:16:00,
2013-02-28 12:17:00,40.5,40.2,30.62,WNW,292,2.0,3.0,99,0.00,,,0.00,387,MyOwnSoftware,2013-02-28 12:17:00,
2013-02-28 12:18:00,40.5,40.2,30.62,WNW,292,1.0,2.0,99,0.00,,,0.00,387,MyOwnSoftware,2013-02-28 12:18:00,
2013-02-28 12:19:00,40.3,40.0,30.62,West,270,2.0,3.0,99,0.00,,,0.00,385,MyOwnSoftware,2013-02-28 12:19:00,
2013-02-28 12:20:00,40.3,40.0,30.62,West,270,1.0,2.0,99,0.00,,,0.00,390,MyOwnSoftware,2013-02-28 12:20:00,
2013-02-28 12:21:00,40.3,40.0,30.62,West,270,1.0,2.0,99,0.00,,,0.00,389,MyOwnSoftware,2013-02-28 12:21:00,
2013-02-28 12:22:00,40.2,39.9,30.62,West,270,0.0,1.0,99,0.00,,,0.00,391,MyOwnSoftware,2013-02-28 12:22:00,
2013-02-28 12:23:00,40.2,39.9,30.62,West,270,1.0,2.0,99,0.00,,,0.00,391,MyOwnSoftware,2013-02-28 12:23:00,
2013-02-28 12:24:00,40.2,40.2,30.62,West,270,0.0,2.0,100,0.00,,,0.00,391,MyOwnSoftware,2013-02-28 12:24:00,
2013-02-28 12:25:00,40.2,40.2,30.62,West,270,0.0,1.0,100,0.00,,,0.00,393,MyOwnSoftware,2013-02-28 12:25:00,
2013-02-28 12:28:00,40.3,40.0,30.62,West,278,0.0,-999.0,100,-99.99,,,0.00,412,weatherlink.com 1.10,2013-02-28 12:28:00,
2013-02-28 12:29:00,40.3,40.3,30.62,West,270,0.0,1.0,100,0.00,,,0.00,412,MyOwnSoftware,2013-02-28 12:29:00,
2013-02-28 12:30:00,40.3,40.3,30.62,WNW,292,1.0,2.0,100,0.00,,,0.00,426,MyOwnSoftware,2013-02-28 12:30:00,
2013-02-28 12:31:00,40.3,40.3,30.62,WNW,292,0.0,2.0,100,0.00,,,0.00,445,MyOwnSoftware,2013-02-28 12:31:00,
2013-02-28 12:32:00,40.5,40.5,30.62,WNW,292,1.0,2.0,100,0.00,,,0.00,422,MyOwnSoftware,2013-02-28 12:32:00,
2013-02-28 12:33:00,40.5,40.5,30.62,WNW,292,0.0,1.0,100,0.00,,,0.00,456,MyOwnSoftware,2013-02-28 12:33:00,
2013-02-28 12:34:00,40.5,40.5,30.62,WNW,292,0.0,2.0,100,0.00,,,0.00,457,MyOwnSoftware,2013-02-28 12:34:00,
2013-02-28 12:35:00,40.2,40.2,30.62,West,270,1.0,1.0,100,0.00,,,0.00,396,MyOwnSoftware,2013-02-28 12:35:00,
2013-02-28 12:39:00,40.5,40.5,30.62,West,270,1.0,2.0,100,0.00,,,0.00,326,MyOwnSoftware,2013-02-28 12:39:00,
2013-02-28 12:40:00,40.5,40.5,30.62,West,270,1.0,2.0,100,0.00,,,0.00,297,MyOwnSoftware,2013-02-28 12:40:00,
2013-02-28 12:41:00,40.5,40.5,30.62,West,270,0.0,2.0,100,0.00,,,0.00,398,MyOwnSoftware,2013-02-28 12:41:00,
2013-02-28 12:42:00,40.3,40.3,30.62,WNW,292,2.0,3.0,100,0.00,,,0.00,419,MyOwnSoftware,2013-02-28 12:42:00,
2013-02-28 12:43:00,40.3,40.0,30.62,WNW,299,1.0,-999.0,100,-99.99,,,0.00,394,weatherlink.com 1.10,2013-02-28 12:43:00,
2013-02-28 12:44:00,40.3,40.3,30.62,WNW,292,1.0,2.0,100,0.00,,,0.00,394,MyOwnSoftware,2013-02-28 12:44:00,
2013-02-28 12:45:00,40.3,40.3,30.61,WNW,292,1.0,2.0,100,0.00,,,0.00,394,MyOwnSoftware,2013-02-28 12:45:00,
2013-02-28 12:49:00,40.3,40.3,30.61,WNW,292,0.0,2.0,100,0.00,,,0.00,77,MyOwnSoftware,2013-02-28 12:49:00,
2013-02-28 12:50:00,40.3,40.3,30.61,WNW,292,1.0,3.0,100,0.00,,,0.00,77,MyOwnSoftware,2013-02-28 12:50:00,
2013-02-28 12:51:00,40.3,40.3,30.61,WNW,292,1.0,2.0,100,0.00,,,0.00,76,MyOwnSoftware,2013-02-28 12:51:00,
2013-02-28 12:52:00,40.3,40.3,30.61,WNW,292,0.0,2.0,100,0.00,,,0.00,81,MyOwnSoftware,2013-02-28 12:52:00,
2013-02-28 12:53:00,40.3,40.3,30.61,WNW,292,0.0,2.0,100,0.00,,,0.00,81,MyOwnSoftware,2013-02-28 12:53:00,
2013-02-28 12:54:00,40.3,40.3,30.61,WNW,292,1.0,2.0,100,0.00,,,0.00,81,MyOwnSoftware,2013-02-28 12:54:00,
2013-02-28 12:55:00,40.3,40.3,30.61,WNW,292,1.0,2.0,100,0.00,,,0.00,394,MyOwnSoftware,2013-02-28 12:55:00,
2013-02-28 12:56:00,40.3,40.3,30.61,North,0,0.0,0.0,100,0.00,,,0.00,377,MyOwnSoftware,2013-02-28 12:56:00,
2013-02-28 12:57:00,40.5,40.5,30.61,WNW,292,0.0,2.0,100,0.00,,,0.00,380,MyOwnSoftware,2013-02-28 12:57:00,
2013-02-28 12:58:00,40.5,40.5,30.61,WNW,292,0.0,1.0,100,0.00,,,0.00,380,MyOwnSoftware,2013-02-28 12:58:00,
2013-02-28 12:59:00,40.3,40.3,30.61,North,0,0.0,0.0,100,0.00,,,0.00,377,MyOwnSoftware,2013-02-28 12:59:00,
2013-02-28 13:00:00,40.5,40.5,30.61,North,0,0.0,0.0,100,0.00,,,0.00,378,MyOwnSoftware,2013-02-28 13:00:00,
2013-02-28 13:01:00,40.5,40.5,30.61,North,0,0.0,0.0,100,0.00,,,0.00,375,MyOwnSoftware,2013-02-28 13:01:00,
2013-02-28 13:02:00,40.5,40.5,30.61,WNW,292,1.0,2.0,100,0.00,,,0.00,378,MyOwnSoftware,2013-02-28 13:02:00,
2013-02-28 13:03:00,40.5,40.5,30.61,WNW,292,0.0,1.0,100,0.00,,,0.00,377,MyOwnSoftware,2013-02-28 13:03:00,
2013-02-28 13:04:00,40.5,40.5,30.61,WNW,292,0.0,1.0,100,0.00,,,0.00,377,MyOwnSoftware,2013-02-28 13:04:00,
2013-02-28 13:05:00,40.6,40.6,30.61,WNW,292,0.0,1.0,100,0.00,,,0.00,376,MyOwnSoftware,2013-02-28 13:05:00,
2013-02-28 13:09:00,40.8,40.8,30.61,North,0,0.0,0.0,100,0.00,,,0.00,377,MyOwnSoftware,2013-02-28 13:09:00,
2013-02-28 13:10:00,40.8,40.8,30.61,North,0,0.0,0.0,100,0.00,,,0.00,373,MyOwnSoftware,2013-02-28 13:10:00,
2013-02-28 13:11:00,40.8,40.8,30.61,North,0,0.0,0.0,100,0.00,,,0.00,375,MyOwnSoftware,2013-02-28 13:11:00,
2013-02-28 13:12:00,40.8,40.8,30.61,North,0,0.0,0.0,100,0.00,,,0.00,377,MyOwnSoftware,2013-02-28 13:12:00,
2013-02-28 13:13:00,40.9,41.0,30.61,WNW,294,0.0,-999.0,100,-99.99,,,0.00,377,weatherlink.com 1.10,2013-02-28 13:13:00,
2013-02-28 13:14:00,40.9,40.9,30.61,North,0,0.0,0.0,100,0.00,,,0.00,377,MyOwnSoftware,2013-02-28 13:14:00,
2013-02-28 13:15:00,40.9,40.9,30.60,WNW,292,0.0,1.0,100,0.00,,,0.00,374,MyOwnSoftware,2013-02-28 13:15:00,
2013-02-28 13:16:00,41.1,41.1,30.60,WNW,292,1.0,3.0,100,0.00,,,0.00,373,MyOwnSoftware,2013-02-28 13:16:00,
2013-02-28 13:17:00,41.1,41.1,30.60,WNW,292,2.0,4.0,100,0.00,,,0.00,375,MyOwnSoftware,2013-02-28 13:17:00,
2013-02-28 13:18:00,41.2,41.2,30.60,WNW,292,2.0,4.0,100,0.00,,,0.00,373,MyOwnSoftware,2013-02-28 13:18:00,
2013-02-28 13:19:00,41.2,41.2,30.60,WNW,292,2.0,3.0,100,0.00,,,0.00,371,MyOwnSoftware,2013-02-28 13:19:00,
2013-02-28 13:20:00,41.2,41.2,30.60,WNW,292,1.0,3.0,100,0.00,,,0.00,371,MyOwnSoftware,2013-02-28 13:20:00,
2013-02-28 13:21:00,41.2,41.2,30.60,WNW,292,1.0,2.0,100,0.00,,,0.00,371,MyOwnSoftware,2013-02-28 13:21:00,
2013-02-28 13:22:00,41.2,41.2,30.60,WNW,292,2.0,3.0,100,0.00,,,0.00,370,MyOwnSoftware,2013-02-28 13:22:00,
2013-02-28 13:23:00,41.2,41.2,30.60,WNW,292,1.0,2.0,100,0.00,,,0.00,371,MyOwnSoftware,2013-02-28 13:23:00,
2013-02-28 13:24:00,41.2,41.2,30.60,WNW,292,0.0,2.0,100,0.00,,,0.00,370,MyOwnSoftware,2013-02-28 13:24:00,
2013-02-28 13:25:00,41.2,41.2,30.60,North,0,0.0,0.0,100,0.00,,,0.00,370,MyOwnSoftware,2013-02-28 13:25:00,
2013-02-28 13:28:00,41.2,41.0,30.60,WNW,282,1.0,-999.0,100,-99.99,,,0.00,401,weatherlink.com 1.10,2013-02-28 13:28:00,
2013-02-28 13:29:00,41.2,41.2,30.60,WNW,292,1.0,2.0,100,0.00,,,0.00,401,MyOwnSoftware,2013-02-28 13:29:00,
2013-02-28 13:30:00,41.2,41.2,30.60,WNW,292,2.0,5.0,100,0.00,,,0.00,452,MyOwnSoftware,2013-02-28 13:30:00,
2013-02-28 13:31:00,41.2,41.2,30.60,WNW,292,1.0,2.0,100,0.00,,,0.00,491,MyOwnSoftware,2013-02-28 13:31:00,
2013-02-28 13:32:00,41.2,41.2,30.60,WNW,292,1.0,2.0,100,0.00,,,0.00,491,MyOwnSoftware,2013-02-28 13:32:00,
2013-02-28 13:33:00,41.2,41.2,30.60,WNW,292,0.0,1.0,100,0.00,,,0.00,357,MyOwnSoftware,2013-02-28 13:33:00,
2013-02-28 13:34:00,41.3,41.3,30.60,WNW,292,1.0,2.0,100,0.00,,,0.00,357,MyOwnSoftware,2013-02-28 13:34:00,
2013-02-28 13:35:00,41.2,41.2,30.60,WNW,292,1.0,2.0,100,0.00,,,0.00,373,MyOwnSoftware,2013-02-28 13:35:00,
2013-02-28 13:39:00,41.2,41.2,30.60,WNW,292,1.0,2.0,100,0.00,,,0.00,188,MyOwnSoftware,2013-02-28 13:39:00,
2013-02-28 13:40:00,41.1,41.1,30.60,WNW,292,2.0,5.0,100,0.00,,,0.00,329,MyOwnSoftware,2013-02-28 13:40:00,
2013-02-28 13:41:00,41.1,41.1,30.60,WNW,292,0.0,1.0,100,0.00,,,0.00,329,MyOwnSoftware,2013-02-28 13:41:00,
2013-02-28 13:42:00,40.9,40.9,30.60,North,0,0.0,0.0,100,0.00,,,0.00,225,MyOwnSoftware,2013-02-28 13:42:00,
2013-02-28 13:43:00,40.9,41.0,30.60,WNW,294,0.0,-999.0,100,-99.99,,,0.00,371,weatherlink.com 1.10,2013-02-28 13:43:00,
2013-02-28 13:44:00,40.9,40.9,30.60,WNW,292,1.0,3.0,100,0.00,,,0.00,371,MyOwnSoftware,2013-02-28 13:44:00,
2013-02-28 13:45:00,40.8,40.8,30.59,NW,315,2.0,5.0,100,0.00,,,0.00,367,MyOwnSoftware,2013-02-28 13:45:00,
2013-02-28 13:49:00,40.8,40.8,30.59,WNW,292,0.0,2.0,100,0.00,,,0.00,340,MyOwnSoftware,2013-02-28 13:49:00,
2013-02-28 13:50:00,40.8,40.8,30.59,North,0,0.0,0.0,100,0.00,,,0.00,355,MyOwnSoftware,2013-02-28 13:50:00,
2013-02-28 13:51:00,40.8,40.8,30.59,WNW,292,0.0,1.0,100,0.00,,,0.00,355,MyOwnSoftware,2013-02-28 13:51:00,
2013-02-28 13:52:00,40.8,40.8,30.59,North,0,0.0,0.0,100,0.00,,,0.00,350,MyOwnSoftware,2013-02-28 13:52:00,
2013-02-28 13:53:00,40.8,40.8,30.59,WNW,292,0.0,1.0,100,0.00,,,0.00,347,MyOwnSoftware,2013-02-28 13:53:00,
2013-02-28 13:54:00,40.9,40.9,30.59,WNW,292,1.0,2.0,100,0.00,,,0.00,352,MyOwnSoftware,2013-02-28 13:54:00,
2013-02-28 13:55:00,40.8,40.8,30.59,NW,315,1.0,2.0,100,0.00,,,0.00,366,MyOwnSoftware,2013-02-28 13:55:00,
2013-02-28 13:56:00,40.9,40.9,30.59,WNW,292,0.0,2.0,100,0.00,,,0.00,378,MyOwnSoftware,2013-02-28 13:56:00,
2013-02-28 13:57:00,40.9,40.9,30.59,North,0,0.0,0.0,100,0.00,,,0.00,355,MyOwnSoftware,2013-02-28 13:57:00,
2013-02-28 13:58:00,40.9,40.9,30.59,WNW,292,1.0,2.0,100,0.00,,,0.00,359,MyOwnSoftware,2013-02-28 13:58:00,
2013-02-28 13:59:00,41.1,41.1,30.59,WNW,292,0.0,2.0,100,0.00,,,0.00,359,MyOwnSoftware,2013-02-28 13:59:00,
2013-02-28 14:00:00,41.1,41.1,30.59,WNW,292,0.0,1.0,100,0.00,,,0.00,359,MyOwnSoftware,2013-02-28 14:00:00,
2013-02-28 14:01:00,41.1,41.1,30.59,WNW,292,0.0,1.0,100,0.00,,,0.00,181,MyOwnSoftware,2013-02-28 14:01:00,
2013-02-28 14:02:00,41.2,41.2,30.59,WNW,292,0.0,1.0,100,0.00,,,0.00,160,MyOwnSoftware,2013-02-28 14:02:00,
2013-02-28 14:03:00,41.2,41.2,30.59,WNW,292,0.0,1.0,100,0.00,,,0.00,153,MyOwnSoftware,2013-02-28 14:03:00,
2013-02-28 14:04:00,41.3,41.3,30.59,WNW,292,0.0,1.0,100,0.00,,,0.00,153,MyOwnSoftware,2013-02-28 14:04:00,
2013-02-28 14:05:00,41.3,41.3,30.59,WNW,292,0.0,1.0,100,0.00,,,0.00,182,MyOwnSoftware,2013-02-28 14:05:00,
2013-02-28 14:09:00,41.8,41.8,30.59,WNW,292,0.0,1.0,100,0.00,,,0.00,157,MyOwnSoftware,2013-02-28 14:09:00,
2013-02-28 14:10:00,41.8,41.8,30.59,WNW,292,0.0,1.0,100,0.00,,,0.00,159,MyOwnSoftware,2013-02-28 14:10:00,
2013-02-28 14:11:00,41.9,41.9,30.59,WNW,292,0.0,1.0,100,0.00,,,0.00,144,MyOwnSoftware,2013-02-28 14:11:00,
2013-02-28 14:12:00,42.1,42.1,30.59,WNW,292,0.0,2.0,100,0.00,,,0.00,132,MyOwnSoftware,2013-02-28 14:12:00,
2013-02-28 14:13:00,42.2,42.0,30.59,WNW,302,0.0,-999.0,100,-99.99,,,0.00,137,weatherlink.com 1.10,2013-02-28 14:13:00,
2013-02-28 14:14:00,42.2,42.2,30.59,North,0,0.0,0.0,100,0.00,,,0.00,137,MyOwnSoftware,2013-02-28 14:14:00,
2013-02-28 14:15:00,42.3,42.3,30.59,North,0,0.0,0.0,100,0.00,,,0.00,144,MyOwnSoftware,2013-02-28 14:15:00,
2013-02-28 14:16:00,42.3,42.3,30.59,North,0,0.0,0.0,100,0.00,,,0.00,141,MyOwnSoftware,2013-02-28 14:16:00,
2013-02-28 14:17:00,42.5,42.5,30.59,WNW,292,0.0,1.0,100,0.00,,,0.00,137,MyOwnSoftware,2013-02-28 14:17:00,
2013-02-28 14:18:00,42.5,42.5,30.59,North,0,0.0,0.0,100,0.00,,,0.00,135,MyOwnSoftware,2013-02-28 14:18:00,
2013-02-28 14:19:00,42.6,42.6,30.59,WNW,292,0.0,1.0,100,0.00,,,0.00,127,MyOwnSoftware,2013-02-28 14:19:00,
2013-02-28 14:20:00,42.8,42.8,30.59,North,0,0.0,0.0,100,0.00,,,0.00,126,MyOwnSoftware,2013-02-28 14:20:00,
2013-02-28 14:21:00,42.8,42.8,30.59,North,0,0.0,0.0,100,0.00,,,0.00,127,MyOwnSoftware,2013-02-28 14:21:00,
2013-02-28 14:22:00,42.9,42.9,30.59,WNW,292,0.0,1.0,100,0.00,,,0.00,160,MyOwnSoftware,2013-02-28 14:22:00,
2013-02-28 14:23:00,43.1,43.1,30.59,North,0,0.0,0.0,100,0.00,,,0.00,165,MyOwnSoftware,2013-02-28 14:23:00,
2013-02-28 14:24:00,43.2,42.9,30.59,WNW,292,0.0,1.0,99,0.00,,,0.00,169,MyOwnSoftware,2013-02-28 14:24:00,
2013-02-28 14:25:00,43.3,43.0,30.59,WNW,292,0.0,1.0,99,0.00,,,0.00,164,MyOwnSoftware,2013-02-28 14:25:00,
2013-02-28 14:28:00,43.8,43.0,30.59,WNW,302,0.0,-999.0,97,-99.99,,,0.00,171,weatherlink.com 1.10,2013-02-28 14:28:00,
2013-02-28 14:29:00,43.8,43.0,30.59,WNW,292,0.0,1.0,97,0.00,,,0.00,171,MyOwnSoftware,2013-02-28 14:29:00,
2013-02-28 14:30:00,43.9,43.1,30.59,WNW,292,0.0,1.0,97,0.00,,,0.00,171,MyOwnSoftware,2013-02-28 14:30:00,
2013-02-28 14:31:00,43.9,43.1,30.59,WNW,292,0.0,1.0,97,0.00,,,0.00,172,MyOwnSoftware,2013-02-28 14:31:00,
2013-02-28 14:32:00,44.1,43.3,30.59,WNW,292,1.0,2.0,97,0.00,,,0.00,169,MyOwnSoftware,2013-02-28 14:32:00,
2013-02-28 14:33:00,44.2,43.4,30.59,WNW,292,0.0,1.0,97,0.00,,,0.00,160,MyOwnSoftware,2013-02-28 14:33:00,
2013-02-28 14:34:00,44.2,43.1,30.59,WNW,292,2.0,3.0,96,0.00,,,0.00,153,MyOwnSoftware,2013-02-28 14:34:00,
2013-02-28 14:35:00,43.5,43.2,30.59,WNW,292,0.0,2.0,99,0.00,,,0.00,164,MyOwnSoftware,2013-02-28 14:35:00,
2013-02-28 14:39:00,44.5,43.2,30.59,WNW,292,1.0,2.0,95,0.00,,,0.00,172,MyOwnSoftware,2013-02-28 14:39:00,
2013-02-28 14:40:00,44.5,43.2,30.59,WNW,292,1.0,2.0,95,0.00,,,0.00,166,MyOwnSoftware,2013-02-28 14:40:00,
2013-02-28 14:41:00,44.5,43.2,30.59,WNW,292,3.0,5.0,95,0.00,,,0.00,153,MyOwnSoftware,2013-02-28 14:41:00,
2013-02-28 14:42:00,44.5,42.9,30.59,WNW,292,0.0,2.0,94,0.00,,,0.00,144,MyOwnSoftware,2013-02-28 14:42:00,
2013-02-28 14:43:00,44.5,43.0,30.59,WNW,295,0.0,-999.0,94,-99.99,,,0.00,139,weatherlink.com 1.10,2013-02-28 14:43:00,
2013-02-28 14:44:00,44.5,42.9,30.59,WNW,292,1.0,2.0,94,0.00,,,0.00,139,MyOwnSoftware,2013-02-28 14:44:00,
2013-02-28 14:45:00,44.5,42.9,30.59,WNW,292,0.0,1.0,94,0.00,,,0.00,142,MyOwnSoftware,2013-02-28 14:45:00,
2013-02-28 14:49:00,44.3,43.0,30.59,WNW,292,1.0,2.0,95,0.00,,,0.00,135,MyOwnSoftware,2013-02-28 14:49:00,
2013-02-28 14:50:00,44.2,42.9,30.59,WNW,292,1.0,2.0,95,0.00,,,0.00,131,MyOwnSoftware,2013-02-28 14:50:00,
2013-02-28 14:51:00,44.2,42.9,30.59,WNW,292,1.0,3.0,95,0.00,,,0.00,125,MyOwnSoftware,2013-02-28 14:51:00,
2013-02-28 14:52:00,44.2,42.9,30.59,WNW,292,0.0,2.0,95,0.00,,,0.00,121,MyOwnSoftware,2013-02-28 14:52:00,
2013-02-28 14:53:00,44.1,42.8,30.59,WNW,292,0.0,1.0,95,0.00,,,0.00,120,MyOwnSoftware,2013-02-28 14:53:00,
2013-02-28 14:54:00,44.1,43.0,30.59,WNW,292,0.0,1.0,96,0.00,,,0.00,118,MyOwnSoftware,2013-02-28 14:54:00,
2013-02-28 14:55:00,44.3,42.7,30.59,WNW,292,0.0,1.0,94,0.00,,,0.00,143,MyOwnSoftware,2013-02-28 14:55:00,
2013-02-28 14:56:00,44.1,43.0,30.59,North,0,0.0,0.0,96,0.00,,,0.00,127,MyOwnSoftware,2013-02-28 14:56:00,
2013-02-28 14:57:00,44.1,43.0,30.59,WNW,292,1.0,3.0,96,0.00,,,0.00,127,MyOwnSoftware,2013-02-28 14:57:00,
2013-02-28 14:58:00,44.1,43.0,30.59,WNW,292,0.0,2.0,96,0.00,,,0.00,125,MyOwnSoftware,2013-02-28 14:58:00,
2013-02-28 14:59:00,44.1,43.0,30.59,WNW,292,0.0,2.0,96,0.00,,,0.00,125,MyOwnSoftware,2013-02-28 14:59:00,
2013-02-28 15:00:00,44.1,43.0,30.58,WNW,292,1.0,2.0,96,0.00,,,0.00,128,MyOwnSoftware,2013-02-28 15:00:00,
2013-02-28 15:01:00,44.1,43.0,30.58,WNW,292,2.0,3.0,96,0.00,,,0.00,128,MyOwnSoftware,2013-02-28 15:01:00,
2013-02-28 15:02:00,44.1,43.0,30.58,WNW,292,1.0,3.0,96,0.00,,,0.00,128,MyOwnSoftware,2013-02-28 15:02:00,
2013-02-28 15:03:00,44.1,43.0,30.58,WNW,292,0.0,1.0,96,0.00,,,0.00,128,MyOwnSoftware,2013-02-28 15:03:00,
2013-02-28 15:04:00,44.1,43.0,30.58,North,0,0.0,0.0,96,0.00,,,0.00,127,MyOwnSoftware,2013-02-28 15:04:00,
2013-02-28 15:05:00,44.1,43.0,30.58,WNW,292,0.0,1.0,96,0.00,,,0.00,126,MyOwnSoftware,2013-02-28 15:05:00,
2013-02-28 15:09:00,44.2,43.1,30.58,North,0,0.0,0.0,96,0.00,,,0.00,125,MyOwnSoftware,2013-02-28 15:09:00,
2013-02-28 15:10:00,44.2,43.1,30.58,WNW,292,0.0,2.0,96,0.00,,,0.00,124,MyOwnSoftware,2013-02-28 15:10:00,
2013-02-28 15:11:00,44.2,43.1,30.58,North,0,0.0,0.0,96,0.00,,,0.00,123,MyOwnSoftware,2013-02-28 15:11:00,
2013-02-28 15:12:00,44.3,43.2,30.58,WNW,292,0.0,2.0,96,0.00,,,0.00,127,MyOwnSoftware,2013-02-28 15:12:00,
2013-02-28 15:13:00,44.3,43.2,30.58,WNW,292,0.0,1.0,96,0.00,,,0.00,130,MyOwnSoftware,2013-02-28 15:13:00,
2013-02-28 15:14:00,44.3,43.0,30.58,WNW,289,0.0,-999.0,96,-99.99,,,0.00,130,weatherlink.com 1.10,2013-02-28 15:14:00,
2013-02-28 15:15:00,44.3,43.2,30.59,North,0,0.0,0.0,96,0.00,,,0.00,119,MyOwnSoftware,2013-02-28 15:15:00,
2013-02-28 15:16:00,44.5,43.4,30.59,WNW,292,0.0,2.0,96,0.00,,,0.00,107,MyOwnSoftware,2013-02-28 15:16:00,
2013-02-28 15:17:00,44.5,43.4,30.59,WNW,292,0.0,1.0,96,0.00,,,0.00,106,MyOwnSoftware,2013-02-28 15:17:00,
2013-02-28 15:18:00,44.5,43.4,30.59,WNW,292,1.0,2.0,96,0.00,,,0.00,106,MyOwnSoftware,2013-02-28 15:18:00,
2013-02-28 15:19:00,44.5,43.4,30.59,WNW,292,1.0,2.0,96,0.00,,,0.00,109,MyOwnSoftware,2013-02-28 15:19:00,
2013-02-28 15:20:00,44.6,43.3,30.59,WNW,292,0.0,1.0,95,0.00,,,0.00,108,MyOwnSoftware,2013-02-28 15:20:00,
2013-02-28 15:21:00,44.6,43.3,30.59,North,0,0.0,0.0,95,0.00,,,0.00,102,MyOwnSoftware,2013-02-28 15:21:00,
2013-02-28 15:22:00,44.6,43.3,30.59,WNW,292,0.0,1.0,95,0.00,,,0.00,102,MyOwnSoftware,2013-02-28 15:22:00,
2013-02-28 15:23:00,44.6,43.3,30.59,WNW,292,1.0,2.0,95,0.00,,,0.00,106,MyOwnSoftware,2013-02-28 15:23:00,
2013-02-28 15:24:00,44.6,43.3,30.59,WNW,292,0.0,2.0,95,0.00,,,0.00,111,MyOwnSoftware,2013-02-28 15:24:00,
2013-02-28 15:25:00,44.8,43.5,30.59,WNW,292,0.0,1.0,95,0.00,,,0.00,120,MyOwnSoftware,2013-02-28 15:25:00,
2013-02-28 15:29:00,44.9,43.0,30.59,West,274,0.0,-999.0,94,-99.99,,,0.00,113,weatherlink.com 1.10,2013-02-28 15:29:00,
2013-02-28 15:30:00,44.9,43.3,30.58,North,0,0.0,0.0,94,0.00,,,0.00,112,MyOwnSoftware,2013-02-28 15:30:00,
2013-02-28 15:31:00,44.9,43.3,30.58,North,0,0.0,0.0,94,0.00,,,0.00,113,MyOwnSoftware,2013-02-28 15:31:00,
2013-02-28 15:32:00,45.1,43.5,30.58,North,0,0.0,0.0,94,0.00,,,0.00,111,MyOwnSoftware,2013-02-28 15:32:00,
2013-02-28 15:33:00,45.1,43.5,30.58,North,0,0.0,0.0,94,0.00,,,0.00,111,MyOwnSoftware,2013-02-28 15:33:00,
2013-02-28 15:34:00,45.1,43.5,30.58,North,0,0.0,0.0,94,0.00,,,0.00,111,MyOwnSoftware,2013-02-28 15:34:00,
2013-02-28 15:35:00,44.8,43.5,30.59,North,0,0.0,0.0,95,0.00,,,0.00,127,MyOwnSoftware,2013-02-28 15:35:00,
2013-02-28 15:39:00,45.5,43.6,30.58,West,270,0.0,2.0,93,0.00,,,0.00,109,MyOwnSoftware,2013-02-28 15:39:00,
2013-02-28 15:40:00,45.5,43.3,30.58,North,0,0.0,0.0,92,0.00,,,0.00,109,MyOwnSoftware,2013-02-28 15:40:00,
2013-02-28 15:41:00,45.7,43.5,30.58,West,270,0.0,1.0,92,0.00,,,0.00,102,MyOwnSoftware,2013-02-28 15:41:00,
2013-02-28 15:42:00,45.7,43.5,30.58,West,270,1.0,2.0,92,0.00,,,0.00,93,MyOwnSoftware,2013-02-28 15:42:00,
2013-02-28 15:43:00,45.7,43.5,30.58,North,0,0.0,0.0,92,0.00,,,0.00,90,MyOwnSoftware,2013-02-28 15:43:00,
2013-02-28 15:44:00,45.8,44.0,30.59,West,275,0.0,-999.0,92,-99.99,,,0.00,86,weatherlink.com 1.10,2013-02-28 15:44:00,
2013-02-28 15:45:00,45.8,43.3,30.59,West,270,0.0,1.0,91,0.00,,,0.00,84,MyOwnSoftware,2013-02-28 15:45:00,
2013-02-28 15:49:00,46.0,43.5,30.59,West,270,0.0,1.0,91,0.00,,,0.00,79,MyOwnSoftware,2013-02-28 15:49:00,
2013-02-28 15:50:00,46.0,43.5,30.59,West,270,0.0,1.0,91,0.00,,,0.00,78,MyOwnSoftware,2013-02-28 15:50:00,
2013-02-28 15:51:00,46.0,43.5,30.59,West,270,0.0,2.0,91,0.00,,,0.00,77,MyOwnSoftware,2013-02-28 15:51:00,
2013-02-28 15:52:00,46.1,43.6,30.59,West,270,1.0,2.0,91,0.00,,,0.00,74,MyOwnSoftware,2013-02-28 15:52:00,
2013-02-28 15:53:00,46.1,43.6,30.59,West,270,0.0,1.0,91,0.00,,,0.00,70,MyOwnSoftware,2013-02-28 15:53:00,
2013-02-28 15:54:00,46.1,43.6,30.59,West,270,1.0,2.0,91,0.00,,,0.00,70,MyOwnSoftware,2013-02-28 15:54:00,
2013-02-28 15:55:00,45.8,43.3,30.59,West,270,1.0,2.0,91,0.00,,,0.00,81,MyOwnSoftware,2013-02-28 15:55:00,
2013-02-28 15:56:00,46.1,43.6,30.59,West,270,1.0,1.0,91,0.00,,,0.00,77,MyOwnSoftware,2013-02-28 15:56:00,
2013-02-28 15:57:00,46.1,43.6,30.59,West,270,0.0,1.0,91,0.00,,,0.00,83,MyOwnSoftware,2013-02-28 15:57:00,
2013-02-28 15:58:00,46.2,43.7,30.59,North,0,0.0,0.0,91,0.00,,,0.00,83,MyOwnSoftware,2013-02-28 15:58:00,
2013-02-28 15:59:00,46.2,43.7,30.59,NW,315,0.0,2.0,91,0.00,,,0.00,79,MyOwnSoftware,2013-02-28 15:59:00,
2013-02-28 16:00:00,46.2,43.4,30.58,NW,315,0.0,1.0,90,0.00,,,0.00,76,MyOwnSoftware,2013-02-28 16:00:00,
2013-02-28 16:01:00,46.1,43.3,30.58,NW,315,0.0,2.0,90,0.00,,,0.00,74,MyOwnSoftware,2013-02-28 16:01:00,
2013-02-28 16:02:00,46.1,43.6,30.58,NW,315,0.0,2.0,91,0.00,,,0.00,74,MyOwnSoftware,2013-02-28 16:02:00,
2013-02-28 16:03:00,46.1,43.6,30.58,NW,315,0.0,2.0,91,0.00,,,0.00,72,MyOwnSoftware,2013-02-28 16:03:00,
2013-02-28 16:04:00,46.1,43.6,30.58,NW,315,1.0,2.0,91,0.00,,,0.00,70,MyOwnSoftware,2013-02-28 16:04:00,
2013-02-28 16:05:00,46.1,43.6,30.58,NW,315,0.0,1.0,91,0.00,,,0.00,65,MyOwnSoftware,2013-02-28 16:05:00,
2013-02-28 16:09:00,46.1,43.6,30.58,North,0,0.0,0.0,91,0.00,,,0.00,60,MyOwnSoftware,2013-02-28 16:09:00,
2013-02-28 16:10:00,46.1,43.6,30.58,North,0,0.0,0.0,91,0.00,,,0.00,57,MyOwnSoftware,2013-02-28 16:10:00,
2013-02-28 16:11:00,46.2,43.7,30.58,North,0,0.0,0.0,91,0.00,,,0.00,51,MyOwnSoftware,2013-02-28 16:11:00,
2013-02-28 16:12:00,46.2,43.7,30.58,NNW,338,0.0,1.0,91,0.00,,,0.00,49,MyOwnSoftware,2013-02-28 16:12:00,
2013-02-28 16:13:00,46.2,43.7,30.58,NNW,338,0.0,1.0,91,0.00,,,0.00,49,MyOwnSoftware,2013-02-28 16:13:00,
2013-02-28 16:14:00,46.2,44.0,30.58,NNW,330,0.0,-999.0,91,-99.99,,,0.00,49,weatherlink.com 1.10,2013-02-28 16:14:00,
2013-02-28 16:15:00,46.2,43.7,30.58,North,0,0.0,0.0,91,0.00,,,0.00,52,MyOwnSoftware,2013-02-28 16:15:00,
2013-02-28 16:16:00,46.2,43.7,30.58,NNW,338,0.0,1.0,91,0.00,,,0.00,55,MyOwnSoftware,2013-02-28 16:16:00,
2013-02-28 16:17:00,46.2,43.7,30.58,North,0,0.0,0.0,91,0.00,,,0.00,53,MyOwnSoftware,2013-02-28 16:17:00,
2013-02-28 16:18:00,46.2,43.7,30.58,North,0,0.0,0.0,91,0.00,,,0.00,53,MyOwnSoftware,2013-02-28 16:18:00,
2013-02-28 16:19:00,46.4,43.9,30.58,North,0,0.0,0.0,91,0.00,,,0.00,42,MyOwnSoftware,2013-02-28 16:19:00,
2013-02-28 16:20:00,46.4,43.9,30.58,North,0,0.0,0.0,91,0.00,,,0.00,36,MyOwnSoftware,2013-02-28 16:20:00,
2013-02-28 16:21:00,46.4,43.9,30.58,North,0,0.0,0.0,91,0.00,,,0.00,33,MyOwnSoftware,2013-02-28 16:21:00,
2013-02-28 16:22:00,46.4,43.9,30.58,North,0,0.0,0.0,91,0.00,,,0.00,35,MyOwnSoftware,2013-02-28 16:22:00,
2013-02-28 16:23:00,46.4,43.9,30.58,North,0,0.0,0.0,91,0.00,,,0.00,35,MyOwnSoftware,2013-02-28 16:23:00,
2013-02-28 16:24:00,46.4,43.9,30.58,North,0,0.0,0.0,91,0.00,,,0.00,35,MyOwnSoftware,2013-02-28 16:24:00,
2013-02-28 16:25:00,46.4,43.6,30.58,North,0,0.0,0.0,90,0.00,,,0.00,35,MyOwnSoftware,2013-02-28 16:25:00,
2013-02-28 16:29:00,46.5,44.0,30.58,NNW,330,0.0,-999.0,91,-99.99,,,0.00,33,weatherlink.com 1.10,2013-02-28 16:29:00,
2013-02-28 16:30:00,46.5,43.7,30.58,NNW,338,0.0,1.0,90,0.00,,,0.00,30,MyOwnSoftware,2013-02-28 16:30:00,
2013-02-28 16:31:00,46.5,43.7,30.58,North,0,0.0,0.0,90,0.00,,,0.00,26,MyOwnSoftware,2013-02-28 16:31:00,
2013-02-28 16:32:00,46.5,43.7,30.58,NNW,338,0.0,1.0,90,0.00,,,0.00,26,MyOwnSoftware,2013-02-28 16:32:00,
2013-02-28 16:33:00,46.5,43.7,30.58,North,0,0.0,0.0,90,0.00,,,0.00,26,MyOwnSoftware,2013-02-28 16:33:00,
2013-02-28 16:34:00,46.5,43.7,30.58,North,0,0.0,0.0,90,0.00,,,0.00,26,MyOwnSoftware,2013-02-28 16:34:00,
2013-02-28 16:35:00,46.4,43.6,30.58,NNW,338,0.0,1.0,90,0.00,,,0.00,33,MyOwnSoftware,2013-02-28 16:35:00,
2013-02-28 16:39:00,46.7,43.9,30.58,NNW,338,0.0,1.0,90,0.00,,,0.00,26,MyOwnSoftware,2013-02-28 16:39:00,
2013-02-28 16:40:00,46.7,43.9,30.58,North,0,0.0,0.0,90,0.00,,,0.00,26,MyOwnSoftware,2013-02-28 16:40:00,
2013-02-28 16:41:00,46.7,43.9,30.58,North,0,0.0,0.0,90,0.00,,,0.00,26,MyOwnSoftware,2013-02-28 16:41:00,
2013-02-28 16:42:00,46.7,43.9,30.58,North,0,0.0,0.0,90,0.00,,,0.00,26,MyOwnSoftware,2013-02-28 16:42:00,
2013-02-28 16:43:00,46.7,43.9,30.58,North,0,0.0,0.0,90,0.00,,,0.00,26,MyOwnSoftware,2013-02-28 16:43:00,
2013-02-28 16:44:00,46.7,44.0,30.58,NNW,330,0.0,-999.0,90,-99.99,,,0.00,26,weatherlink.com 1.10,2013-02-28 16:44:00,
2013-02-28 16:45:00,46.7,43.9,30.58,North,0,0.0,0.0,90,0.00,,,0.00,26,MyOwnSoftware,2013-02-28 16:45:00,
2013-02-28 16:49:00,46.7,43.9,30.58,North,0,0.0,0.0,90,0.00,,,0.00,23,MyOwnSoftware,2013-02-28 16:49:00,
2013-02-28 16:50:00,46.8,44.0,30.58,North,0,0.0,0.0,90,0.00,,,0.00,23,MyOwnSoftware,2013-02-28 16:50:00,
2013-02-28 16:51:00,46.8,44.0,30.58,North,0,0.0,0.0,90,0.00,,,0.00,23,MyOwnSoftware,2013-02-28 16:51:00,
2013-02-28 16:52:00,46.8,44.0,30.58,North,0,0.0,0.0,90,0.00,,,0.00,23,MyOwnSoftware,2013-02-28 16:52:00,
2013-02-28 16:53:00,46.8,44.0,30.58,North,0,0.0,0.0,90,0.00,,,0.00,23,MyOwnSoftware,2013-02-28 16:53:00,
2013-02-28 16:54:00,46.8,44.0,30.58,North,0,0.0,0.0,90,0.00,,,0.00,21,MyOwnSoftware,2013-02-28 16:54:00,
2013-02-28 16:55:00,46.7,43.9,30.58,North,0,0.0,0.0,90,0.00,,,0.00,26,MyOwnSoftware,2013-02-28 16:55:00,
2013-02-28 16:56:00,46.8,44.0,30.58,North,0,0.0,0.0,90,0.00,,,0.00,14,MyOwnSoftware,2013-02-28 16:56:00,
2013-02-28 16:57:00,46.8,44.0,30.58,North,0,0.0,0.0,90,0.00,,,0.00,14,MyOwnSoftware,2013-02-28 16:57:00,
2013-02-28 16:58:00,46.8,44.0,30.58,North,0,0.0,0.0,90,0.00,,,0.00,14,MyOwnSoftware,2013-02-28 16:58:00,
2013-02-28 16:59:00,46.8,44.0,30.58,North,0,0.0,0.0,90,0.00,,,0.00,14,MyOwnSoftware,2013-02-28 16:59:00,
2013-02-28 17:00:00,46.8,44.0,30.58,North,0,0.0,0.0,90,0.00,,,0.00,11,MyOwnSoftware,2013-02-28 17:00:00,
2013-02-28 17:01:00,46.8,44.0,30.58,North,0,0.0,0.0,90,0.00,,,0.00,11,MyOwnSoftware,2013-02-28 17:01:00,
2013-02-28 17:02:00,46.7,43.9,30.58,North,0,0.0,0.0,90,0.00,,,0.00,11,MyOwnSoftware,2013-02-28 17:02:00,
2013-02-28 17:03:00,46.7,43.9,30.58,North,0,0.0,0.0,90,0.00,,,0.00,11,MyOwnSoftware,2013-02-28 17:03:00,
2013-02-28 17:04:00,46.7,43.9,30.58,North,0,0.0,0.0,90,0.00,,,0.00,11,MyOwnSoftware,2013-02-28 17:04:00,
2013-02-28 17:05:00,46.7,43.9,30.58,North,0,0.0,0.0,90,0.00,,,0.00,11,MyOwnSoftware,2013-02-28 17:05:00,
2013-02-28 17:09:00,46.7,43.9,30.58,North,0,0.0,0.0,90,0.00,,,0.00,11,MyOwnSoftware,2013-02-28 17:09:00,
2013-02-28 17:10:00,46.7,44.2,30.58,North,0,0.0,0.0,91,0.00,,,0.00,11,MyOwnSoftware,2013-02-28 17:10:00,
2013-02-28 17:11:00,46.7,44.2,30.58,North,0,0.0,0.0,91,0.00,,,0.00,11,MyOwnSoftware,2013-02-28 17:11:00,
2013-02-28 17:12:00,46.7,44.2,30.58,North,0,0.0,0.0,91,0.00,,,0.00,9,MyOwnSoftware,2013-02-28 17:12:00,
2013-02-28 17:13:00,46.7,44.2,30.58,North,0,0.0,0.0,91,0.00,,,0.00,9,MyOwnSoftware,2013-02-28 17:13:00,
2013-02-28 17:14:00,46.7,44.0,30.58,NNW,330,0.0,-999.0,91,-99.99,,,0.00,9,weatherlink.com 1.10,2013-02-28 17:14:00,
2013-02-28 17:15:00,46.7,44.2,30.58,North,0,0.0,0.0,91,0.00,,,0.00,9,MyOwnSoftware,2013-02-28 17:15:00,
2013-02-28 17:16:00,46.7,44.2,30.58,North,0,0.0,0.0,91,0.00,,,0.00,7,MyOwnSoftware,2013-02-28 17:16:00,
2013-02-28 17:17:00,46.7,44.2,30.58,North,0,0.0,0.0,91,0.00,,,0.00,7,MyOwnSoftware,2013-02-28 17:17:00,
2013-02-28 17:18:00,46.7,44.2,30.58,North,0,0.0,0.0,91,0.00,,,0.00,7,MyOwnSoftware,2013-02-28 17:18:00,
2013-02-28 17:19:00,46.7,44.2,30.58,North,0,0.0,0.0,91,0.00,,,0.00,7,MyOwnSoftware,2013-02-28 17:19:00,
2013-02-28 17:20:00,46.7,44.2,30.58,North,0,0.0,0.0,91,0.00,,,0.00,7,MyOwnSoftware,2013-02-28 17:20:00,
2013-02-28 17:21:00,46.7,44.2,30.58,North,0,0.0,0.0,91,0.00,,,0.00,7,MyOwnSoftware,2013-02-28 17:21:00,
2013-02-28 17:22:00,46.7,44.2,30.58,North,0,0.0,0.0,91,0.00,,,0.00,7,MyOwnSoftware,2013-02-28 17:22:00,
2013-02-28 17:23:00,46.7,44.2,30.58,North,0,0.0,0.0,91,0.00,,,0.00,7,MyOwnSoftware,2013-02-28 17:23:00,
2013-02-28 17:24:00,46.7,44.2,30.58,North,0,0.0,0.0,91,0.00,,,0.00,7,MyOwnSoftware,2013-02-28 17:24:00,
2013-02-28 17:25:00,46.7,44.2,30.58,North,0,0.0,0.0,91,0.00,,,0.00,7,MyOwnSoftware,2013-02-28 17:25:00,
2013-02-28 17:29:00,46.7,44.0,30.58,NNW,330,0.0,-999.0,91,-99.99,,,0.00,7,weatherlink.com 1.10,2013-02-28 17:29:00,
2013-02-28 17:30:00,46.7,44.2,30.58,North,0,0.0,0.0,91,0.00,,,0.00,7,MyOwnSoftware,2013-02-28 17:30:00,
2013-02-28 17:31:00,46.7,44.2,30.58,North,0,0.0,0.0,91,0.00,,,0.00,7,MyOwnSoftware,2013-02-28 17:31:00,
2013-02-28 17:32:00,46.7,44.2,30.58,North,0,0.0,0.0,91,0.00,,,0.00,7,MyOwnSoftware,2013-02-28 17:32:00,
2013-02-28 17:33:00,46.7,44.2,30.58,North,0,0.0,0.0,91,0.00,,,0.00,5,MyOwnSoftware,2013-02-28 17:33:00,
2013-02-28 17:34:00,46.7,44.2,30.58,North,0,0.0,0.0,91,0.00,,,0.00,5,MyOwnSoftware,2013-02-28 17:34:00,
2013-02-28 17:35:00,46.7,44.2,30.58,North,0,0.0,0.0,91,0.00,,,0.00,7,MyOwnSoftware,2013-02-28 17:35:00,
2013-02-28 17:39:00,46.7,44.2,30.58,North,0,0.0,0.0,91,0.00,,,0.00,5,MyOwnSoftware,2013-02-28 17:39:00,
2013-02-28 17:40:00,46.7,44.2,30.58,North,0,0.0,0.0,91,0.00,,,0.00,5,MyOwnSoftware,2013-02-28 17:40:00,
2013-02-28 17:41:00,46.7,44.2,30.58,North,0,0.0,0.0,91,0.00,,,0.00,0,MyOwnSoftware,2013-02-28 17:41:00,
2013-02-28 17:42:00,46.7,44.2,30.58,North,0,0.0,0.0,91,0.00,,,0.00,0,MyOwnSoftware,2013-02-28 17:42:00,
2013-02-28 17:43:00,46.7,44.2,30.58,North,0,0.0,0.0,91,0.00,,,0.00,0,MyOwnSoftware,2013-02-28 17:43:00,
2013-02-28 17:44:00,46.7,44.0,30.58,NNW,330,0.0,-999.0,91,-99.99,,,0.00,0,weatherlink.com 1.10,2013-02-28 17:44:00,
2013-02-28 17:45:00,46.7,44.2,30.58,North,0,0.0,0.0,91,0.00,,,0.00,0,MyOwnSoftware,2013-02-28 17:45:00,
2013-02-28 17:49:00,46.7,44.2,30.58,North,0,0.0,0.0,91,0.00,,,0.00,0,MyOwnSoftware,2013-02-28 17:49:00,
2013-02-28 17:50:00,46.7,44.2,30.58,North,0,0.0,0.0,91,0.00,,,0.00,0,MyOwnSoftware,2013-02-28 17:50:00,
2013-02-28 17:51:00,46.7,44.2,30.58,North,0,0.0,0.0,91,0.00,,,0.00,0,MyOwnSoftware,2013-02-28 17:51:00,
2013-02-28 17:52:00,46.7,44.2,30.58,North,0,0.0,0.0,91,0.00,,,0.00,0,MyOwnSoftware,2013-02-28 17:52:00,
2013-02-28 17:53:00,46.7,44.2,30.58,North,0,0.0,0.0,91,0.00,,,0.00,0,MyOwnSoftware,2013-02-28 17:53:00,
2013-02-28 17:54:00,46.7,44.2,30.58,North,0,0.0,0.0,91,0.00,,,0.00,0,MyOwnSoftware,2013-02-28 17:54:00,
2013-02-28 17:55:00,46.7,44.2,30.58,North,0,0.0,0.0,91,0.00,,,0.00,0,MyOwnSoftware,2013-02-28 17:55:00,
2013-02-28 17:56:00,46.7,44.2,30.58,North,0,0.0,0.0,91,0.00,,,0.00,0,MyOwnSoftware,2013-02-28 17:56:00,
2013-02-28 17:57:00,46.7,44.2,30.58,North,0,0.0,0.0,91,0.00,,,0.00,0,MyOwnSoftware,2013-02-28 17:57:00,
2013-02-28 17:58:00,46.5,44.0,30.58,NNW,338,1.0,2.0,91,0.00,,,0.00,0,MyOwnSoftware,2013-02-28 17:58:00,
2013-02-28 17:59:00,46.5,44.0,30.58,North,0,2.0,3.0,91,0.00,,,0.00,0,MyOwnSoftware,2013-02-28 17:59:00,
2013-02-28 18:00:00,46.5,44.0,30.59,North,0,2.0,3.0,91,0.00,,,0.00,0,MyOwnSoftware,2013-02-28 18:00:00,
2013-02-28 18:01:00,46.4,43.9,30.59,North,0,2.0,2.0,91,0.00,,,0.00,0,MyOwnSoftware,2013-02-28 18:01:00,
2013-02-28 18:02:00,46.4,43.9,30.59,North,0,1.0,3.0,91,0.00,,,0.00,0,MyOwnSoftware,2013-02-28 18:02:00,
2013-02-28 18:03:00,46.2,43.7,30.59,North,0,2.0,3.0,91,0.00,,,0.00,0,MyOwnSoftware,2013-02-28 18:03:00,
2013-02-28 18:04:00,46.1,43.9,30.59,North,0,2.0,3.0,92,0.00,,,0.00,0,MyOwnSoftware,2013-02-28 18:04:00,
2013-02-28 18:05:00,46.1,43.9,30.59,North,0,1.0,2.0,92,0.00,,,0.00,0,MyOwnSoftware,2013-02-28 18:05:00,
2013-02-28 18:09:00,45.7,43.8,30.59,North,0,0.0,1.0,93,0.00,,,0.00,0,MyOwnSoftware,2013-02-28 18:09:00,
2013-02-28 18:10:00,45.7,43.8,30.59,North,0,1.0,2.0,93,0.00,,,0.00,0,MyOwnSoftware,2013-02-28 18:10:00,
2013-02-28 18:11:00,45.5,43.6,30.59,North,0,1.0,2.0,93,0.00,,,0.00,0,MyOwnSoftware,2013-02-28 18:11:00,
2013-02-28 18:12:00,45.4,43.5,30.59,North,0,1.0,2.0,93,0.00,,,0.00,0,MyOwnSoftware,2013-02-28 18:12:00,
2013-02-28 18:13:00,45.2,43.6,30.59,North,0,1.0,2.0,94,0.00,,,0.00,0,MyOwnSoftware,2013-02-28 18:13:00,
2013-02-28 18:14:00,45.1,44.0,30.59,North,357,1.0,-999.0,94,-99.99,,,0.00,0,weatherlink.com 1.10,2013-02-28 18:14:00,
2013-02-28 18:15:00,45.1,43.5,30.59,North,0,2.0,2.0,94,0.00,,,0.00,0,MyOwnSoftware,2013-02-28 18:15:00,
2013-02-28 18:16:00,44.9,43.6,30.59,North,0,1.0,2.0,95,0.00,,,0.00,0,MyOwnSoftware,2013-02-28 18:16:00,
2013-02-28 18:17:00,44.9,43.6,30.59,North,0,1.0,2.0,95,0.00,,,0.00,0,MyOwnSoftware,2013-02-28 18:17:00,
2013-02-28 18:18:00,44.8,43.5,30.59,North,0,0.0,1.0,95,0.00,,,0.00,0,MyOwnSoftware,2013-02-28 18:18:00,
2013-02-28 18:19:00,44.8,43.7,30.59,North,0,0.0,0.0,96,0.00,,,0.00,0,MyOwnSoftware,2013-02-28 18:19:00,
2013-02-28 18:20:00,44.6,43.5,30.59,North,0,0.0,0.0,96,0.00,,,0.00,0,MyOwnSoftware,2013-02-28 18:20:00,
2013-02-28 18:21:00,44.6,43.5,30.59,North,0,1.0,2.0,96,0.00,,,0.00,0,MyOwnSoftware,2013-02-28 18:21:00,
2013-02-28 18:22:00,44.5,43.4,30.59,North,0,1.0,2.0,96,0.00,,,0.00,0,MyOwnSoftware,2013-02-28 18:22:00,
2013-02-28 18:23:00,44.5,43.4,30.59,North,0,2.0,3.0,96,0.00,,,0.00,0,MyOwnSoftware,2013-02-28 18:23:00,
2013-02-28 18:24:00,44.3,43.5,30.59,NE,45,3.0,3.0,97,0.00,,,0.00,0,MyOwnSoftware,2013-02-28 18:24:00,
2013-02-28 18:25:00,44.3,43.5,30.59,NE,45,2.0,3.0,97,0.00,,,0.00,0,MyOwnSoftware,2013-02-28 18:25:00,
2013-02-28 18:29:00,44.2,43.0,30.59,NE,45,1.0,-999.0,97,-99.99,,,0.00,0,weatherlink.com 1.10,2013-02-28 18:29:00,
2013-02-28 18:30:00,44.2,43.4,30.59,NE,45,1.0,2.0,97,0.00,,,0.00,0,MyOwnSoftware,2013-02-28 18:30:00,
2013-02-28 18:31:00,44.1,43.3,30.59,NE,45,2.0,3.0,97,0.00,,,0.00,0,MyOwnSoftware,2013-02-28 18:31:00,
2013-02-28 18:32:00,44.1,43.3,30.59,NE,45,1.0,2.0,97,0.00,,,0.00,0,MyOwnSoftware,2013-02-28 18:32:00,
2013-02-28 18:33:00,44.1,43.3,30.59,NE,45,1.0,3.0,97,0.00,,,0.00,0,MyOwnSoftware,2013-02-28 18:33:00,
2013-02-28 18:34:00,44.1,43.6,30.59,NE,45,2.0,3.0,98,0.00,,,0.00,0,MyOwnSoftware,2013-02-28 18:34:00,
2013-02-28 18:35:00,44.3,43.5,30.59,NE,45,1.0,2.0,97,0.00,,,0.00,0,MyOwnSoftware,2013-02-28 18:35:00,
2013-02-28 18:39:00,43.9,43.4,30.59,NE,45,2.0,3.0,98,0.00,,,0.00,0,MyOwnSoftware,2013-02-28 18:39:00,
2013-02-28 18:40:00,43.9,43.4,30.59,NE,45,2.0,3.0,98,0.00,,,0.00,0,MyOwnSoftware,2013-02-28 18:40:00,
2013-02-28 18:41:00,43.9,43.4,30.59,NE,45,1.0,2.0,98,0.00,,,0.00,0,MyOwnSoftware,2013-02-28 18:41:00,
2013-02-28 18:42:00,43.9,43.4,30.59,NE,45,1.0,1.0,98,0.00,,,0.00,0,MyOwnSoftware,2013-02-28 18:42:00,
2013-02-28 18:43:00,43.9,43.4,30.59,North,0,0.0,0.0,98,0.00,,,0.00,0,MyOwnSoftware,2013-02-28 18:43:00,
2013-02-28 18:44:00,43.9,43.0,30.59,NE,41,2.0,-999.0,98,-99.99,,,0.00,0,weatherlink.com 1.10,2013-02-28 18:44:00,
2013-02-28 18:45:00,43.9,43.4,30.59,NE,45,1.0,2.0,98,0.00,,,0.00,0,MyOwnSoftware,2013-02-28 18:45:00,
2013-02-28 18:49:00,43.9,43.4,30.59,North,0,0.0,0.0,98,0.00,,,0.00,0,MyOwnSoftware,2013-02-28 18:49:00,
2013-02-28 18:50:00,43.9,43.4,30.59,North,0,0.0,0.0,98,0.00,,,0.00,0,MyOwnSoftware,2013-02-28 18:50:00,
2013-02-28 18:51:00,43.9,43.4,30.59,North,0,0.0,0.0,98,0.00,,,0.00,0,MyOwnSoftware,2013-02-28 18:51:00,
2013-02-28 18:52:00,43.9,43.4,30.59,North,0,0.0,0.0,98,0.00,,,0.00,0,MyOwnSoftware,2013-02-28 18:52:00,
2013-02-28 18:53:00,43.9,43.4,30.59,North,0,0.0,0.0,98,0.00,,,0.00,0,MyOwnSoftware,2013-02-28 18:53:00,
2013-02-28 18:54:00,43.9,43.4,30.59,NE,45,0.0,1.0,98,0.00,,,0.00,0,MyOwnSoftware,2013-02-28 18:54:00,
2013-02-28 18:55:00,43.9,43.4,30.59,North,0,0.0,0.0,98,0.00,,,0.00,0,MyOwnSoftware,2013-02-28 18:55:00,
2013-02-28 18:56:00,43.9,43.4,30.59,North,0,0.0,0.0,98,0.00,,,0.00,0,MyOwnSoftware,2013-02-28 18:56:00,
2013-02-28 18:57:00,43.9,43.4,30.59,NE,45,0.0,1.0,98,0.00,,,0.00,0,MyOwnSoftware,2013-02-28 18:57:00,
2013-02-28 18:58:00,43.8,43.3,30.59,NE,45,1.0,2.0,98,0.00,,,0.00,0,MyOwnSoftware,2013-02-28 18:58:00,
2013-02-28 18:59:00,43.8,43.3,30.59,NE,45,1.0,1.0,98,0.00,,,0.00,0,MyOwnSoftware,2013-02-28 18:59:00,
2013-02-28 19:00:00,43.8,43.3,30.59,NE,45,0.0,1.0,98,0.00,,,0.00,0,MyOwnSoftware,2013-02-28 19:00:00,
2013-02-28 19:01:00,43.8,43.3,30.59,North,0,0.0,0.0,98,0.00,,,0.00,0,MyOwnSoftware,2013-02-28 19:01:00,
2013-02-28 19:02:00,43.9,43.4,30.59,North,0,0.0,0.0,98,0.00,,,0.00,0,MyOwnSoftware,2013-02-28 19:02:00,
2013-02-28 19:03:00,43.9,43.4,30.59,North,0,0.0,0.0,98,0.00,,,0.00,0,MyOwnSoftware,2013-02-28 19:03:00,
2013-02-28 19:04:00,43.9,43.4,30.59,North,0,0.0,0.0,98,0.00,,,0.00,0,MyOwnSoftware,2013-02-28 19:04:00,
2013-02-28 19:05:00,43.9,43.4,30.59,NE,45,0.0,1.0,98,0.00,,,0.00,0,MyOwnSoftware,2013-02-28 19:05:00,
2013-02-28 19:09:00,43.9,43.1,30.59,NE,45,1.0,1.0,97,0.00,,,0.00,0,MyOwnSoftware,2013-02-28 19:09:00,
2013-02-28 19:10:00,43.9,43.1,30.59,NE,45,1.0,2.0,97,0.00,,,0.00,0,MyOwnSoftware,2013-02-28 19:10:00,
2013-02-28 19:11:00,43.9,43.1,30.59,NE,45,1.0,2.0,97,0.00,,,0.00,0,MyOwnSoftware,2013-02-28 19:11:00,
2013-02-28 19:12:00,43.9,43.1,30.59,NE,45,1.0,2.0,97,0.00,,,0.00,0,MyOwnSoftware,2013-02-28 19:12:00,
2013-02-28 19:13:00,43.9,43.1,30.59,NE,45,0.0,1.0,97,0.00,,,0.00,0,MyOwnSoftware,2013-02-28 19:13:00,
2013-02-28 19:14:00,43.9,43.0,30.60,NE,41,0.0,-999.0,97,-99.99,,,0.00,0,weatherlink.com 1.10,2013-02-28 19:14:00,
2013-02-28 19:15:00,43.9,43.1,30.60,NE,45,1.0,2.0,97,0.00,,,0.00,0,MyOwnSoftware,2013-02-28 19:15:00,
2013-02-28 19:16:00,43.8,43.0,30.60,NE,45,1.0,3.0,97,0.00,,,0.00,0,MyOwnSoftware,2013-02-28 19:16:00,
2013-02-28 19:17:00,43.8,43.0,30.60,North,0,2.0,4.0,97,0.00,,,0.00,0,MyOwnSoftware,2013-02-28 19:17:00,
2013-02-28 19:18:00,43.8,43.0,30.60,North,0,1.0,2.0,97,0.00,,,0.00,0,MyOwnSoftware,2013-02-28 19:18:00,
2013-02-28 19:19:00,43.8,43.0,30.60,North,0,1.0,3.0,97,0.00,,,0.00,0,MyOwnSoftware,2013-02-28 19:19:00,
2013-02-28 19:20:00,43.8,43.0,30.60,North,0,2.0,3.0,97,0.00,,,0.00,0,MyOwnSoftware,2013-02-28 19:20:00,
2013-02-28 19:21:00,43.8,43.0,30.60,North,0,1.0,2.0,97,0.00,,,0.00,0,MyOwnSoftware,2013-02-28 19:21:00,
2013-02-28 19:22:00,43.8,43.0,30.60,North,0,1.0,2.0,97,0.00,,,0.00,0,MyOwnSoftware,2013-02-28 19:22:00,
2013-02-28 19:23:00,43.8,43.0,30.60,North,0,0.0,0.0,97,0.00,,,0.00,0,MyOwnSoftware,2013-02-28 19:23:00,
2013-02-28 19:24:00,43.8,43.0,30.60,North,0,1.0,2.0,97,0.00,,,0.00,0,MyOwnSoftware,2013-02-28 19:24:00,
2013-02-28 19:25:00,43.8,43.0,30.60,North,0,0.0,2.0,97,0.00,,,0.00,0,MyOwnSoftware,2013-02-28 19:25:00,
2013-02-28 19:29:00,43.8,43.0,30.59,NE,56,0.0,-999.0,97,-99.99,,,0.00,0,weatherlink.com 1.10,2013-02-28 19:29:00,
2013-02-28 19:30:00,43.8,43.3,30.59,NE,45,0.0,2.0,98,0.00,,,0.00,0,MyOwnSoftware,2013-02-28 19:30:00,
2013-02-28 19:31:00,43.8,43.3,30.59,North,0,0.0,0.0,98,0.00,,,0.00,0,MyOwnSoftware,2013-02-28 19:31:00,
2013-02-28 19:32:00,43.8,43.3,30.59,NE,45,0.0,1.0,98,0.00,,,0.00,0,MyOwnSoftware,2013-02-28 19:32:00,
2013-02-28 19:33:00,43.8,43.3,30.59,North,0,0.0,0.0,98,0.00,,,0.00,0,MyOwnSoftware,2013-02-28 19:33:00,
2013-02-28 19:34:00,43.8,43.3,30.59,NE,45,1.0,3.0,98,0.00,,,0.00,0,MyOwnSoftware,2013-02-28 19:34:00,
2013-02-28 19:35:00,43.8,43.0,30.60,North,0,1.0,3.0,97,0.00,,,0.00,0,MyOwnSoftware,2013-02-28 19:35:00,
2013-02-28 19:39:00,43.8,43.3,30.59,North,0,0.0,0.0,98,0.00,,,0.00,0,MyOwnSoftware,2013-02-28 19:39:00,
2013-02-28 19:40:00,43.8,43.3,30.59,North,0,0.0,0.0,98,0.00,,,0.00,0,MyOwnSoftware,2013-02-28 19:40:00,
2013-02-28 19:41:00,43.8,43.3,30.59,North,0,0.0,0.0,98,0.00,,,0.00,0,MyOwnSoftware,2013-02-28 19:41:00,
2013-02-28 19:42:00,43.8,43.3,30.59,North,0,0.0,0.0,98,0.00,,,0.00,0,MyOwnSoftware,2013-02-28 19:42:00,
2013-02-28 19:43:00,43.8,43.3,30.59,North,0,0.0,0.0,98,0.00,,,0.00,0,MyOwnSoftware,2013-02-28 19:43:00,
2013-02-28 19:44:00,43.8,44.0,30.60,NE,56,0.0,-999.0,99,-99.99,,,0.00,0,weatherlink.com 1.10,2013-02-28 19:44:00,
2013-02-28 19:45:00,43.8,43.5,30.60,North,0,0.0,0.0,99,0.00,,,0.00,0,MyOwnSoftware,2013-02-28 19:45:00,
2013-02-28 19:49:00,43.8,43.5,30.60,North,0,0.0,0.0,99,0.00,,,0.00,0,MyOwnSoftware,2013-02-28 19:49:00,
2013-02-28 19:50:00,43.9,43.6,30.60,North,0,0.0,0.0,99,0.00,,,0.00,0,MyOwnSoftware,2013-02-28 19:50:00,
2013-02-28 19:51:00,43.9,43.6,30.60,North,0,0.0,0.0,99,0.00,,,0.00,0,MyOwnSoftware,2013-02-28 19:51:00,
2013-02-28 19:52:00,43.9,43.6,30.60,North,0,0.0,0.0,99,0.00,,,0.00,0,MyOwnSoftware,2013-02-28 19:52:00,
2013-02-28 19:53:00,43.9,43.6,30.60,North,0,0.0,0.0,99,0.00,,,0.00,0,MyOwnSoftware,2013-02-28 19:53:00,
2013-02-28 19:54:00,43.9,43.6,30.60,North,0,0.0,0.0,99,0.00,,,0.00,0,MyOwnSoftware,2013-02-28 19:54:00,
2013-02-28 19:55:00,43.8,43.5,30.60,North,0,0.0,0.0,99,0.00,,,0.00,0,MyOwnSoftware,2013-02-28 19:55:00,
2013-02-28 19:56:00,43.9,43.6,30.60,North,0,0.0,0.0,99,0.00,,,0.00,0,MyOwnSoftware,2013-02-28 19:56:00,
2013-02-28 19:57:00,43.9,43.6,30.60,North,0,0.0,0.0,99,0.00,,,0.00,0,MyOwnSoftware,2013-02-28 19:57:00,
2013-02-28 19:58:00,43.9,43.6,30.60,North,0,0.0,0.0,99,0.00,,,0.00,0,MyOwnSoftware,2013-02-28 19:58:00,
2013-02-28 19:59:00,43.9,43.6,30.60,North,0,0.0,0.0,99,0.00,,,0.00,0,MyOwnSoftware,2013-02-28 19:59:00,
2013-02-28 20:00:00,43.9,43.6,30.59,North,0,0.0,0.0,99,0.00,,,0.00,0,MyOwnSoftware,2013-02-28 20:00:00,
2013-02-28 20:01:00,44.1,43.8,30.59,North,0,0.0,0.0,99,0.00,,,0.00,0,MyOwnSoftware,2013-02-28 20:01:00,
2013-02-28 20:02:00,44.1,43.8,30.59,North,0,0.0,0.0,99,0.00,,,0.00,0,MyOwnSoftware,2013-02-28 20:02:00,
2013-02-28 20:03:00,44.1,43.8,30.59,North,0,0.0,0.0,99,0.00,,,0.00,0,MyOwnSoftware,2013-02-28 20:03:00,
2013-02-28 20:04:00,44.1,43.8,30.59,North,0,0.0,0.0,99,0.00,,,0.00,0,MyOwnSoftware,2013-02-28 20:04:00,
2013-02-28 20:05:00,44.1,43.8,30.59,North,0,0.0,0.0,99,0.00,,,0.00,0,MyOwnSoftware,2013-02-28 20:05:00,
2013-02-28 20:09:00,44.2,43.9,30.59,North,0,0.0,0.0,99,0.00,,,0.00,0,MyOwnSoftware,2013-02-28 20:09:00,
2013-02-28 20:10:00,44.2,43.9,30.59,North,0,0.0,0.0,99,0.00,,,0.00,0,MyOwnSoftware,2013-02-28 20:10:00,
2013-02-28 20:11:00,44.2,43.9,30.59,North,0,0.0,0.0,99,0.00,,,0.00,0,MyOwnSoftware,2013-02-28 20:11:00,
2013-02-28 20:12:00,44.2,43.9,30.59,North,0,0.0,0.0,99,0.00,,,0.00,0,MyOwnSoftware,2013-02-28 20:12:00,
2013-02-28 20:13:00,44.2,43.9,30.59,North,0,0.0,0.0,99,0.00,,,0.00,0,MyOwnSoftware,2013-02-28 20:13:00,
2013-02-28 20:14:00,44.2,44.0,30.59,NE,56,0.0,-999.0,99,-99.99,,,0.00,0,weatherlink.com 1.10,2013-02-28 20:14:00,
2013-02-28 20:15:00,44.2,43.9,30.59,North,0,0.0,0.0,99,0.00,,,0.00,0,MyOwnSoftware,2013-02-28 20:15:00,
2013-02-28 20:16:00,44.2,43.9,30.59,North,0,0.0,0.0,99,0.00,,,0.00,0,MyOwnSoftware,2013-02-28 20:16:00,
2013-02-28 20:17:00,44.2,43.9,30.59,North,0,0.0,0.0,99,0.00,,,0.00,0,MyOwnSoftware,2013-02-28 20:17:00,
2013-02-28 20:18:00,44.2,43.9,30.59,North,0,0.0,0.0,99,0.00,,,0.00,0,MyOwnSoftware,2013-02-28 20:18:00,
2013-02-28 20:19:00,44.2,43.9,30.59,North,0,0.0,0.0,99,0.00,,,0.00,0,MyOwnSoftware,2013-02-28 20:19:00,
2013-02-28 20:20:00,44.3,44.0,30.59,North,0,0.0,0.0,99,0.00,,,0.00,0,MyOwnSoftware,2013-02-28 20:20:00,
2013-02-28 20:21:00,44.3,44.0,30.59,North,0,0.0,0.0,99,0.00,,,0.00,0,MyOwnSoftware,2013-02-28 20:21:00,
2013-02-28 20:22:00,44.3,44.0,30.59,North,0,0.0,0.0,99,0.00,,,0.00,0,MyOwnSoftware,2013-02-28 20:22:00,
2013-02-28 20:23:00,44.3,44.0,30.59,North,0,0.0,0.0,99,0.00,,,0.00,0,MyOwnSoftware,2013-02-28 20:23:00,
2013-02-28 20:24:00,44.3,44.0,30.59,North,0,0.0,0.0,99,0.00,,,0.00,0,MyOwnSoftware,2013-02-28 20:24:00,
2013-02-28 20:25:00,44.3,44.0,30.59,North,0,0.0,0.0,99,0.00,,,0.00,0,MyOwnSoftware,2013-02-28 20:25:00,
2013-02-28 20:29:00,44.3,44.0,30.60,NE,56,1.0,-999.0,98,-99.99,,,0.00,0,weatherlink.com 1.10,2013-02-28 20:29:00,
2013-02-28 20:30:00,44.3,43.8,30.60,NE,45,0.0,1.0,98,0.00,,,0.00,0,MyOwnSoftware,2013-02-28 20:30:00,
2013-02-28 20:31:00,44.3,43.8,30.60,NE,45,0.0,1.0,98,0.00,,,0.00,0,MyOwnSoftware,2013-02-28 20:31:00,
2013-02-28 20:32:00,44.3,43.8,30.60,NE,45,0.0,1.0,98,0.00,,,0.00,0,MyOwnSoftware,2013-02-28 20:32:00,
2013-02-28 20:33:00,44.3,43.8,30.60,North,0,0.0,0.0,98,0.00,,,0.00,0,MyOwnSoftware,2013-02-28 20:33:00,
2013-02-28 20:34:00,44.3,43.8,30.60,NE,45,1.0,2.0,98,0.00,,,0.00,0,MyOwnSoftware,2013-02-28 20:34:00,
2013-02-28 20:35:00,44.3,44.0,30.59,North,0,0.0,0.0,99,0.00,,,0.00,0,MyOwnSoftware,2013-02-28 20:35:00,
2013-02-28 20:39:00,44.1,43.6,30.60,North,0,0.0,0.0,98,0.00,,,0.00,0,MyOwnSoftware,2013-02-28 20:39:00,
2013-02-28 20:40:00,44.1,43.6,30.60,North,0,0.0,0.0,98,0.00,,,0.00,0,MyOwnSoftware,2013-02-28 20:40:00,
2013-02-28 20:41:00,44.1,43.6,30.60,NE,45,0.0,1.0,98,0.00,,,0.00,0,MyOwnSoftware,2013-02-28 20:41:00,
2013-02-28 20:42:00,44.1,43.6,30.60,North,0,0.0,0.0,98,0.00,,,0.00,0,MyOwnSoftware,2013-02-28 20:42:00,
2013-02-28 20:43:00,44.1,43.6,30.60,North,0,0.0,0.0,98,0.00,,,0.00,0,MyOwnSoftware,2013-02-28 20:43:00,
2013-02-28 20:44:00,44.1,44.0,30.60,NE,56,0.0,-999.0,98,-99.99,,,0.00,0,weatherlink.com 1.10,2013-02-28 20:44:00,
2013-02-28 20:45:00,44.1,43.6,30.60,North,0,0.0,0.0,98,0.00,,,0.00,0,MyOwnSoftware,2013-02-28 20:45:00,
2013-02-28 20:49:00,43.9,43.4,30.60,North,0,0.0,0.0,98,0.00,,,0.00,0,MyOwnSoftware,2013-02-28 20:49:00,
2013-02-28 20:50:00,43.9,43.4,30.60,North,0,0.0,0.0,98,0.00,,,0.00,0,MyOwnSoftware,2013-02-28 20:50:00,
2013-02-28 20:51:00,43.9,43.4,30.60,North,0,0.0,0.0,98,0.00,,,0.00,0,MyOwnSoftware,2013-02-28 20:51:00,
2013-02-28 20:52:00,43.9,43.4,30.60,North,0,0.0,0.0,98,0.00,,,0.00,0,MyOwnSoftware,2013-02-28 20:52:00,
2013-02-28 20:53:00,43.9,43.4,30.60,North,0,0.0,0.0,98,0.00,,,0.00,0,MyOwnSoftware,2013-02-28 20:53:00,
2013-02-28 20:54:00,43.9,43.4,30.60,North,0,0.0,0.0,98,0.00,,,0.00,0,MyOwnSoftware,2013-02-28 20:54:00,
2013-02-28 20:55:00,44.1,43.6,30.60,North,0,0.0,0.0,98,0.00,,,0.00,0,MyOwnSoftware,2013-02-28 20:55:00,
2013-02-28 20:56:00,43.9,43.6,30.60,North,0,0.0,0.0,99,0.00,,,0.00,0,MyOwnSoftware,2013-02-28 20:56:00,
2013-02-28 20:57:00,43.9,43.6,30.60,North,0,0.0,0.0,99,0.00,,,0.00,0,MyOwnSoftware,2013-02-28 20:57:00,
2013-02-28 20:58:00,43.9,43.6,30.60,North,0,0.0,0.0,99,0.00,,,0.00,0,MyOwnSoftware,2013-02-28 20:58:00,
2013-02-28 20:59:00,43.9,43.6,30.60,North,0,0.0,0.0,99,0.00,,,0.00,0,MyOwnSoftware,2013-02-28 20:59:00,
2013-02-28 21:00:00,43.9,43.6,30.60,North,0,0.0,0.0,99,0.00,,,0.00,0,MyOwnSoftware,2013-02-28 21:00:00,
2013-02-28 21:01:00,43.9,43.6,30.60,North,0,0.0,0.0,99,0.00,,,0.00,0,MyOwnSoftware,2013-02-28 21:01:00,
2013-02-28 21:02:00,43.9,43.6,30.60,North,0,0.0,0.0,99,0.00,,,0.00,0,MyOwnSoftware,2013-02-28 21:02:00,
2013-02-28 21:03:00,43.9,43.6,30.60,North,0,0.0,0.0,99,0.00,,,0.00,0,MyOwnSoftware,2013-02-28 21:03:00,
2013-02-28 21:04:00,43.9,43.6,30.60,North,0,0.0,0.0,99,0.00,,,0.00,0,MyOwnSoftware,2013-02-28 21:04:00,
2013-02-28 21:05:00,43.9,43.6,30.60,North,0,0.0,0.0,99,0.00,,,0.00,0,MyOwnSoftware,2013-02-28 21:05:00,
2013-02-28 21:09:00,43.9,43.6,30.60,North,0,0.0,0.0,99,0.00,,,0.00,0,MyOwnSoftware,2013-02-28 21:09:00,
2013-02-28 21:10:00,43.9,43.6,30.60,North,0,0.0,0.0,99,0.00,,,0.00,0,MyOwnSoftware,2013-02-28 21:10:00,
2013-02-28 21:11:00,43.9,43.6,30.60,North,0,0.0,0.0,99,0.00,,,0.00,0,MyOwnSoftware,2013-02-28 21:11:00,
2013-02-28 21:12:00,43.9,43.6,30.60,North,0,0.0,0.0,99,0.00,,,0.00,0,MyOwnSoftware,2013-02-28 21:12:00,
2013-02-28 21:13:00,43.9,43.6,30.60,North,0,0.0,0.0,99,0.00,,,0.00,0,MyOwnSoftware,2013-02-28 21:13:00,
2013-02-28 21:14:00,44.1,44.0,30.60,NE,56,0.0,-999.0,99,-99.99,,,0.00,0,weatherlink.com 1.10,2013-02-28 21:14:00,
2013-02-28 21:15:00,44.1,43.8,30.60,North,0,0.0,0.0,99,0.00,,,0.00,0,MyOwnSoftware,2013-02-28 21:15:00,
2013-02-28 21:16:00,44.1,43.8,30.60,North,0,0.0,0.0,99,0.00,,,0.00,0,MyOwnSoftware,2013-02-28 21:16:00,
2013-02-28 21:17:00,44.1,43.8,30.60,North,0,0.0,0.0,99,0.00,,,0.00,0,MyOwnSoftware,2013-02-28 21:17:00,
2013-02-28 21:18:00,44.1,43.8,30.60,North,0,0.0,0.0,99,0.00,,,0.00,0,MyOwnSoftware,2013-02-28 21:18:00,
2013-02-28 21:19:00,44.1,43.8,30.60,North,0,0.0,0.0,99,0.00,,,0.00,0,MyOwnSoftware,2013-02-28 21:19:00,
2013-02-28 21:20:00,44.1,43.8,30.60,North,0,0.0,0.0,99,0.00,,,0.00,0,MyOwnSoftware,2013-02-28 21:20:00,
2013-02-28 21:21:00,44.2,43.9,30.60,North,0,0.0,0.0,99,0.00,,,0.00,0,MyOwnSoftware,2013-02-28 21:21:00,
2013-02-28 21:22:00,44.2,43.9,30.60,North,0,0.0,0.0,99,0.00,,,0.00,0,MyOwnSoftware,2013-02-28 21:22:00,
2013-02-28 21:23:00,44.2,43.9,30.60,North,0,0.0,0.0,99,0.00,,,0.00,0,MyOwnSoftware,2013-02-28 21:23:00,
2013-02-28 21:24:00,44.2,43.9,30.60,North,0,0.0,0.0,99,0.00,,,0.00,0,MyOwnSoftware,2013-02-28 21:24:00,
2013-02-28 21:25:00,44.2,43.9,30.60,North,0,0.0,0.0,99,0.00,,,0.00,0,MyOwnSoftware,2013-02-28 21:25:00,
2013-02-28 21:29:00,44.3,44.0,30.61,NE,56,0.0,-999.0,99,-99.99,,,0.00,0,weatherlink.com 1.10,2013-02-28 21:29:00,
2013-02-28 21:30:00,44.3,44.0,30.61,North,0,0.0,0.0,99,0.00,,,0.00,0,MyOwnSoftware,2013-02-28 21:30:00,
2013-02-28 21:31:00,44.2,43.9,30.61,North,0,0.0,0.0,99,0.00,,,0.00,0,MyOwnSoftware,2013-02-28 21:31:00,
2013-02-28 21:32:00,44.2,43.7,30.61,North,0,0.0,0.0,98,0.00,,,0.00,0,MyOwnSoftware,2013-02-28 21:32:00,
2013-02-28 21:33:00,44.2,43.7,30.61,NE,45,1.0,2.0,98,0.00,,,0.00,0,MyOwnSoftware,2013-02-28 21:33:00,
2013-02-28 21:34:00,44.2,43.7,30.61,NE,45,2.0,2.0,98,0.00,,,0.00,0,MyOwnSoftware,2013-02-28 21:34:00,
2013-02-28 21:35:00,44.2,43.9,30.60,North,0,0.0,0.0,99,0.00,,,0.00,0,MyOwnSoftware,2013-02-28 21:35:00,
2013-02-28 21:39:00,44.1,43.6,30.61,North,0,0.0,0.0,98,0.00,,,0.00,0,MyOwnSoftware,2013-02-28 21:39:00,
2013-02-28 21:40:00,44.1,43.6,30.61,North,0,0.0,0.0,98,0.00,,,0.00,0,MyOwnSoftware,2013-02-28 21:40:00,
2013-02-28 21:41:00,44.1,43.6,30.61,NE,45,0.0,1.0,98,0.00,,,0.00,0,MyOwnSoftware,2013-02-28 21:41:00,
2013-02-28 21:42:00,44.1,43.6,30.61,NE,45,1.0,2.0,98,0.00,,,0.00,0,MyOwnSoftware,2013-02-28 21:42:00,
2013-02-28 21:43:00,43.9,43.4,30.61,NE,45,0.0,1.0,98,0.00,,,0.00,0,MyOwnSoftware,2013-02-28 21:43:00,
2013-02-28 21:44:00,43.9,43.0,30.61,NE,56,0.0,-999.0,98,-99.99,,,0.00,0,weatherlink.com 1.10,2013-02-28 21:44:00,
2013-02-28 21:45:00,43.9,43.4,30.61,North,0,0.0,0.0,98,0.00,,,0.00,0,MyOwnSoftware,2013-02-28 21:45:00,
2013-02-28 21:49:00,43.8,43.3,30.61,NE,45,1.0,2.0,98,0.00,,,0.00,0,MyOwnSoftware,2013-02-28 21:49:00,
2013-02-28 21:50:00,43.8,43.3,30.61,North,0,0.0,0.0,98,0.00,,,0.00,0,MyOwnSoftware,2013-02-28 21:50:00,
2013-02-28 21:51:00,43.8,43.3,30.61,North,0,0.0,0.0,98,0.00,,,0.00,0,MyOwnSoftware,2013-02-28 21:51:00,
2013-02-28 21:52:00,43.8,43.3,30.61,North,0,0.0,0.0,98,0.00,,,0.00,0,MyOwnSoftware,2013-02-28 21:52:00,
2013-02-28 21:53:00,43.8,43.3,30.61,NE,45,0.0,1.0,98,0.00,,,0.00,0,MyOwnSoftware,2013-02-28 21:53:00,
2013-02-28 21:54:00,43.8,43.5,30.61,NE,45,0.0,1.0,99,0.00,,,0.00,0,MyOwnSoftware,2013-02-28 21:54:00,
2013-02-28 21:55:00,43.9,43.4,30.61,North,0,0.0,0.0,98,0.00,,,0.00,0,MyOwnSoftware,2013-02-28 21:55:00,
2013-02-28 21:56:00,43.8,43.3,30.61,North,0,0.0,0.0,98,0.00,,,0.00,0,MyOwnSoftware,2013-02-28 21:56:00,
2013-02-28 21:57:00,43.8,43.5,30.61,North,0,0.0,0.0,99,0.00,,,0.00,0,MyOwnSoftware,2013-02-28 21:57:00,
2013-02-28 21:58:00,43.8,43.5,30.61,North,0,0.0,0.0,99,0.00,,,0.00,0,MyOwnSoftware,2013-02-28 21:58:00,
2013-02-28 21:59:00,43.8,43.3,30.61,North,0,0.0,0.0,98,0.00,,,0.00,0,MyOwnSoftware,2013-02-28 21:59:00,
2013-02-28 22:00:00,43.8,43.5,30.61,North,0,0.0,0.0,99,0.00,,,0.00,0,MyOwnSoftware,2013-02-28 22:00:00,
2013-02-28 22:01:00,43.8,43.3,30.61,North,0,0.0,0.0,98,0.00,,,0.00,0,MyOwnSoftware,2013-02-28 22:01:00,
2013-02-28 22:02:00,43.8,43.5,30.61,North,0,0.0,0.0,99,0.00,,,0.00,0,MyOwnSoftware,2013-02-28 22:02:00,
2013-02-28 22:03:00,43.8,43.5,30.61,North,0,0.0,0.0,99,0.00,,,0.00,0,MyOwnSoftware,2013-02-28 22:03:00,
2013-02-28 22:04:00,43.8,43.5,30.61,North,0,0.0,0.0,99,0.00,,,0.00,0,MyOwnSoftware,2013-02-28 22:04:00,
2013-02-28 22:05:00,43.8,43.5,30.61,North,0,0.0,0.0,99,0.00,,,0.00,0,MyOwnSoftware,2013-02-28 22:05:00,
2013-02-28 22:09:00,43.6,43.3,30.61,North,0,0.0,0.0,99,0.00,,,0.00,0,MyOwnSoftware,2013-02-28 22:09:00,
2013-02-28 22:10:00,43.6,43.3,30.61,North,0,0.0,0.0,99,0.00,,,0.00,0,MyOwnSoftware,2013-02-28 22:10:00,
2013-02-28 22:11:00,43.6,43.3,30.61,North,0,0.0,0.0,99,0.00,,,0.00,0,MyOwnSoftware,2013-02-28 22:11:00,
2013-02-28 22:12:00,43.6,43.3,30.61,North,0,0.0,0.0,99,0.00,,,0.00,0,MyOwnSoftware,2013-02-28 22:12:00,
2013-02-28 22:13:00,43.6,43.3,30.61,North,0,0.0,0.0,99,0.00,,,0.00,0,MyOwnSoftware,2013-02-28 22:13:00,
2013-02-28 22:14:00,43.6,43.0,30.61,NE,56,0.0,-999.0,99,-99.99,,,0.00,0,weatherlink.com 1.10,2013-02-28 22:14:00,
2013-02-28 22:15:00,43.5,43.2,30.61,North,0,0.0,0.0,99,0.00,,,0.00,0,MyOwnSoftware,2013-02-28 22:15:00,
2013-02-28 22:16:00,43.5,43.2,30.61,North,0,0.0,0.0,99,0.00,,,0.00,0,MyOwnSoftware,2013-02-28 22:16:00,
2013-02-28 22:17:00,43.5,43.2,30.61,North,0,0.0,0.0,99,0.00,,,0.00,0,MyOwnSoftware,2013-02-28 22:17:00,
2013-02-28 22:18:00,43.5,43.2,30.61,North,0,0.0,0.0,99,0.00,,,0.00,0,MyOwnSoftware,2013-02-28 22:18:00,
2013-02-28 22:19:00,43.5,43.2,30.61,North,0,0.0,0.0,99,0.00,,,0.00,0,MyOwnSoftware,2013-02-28 22:19:00,
2013-02-28 22:20:00,43.5,43.2,30.61,North,0,0.0,0.0,99,0.00,,,0.00,0,MyOwnSoftware,2013-02-28 22:20:00,
2013-02-28 22:21:00,43.5,43.2,30.61,North,0,0.0,0.0,99,0.00,,,0.00,0,MyOwnSoftware,2013-02-28 22:21:00,
2013-02-28 22:22:00,43.5,43.2,30.61,North,0,0.0,0.0,99,0.00,,,0.00,0,MyOwnSoftware,2013-02-28 22:22:00,
2013-02-28 22:23:00,43.5,43.2,30.61,NE,45,0.0,1.0,99,0.00,,,0.00,0,MyOwnSoftware,2013-02-28 22:23:00,
2013-02-28 22:24:00,43.5,43.2,30.61,North,0,0.0,0.0,99,0.00,,,0.00,0,MyOwnSoftware,2013-02-28 22:24:00,
2013-02-28 22:25:00,43.5,43.2,30.61,North,0,0.0,0.0,99,0.00,,,0.00,0,MyOwnSoftware,2013-02-28 22:25:00,
2013-02-28 22:29:00,43.3,43.0,30.61,NE,56,0.0,-999.0,99,-99.99,,,0.00,0,weatherlink.com 1.10,2013-02-28 22:29:00,
2013-02-28 22:30:00,43.3,43.0,30.61,North,0,0.0,0.0,99,0.00,,,0.00,0,MyOwnSoftware,2013-02-28 22:30:00,
2013-02-28 22:31:00,43.3,43.0,30.61,North,0,0.0,0.0,99,0.00,,,0.00,0,MyOwnSoftware,2013-02-28 22:31:00,
2013-02-28 22:32:00,43.3,43.0,30.61,North,0,0.0,0.0,99,0.00,,,0.00,0,MyOwnSoftware,2013-02-28 22:32:00,
2013-02-28 22:33:00,43.3,43.0,30.61,North,0,0.0,0.0,99,0.00,,,0.00,0,MyOwnSoftware,2013-02-28 22:33:00,
2013-02-28 22:34:00,43.3,43.0,30.61,North,0,0.0,0.0,99,0.00,,,0.00,0,MyOwnSoftware,2013-02-28 22:34:00,
2013-02-28 22:35:00,43.5,43.2,30.61,North,0,0.0,0.0,99,0.00,,,0.00,0,MyOwnSoftware,2013-02-28 22:35:00,
2013-02-28 22:39:00,43.3,43.0,30.61,North,0,0.0,0.0,99,0.00,,,0.00,0,MyOwnSoftware,2013-02-28 22:39:00,
2013-02-28 22:40:00,43.3,43.0,30.61,North,0,0.0,0.0,99,0.00,,,0.00,0,MyOwnSoftware,2013-02-28 22:40:00,
2013-02-28 22:41:00,43.3,43.0,30.61,North,0,0.0,0.0,99,0.00,,,0.00,0,MyOwnSoftware,2013-02-28 22:41:00,
2013-02-28 22:42:00,43.3,43.0,30.61,NE,45,0.0,1.0,99,0.00,,,0.00,0,MyOwnSoftware,2013-02-28 22:42:00,
2013-02-28 22:43:00,43.3,43.0,30.61,North,0,0.0,0.0,99,0.00,,,0.00,0,MyOwnSoftware,2013-02-28 22:43:00,
2013-02-28 22:44:00,43.3,43.0,30.61,NE,56,0.0,-999.0,99,-99.99,,,0.00,0,weatherlink.com 1.10,2013-02-28 22:44:00,
2013-02-28 22:45:00,43.3,43.0,30.61,North,0,0.0,0.0,99,0.00,,,0.00,0,MyOwnSoftware,2013-02-28 22:45:00,
2013-02-28 22:49:00,43.3,43.0,30.61,North,0,0.0,0.0,99,0.00,,,0.00,0,MyOwnSoftware,2013-02-28 22:49:00,
2013-02-28 22:50:00,43.3,43.0,30.61,North,0,0.0,0.0,99,0.00,,,0.00,0,MyOwnSoftware,2013-02-28 22:50:00,
2013-02-28 22:51:00,43.3,43.0,30.61,North,0,0.0,0.0,99,0.00,,,0.00,0,MyOwnSoftware,2013-02-28 22:51:00,
2013-02-28 22:52:00,43.3,43.0,30.61,NE,45,0.0,1.0,99,0.00,,,0.00,0,MyOwnSoftware,2013-02-28 22:52:00,
2013-02-28 22:53:00,43.3,43.0,30.61,North,0,0.0,0.0,99,0.00,,,0.00,0,MyOwnSoftware,2013-02-28 22:53:00,
2013-02-28 22:54:00,43.3,43.0,30.61,North,0,0.0,0.0,99,0.00,,,0.00,0,MyOwnSoftware,2013-02-28 22:54:00,
2013-02-28 22:55:00,43.3,43.0,30.61,North,0,0.0,0.0,99,0.00,,,0.00,0,MyOwnSoftware,2013-02-28 22:55:00,
2013-02-28 22:56:00,43.3,43.0,30.61,North,0,0.0,0.0,99,0.00,,,0.00,0,MyOwnSoftware,2013-02-28 22:56:00,
2013-02-28 22:57:00,43.3,43.0,30.61,North,0,0.0,0.0,99,0.00,,,0.00,0,MyOwnSoftware,2013-02-28 22:57:00,
2013-02-28 22:58:00,43.3,43.0,30.61,North,0,0.0,0.0,99,0.00,,,0.00,0,MyOwnSoftware,2013-02-28 22:58:00,
2013-02-28 22:59:00,43.3,42.8,30.61,NE,45,0.0,1.0,98,0.00,,,0.00,0,MyOwnSoftware,2013-02-28 22:59:00,
2013-02-28 23:00:00,43.3,42.8,30.61,North,0,0.0,0.0,98,0.00,,,0.00,0,MyOwnSoftware,2013-02-28 23:00:00,
2013-02-28 23:01:00,43.3,42.8,30.61,North,0,0.0,0.0,98,0.00,,,0.00,0,MyOwnSoftware,2013-02-28 23:01:00,
2013-02-28 23:02:00,43.3,42.8,30.61,North,0,0.0,0.0,98,0.00,,,0.00,0,MyOwnSoftware,2013-02-28 23:02:00,
2013-02-28 23:03:00,43.3,42.8,30.61,North,0,0.0,0.0,98,0.00,,,0.00,0,MyOwnSoftware,2013-02-28 23:03:00,
2013-02-28 23:04:00,43.3,42.8,30.61,North,0,0.0,0.0,98,0.00,,,0.00,0,MyOwnSoftware,2013-02-28 23:04:00,
2013-02-28 23:05:00,43.3,42.8,30.61,North,0,0.0,0.0,98,0.00,,,0.00,0,MyOwnSoftware,2013-02-28 23:05:00,
2013-02-28 23:09:00,43.3,42.8,30.61,North,0,0.0,0.0,98,0.00,,,0.00,0,MyOwnSoftware,2013-02-28 23:09:00,
2013-02-28 23:10:00,43.3,42.8,30.61,North,0,0.0,0.0,98,0.00,,,0.00,0,MyOwnSoftware,2013-02-28 23:10:00,
2013-02-28 23:11:00,43.3,42.8,30.61,North,0,0.0,0.0,98,0.00,,,0.00,0,MyOwnSoftware,2013-02-28 23:11:00,
2013-02-28 23:12:00,43.3,42.8,30.61,North,0,0.0,0.0,98,0.00,,,0.00,0,MyOwnSoftware,2013-02-28 23:12:00,
2013-02-28 23:13:00,43.3,42.8,30.61,NE,45,0.0,2.0,98,0.00,,,0.00,0,MyOwnSoftware,2013-02-28 23:13:00,
2013-02-28 23:14:00,43.3,43.0,30.61,NE,56,0.0,-999.0,98,-99.99,,,0.00,0,weatherlink.com 1.10,2013-02-28 23:14:00,
2013-02-28 23:15:00,43.3,42.8,30.61,NE,45,0.0,1.0,98,0.00,,,0.00,0,MyOwnSoftware,2013-02-28 23:15:00,
2013-02-28 23:16:00,43.3,42.8,30.61,North,0,0.0,0.0,98,0.00,,,0.00,0,MyOwnSoftware,2013-02-28 23:16:00,
2013-02-28 23:17:00,43.3,42.8,30.61,North,0,0.0,0.0,98,0.00,,,0.00,0,MyOwnSoftware,2013-02-28 23:17:00,
2013-02-28 23:18:00,43.3,42.8,30.61,North,0,0.0,0.0,98,0.00,,,0.00,0,MyOwnSoftware,2013-02-28 23:18:00,
2013-02-28 23:19:00,43.3,42.8,30.61,North,0,0.0,0.0,98,0.00,,,0.00,0,MyOwnSoftware,2013-02-28 23:19:00,
2013-02-28 23:20:00,43.3,42.8,30.61,North,0,0.0,0.0,98,0.00,,,0.00,0,MyOwnSoftware,2013-02-28 23:20:00,
2013-02-28 23:21:00,43.3,42.8,30.61,North,0,0.0,0.0,98,0.00,,,0.00,0,MyOwnSoftware,2013-02-28 23:21:00,
2013-02-28 23:22:00,43.3,42.8,30.61,North,0,0.0,0.0,98,0.00,,,0.00,0,MyOwnSoftware,2013-02-28 23:22:00,
2013-02-28 23:23:00,43.3,42.8,30.61,North,0,0.0,0.0,98,0.00,,,0.00,0,MyOwnSoftware,2013-02-28 23:23:00,
2013-02-28 23:24:00,43.2,42.7,30.61,North,0,0.0,0.0,98,0.00,,,0.00,0,MyOwnSoftware,2013-02-28 23:24:00,
2013-02-28 23:25:00,43.2,42.7,30.61,North,0,0.0,0.0,98,0.00,,,0.00,0,MyOwnSoftware,2013-02-28 23:25:00,
2013-02-28 23:29:00,43.2,43.0,30.61,NE,56,0.0,-999.0,98,-99.99,,,0.00,0,weatherlink.com 1.10,2013-02-28 23:29:00,
2013-02-28 23:30:00,43.2,42.7,30.61,North,0,0.0,0.0,98,0.00,,,0.00,0,MyOwnSoftware,2013-02-28 23:30:00,
2013-02-28 23:31:00,43.2,42.7,30.61,North,0,0.0,0.0,98,0.00,,,0.00,0,MyOwnSoftware,2013-02-28 23:31:00,
2013-02-28 23:32:00,43.2,42.7,30.61,North,0,0.0,0.0,98,0.00,,,0.00,0,MyOwnSoftware,2013-02-28 23:32:00,
2013-02-28 23:33:00,43.2,42.7,30.61,North,0,0.0,0.0,98,0.00,,,0.00,0,MyOwnSoftware,2013-02-28 23:33:00,
2013-02-28 23:34:00,43.2,42.7,30.61,North,0,0.0,0.0,98,0.00,,,0.00,0,MyOwnSoftware,2013-02-28 23:34:00,
2013-02-28 23:35:00,43.2,42.7,30.61,North,0,0.0,0.0,98,0.00,,,0.00,0,MyOwnSoftware,2013-02-28 23:35:00,
2013-02-28 23:39:00,43.2,42.7,30.61,North,0,0.0,0.0,98,0.00,,,0.00,0,MyOwnSoftware,2013-02-28 23:39:00,
2013-02-28 23:40:00,43.2,42.7,30.61,North,0,0.0,0.0,98,0.00,,,0.00,0,MyOwnSoftware,2013-02-28 23:40:00,
2013-02-28 23:41:00,43.2,42.7,30.61,North,0,0.0,0.0,98,0.00,,,0.00,0,MyOwnSoftware,2013-02-28 23:41:00,
2013-02-28 23:42:00,43.2,42.7,30.61,North,0,0.0,0.0,98,0.00,,,0.00,0,MyOwnSoftware,2013-02-28 23:42:00,
2013-02-28 23:43:00,43.2,42.7,30.61,North,0,0.0,0.0,98,0.00,,,0.00,0,MyOwnSoftware,2013-02-28 23:43:00,
2013-02-28 23:44:00,43.2,43.0,30.61,NE,56,0.0,-999.0,98,-99.99,,,0.00,0,weatherlink.com 1.10,2013-02-28 23:44:00,
2013-02-28 23:45:00,43.2,42.7,30.61,North,0,0.0,0.0,98,0.00,,,0.00,0,MyOwnSoftware,2013-02-28 23:45:00,
2013-02-28 23:49:00,43.2,42.7,30.61,North,0,0.0,0.0,98,0.00,,,0.00,0,MyOwnSoftware,2013-02-28 23:49:00,
2013-02-28 23:50:00,43.2,42.7,30.61,North,0,0.0,0.0,98,0.00,,,0.00,0,MyOwnSoftware,2013-02-28 23:50:00,
2013-02-28 23:51:00,43.1,42.6,30.61,NE,45,0.0,1.0,98,0.00,,,0.00,0,MyOwnSoftware,2013-02-28 23:51:00,
2013-02-28 23:52:00,43.1,42.6,30.61,North,0,0.0,0.0,98,0.00,,,0.00,0,MyOwnSoftware,2013-02-28 23:52:00,
2013-02-28 23:53:00,43.1,42.6,30.61,North,0,0.0,0.0,98,0.00,,,0.00,0,MyOwnSoftware,2013-02-28 23:53:00,
2013-02-28 23:54:00,43.1,42.6,30.61,North,0,0.0,0.0,98,0.00,,,0.00,0,MyOwnSoftware,2013-02-28 23:54:00,
2013-02-28 23:55:00,43.2,42.7,30.61,NE,45,0.0,1.0,98,0.00,,,0.00,0,MyOwnSoftware,2013-02-28 23:55:00,
2013-02-28 23:56:00,43.1,42.6,30.61,North,0,0.0,0.0,98,0.00,,,0.00,0,MyOwnSoftware,2013-02-28 23:56:00,
2013-02-28 23:57:00,43.1,42.6,30.61,North,0,0.0,0.0,98,0.00,,,0.00,0,MyOwnSoftware,2013-02-28 23:57:00,
2013-02-28 23:58:00,43.1,42.6,30.61,North,0,0.0,0.0,98,0.00,,,0.00,0,MyOwnSoftware,2013-02-28 23:58:00,
2013-02-28 23:59:00,43.1,42.6,30.61,North,0,0.0,0.0,98,0.00,,,0.00,0,MyOwnSoftware,2013-02-28 23:59:00,